<?xml version='1.0' encoding='UTF-8'?><gpx version="1.1" creator="JPX - https://github.com/jenetics/jpx" xmlns="http://www.topografix.com/GPX/1/1"><trk><trkseg><trkpt lat="44.864198792573234" lon="11.51049767418602"><ele>11.0</ele><time>2026-04-04T11:55:55Z</time></trkpt><trkpt lat="44.86412312386593" lon="11.510515458291527"><ele>11.0</ele><time>2026-04-04T11:55:56Z</time></trkpt><trkpt lat="44.86405233638994" lon="11.510561378487496"><ele>11.0</ele><time>2026-04-04T11:55:57Z</time></trkpt><trkpt lat="44.86398482184925" lon="11.510613645730034"><ele>11.0</ele><time>2026-04-04T11:55:58Z</time></trkpt><trkpt lat="44.86390485979151" lon="11.510669868586467"><ele>11.0</ele><time>2026-04-04T11:55:59Z</time></trkpt><trkpt lat="44.86382436283855" lon="11.510715504513254"><ele>11.0</ele><time>2026-04-04T11:56:00Z</time></trkpt><trkpt lat="44.863741520575545" lon="11.510766180565023"><ele>11.0</ele><time>2026-04-04T11:56:01Z</time></trkpt><trkpt lat="44.86365049108126" lon="11.510817673656351"><ele>11.0</ele><time>2026-04-04T11:56:02Z</time></trkpt><trkpt lat="44.86356684251132" lon="11.510868348585952"><ele>11.0</ele><time>2026-04-04T11:56:03Z</time></trkpt><trkpt lat="44.86348616109011" lon="11.510921332332872"><ele>11.0</ele><time>2026-04-04T11:56:04Z</time></trkpt><trkpt lat="44.86339400758046" lon="11.510974944221793"><ele>11.0</ele><time>2026-04-04T11:56:05Z</time></trkpt><trkpt lat="44.86331237557757" lon="11.511022443435232"><ele>11.0</ele><time>2026-04-04T11:56:06Z</time></trkpt><trkpt lat="44.863231496218184" lon="11.511062211030323"><ele>11.0</ele><time>2026-04-04T11:56:07Z</time></trkpt><trkpt lat="44.86316778638065" lon="11.511102155788569"><ele>11.0</ele><time>2026-04-04T11:56:08Z</time></trkpt><trkpt lat="44.86305812761551" lon="11.511152726166825"><ele>11.0</ele><time>2026-04-04T11:56:10Z</time></trkpt><trkpt lat="44.86296293782294" lon="11.511208954867113"><ele>11.0</ele><time>2026-04-04T11:56:12Z</time></trkpt><trkpt lat="44.86290064087584" lon="11.511236822571028"><ele>11.0</ele><time>2026-04-04T11:56:13Z</time></trkpt><trkpt lat="44.86282422294228" lon="11.511265826496846"><ele>11.0</ele><time>2026-04-04T11:56:14Z</time></trkpt><trkpt lat="44.86273583829556" lon="11.511302135440854"><ele>11.0</ele><time>2026-04-04T11:56:15Z</time></trkpt><trkpt lat="44.86264090533836" lon="11.511343720050716"><ele>11.0</ele><time>2026-04-04T11:56:16Z</time></trkpt><trkpt lat="44.86253857648214" lon="11.511375325543709"><ele>11.0</ele><time>2026-04-04T11:56:17Z</time></trkpt><trkpt lat="44.86245210132433" lon="11.511419945704985"><ele>11.0</ele><time>2026-04-04T11:56:18Z</time></trkpt><trkpt lat="44.86236219230171" lon="11.511455634837086"><ele>11.166666666666666</ele><time>2026-04-04T11:56:18.999Z</time></trkpt><trkpt lat="44.86227343214813" lon="11.511489440625839"><ele>11.333333333333332</ele><time>2026-04-04T11:56:19.999Z</time></trkpt><trkpt lat="44.8621849155788" lon="11.511532085367078"><ele>11.5</ele><time>2026-04-04T11:56:20.999Z</time></trkpt><trkpt lat="44.862098836397834" lon="11.511570220011444"><ele>11.666666666666666</ele><time>2026-04-04T11:56:21.999Z</time></trkpt><trkpt lat="44.862012378332736" lon="11.511619019583296"><ele>11.833333333333334</ele><time>2026-04-04T11:56:22.999Z</time></trkpt><trkpt lat="44.861952742126725" lon="11.511656164177708"><ele>12.0</ele><time>2026-04-04T11:56:23.999Z</time></trkpt><trkpt lat="44.86187790249022" lon="11.511678221607255"><ele>12.0</ele><time>2026-04-04T11:56:24.999Z</time></trkpt><trkpt lat="44.86180083924312" lon="11.51169189066552"><ele>12.0</ele><time>2026-04-04T11:56:25.999Z</time></trkpt><trkpt lat="44.86171264737465" lon="11.511755451072965"><ele>12.0</ele><time>2026-04-04T11:56:26.999Z</time></trkpt><trkpt lat="44.86161955190393" lon="11.511803092368028"><ele>12.0</ele><time>2026-04-04T11:56:27.999Z</time></trkpt><trkpt lat="44.86152836756202" lon="11.511856136536347"><ele>12.0</ele><time>2026-04-04T11:56:28.999Z</time></trkpt><trkpt lat="44.86142389058736" lon="11.511903068927404"><ele>12.0</ele><time>2026-04-04T11:56:29.999Z</time></trkpt><trkpt lat="44.861321599907356" lon="11.511945674564135"><ele>12.0</ele><time>2026-04-04T11:56:30.999Z</time></trkpt><trkpt lat="44.86122080480489" lon="11.512011732218681"><ele>12.0</ele><time>2026-04-04T11:56:31.999Z</time></trkpt><trkpt lat="44.86111436000209" lon="11.512072509700793"><ele>12.0</ele><time>2026-04-04T11:56:32.999Z</time></trkpt><trkpt lat="44.86101407775835" lon="11.512134682847615"><ele>12.0</ele><time>2026-04-04T11:56:33.999Z</time></trkpt><trkpt lat="44.860906312679795" lon="11.512207032176073"><ele>11.25</ele><time>2026-04-04T11:56:34.999Z</time></trkpt><trkpt lat="44.860784340401274" lon="11.512288265822043"><ele>10.5</ele><time>2026-04-04T11:56:35.999Z</time></trkpt><trkpt lat="44.860651017776306" lon="11.512384596761954"><ele>9.75</ele><time>2026-04-04T11:56:36.999Z</time></trkpt><trkpt lat="44.86051881546869" lon="11.512480337092436"><ele>9.0</ele><time>2026-04-04T11:56:37.999Z</time></trkpt><trkpt lat="44.86040672894294" lon="11.512556043810086"><ele>9.0</ele><time>2026-04-04T11:56:38.999Z</time></trkpt><trkpt lat="44.86031207036334" lon="11.512639623831328"><ele>9.0</ele><time>2026-04-04T11:56:39.999Z</time></trkpt><trkpt lat="44.86021011258684" lon="11.512733124100272"><ele>9.0</ele><time>2026-04-04T11:56:40.999Z</time></trkpt><trkpt lat="44.86010323896224" lon="11.512849337265616"><ele>9.0</ele><time>2026-04-04T11:56:41.999Z</time></trkpt><trkpt lat="44.86000373149429" lon="11.512982070794509"><ele>9.333333333333334</ele><time>2026-04-04T11:56:42.999Z</time></trkpt><trkpt lat="44.85988989868563" lon="11.513115242838124"><ele>9.666666666666668</ele><time>2026-04-04T11:56:43.999Z</time></trkpt><trkpt lat="44.85977642888181" lon="11.513262504509319"><ele>10.0</ele><time>2026-04-04T11:56:44.999Z</time></trkpt><trkpt lat="44.85966430302428" lon="11.513432280189198"><ele>10.0</ele><time>2026-04-04T11:56:45.999Z</time></trkpt><trkpt lat="44.85955133639273" lon="11.51360244722305"><ele>10.0</ele><time>2026-04-04T11:56:46.999Z</time></trkpt><trkpt lat="44.85944523595493" lon="11.513754202318825"><ele>10.0</ele><time>2026-04-04T11:56:47.999Z</time></trkpt><trkpt lat="44.85936152659501" lon="11.513898332585383"><ele>10.0</ele><time>2026-04-04T11:56:48.999Z</time></trkpt><trkpt lat="44.85928185317315" lon="11.514029471701683"><ele>9.6</ele><time>2026-04-04T11:56:49.999Z</time></trkpt><trkpt lat="44.859215546205974" lon="11.514147272459532"><ele>9.2</ele><time>2026-04-04T11:56:50.999Z</time></trkpt><trkpt lat="44.85915557381933" lon="11.514258869561262"><ele>8.8</ele><time>2026-04-04T11:56:51.999Z</time></trkpt><trkpt lat="44.85909236759125" lon="11.514379034891487"><ele>8.4</ele><time>2026-04-04T11:56:52.999Z</time></trkpt><trkpt lat="44.859029866776595" lon="11.514485208263446"><ele>8.0</ele><time>2026-04-04T11:56:53.999Z</time></trkpt><trkpt lat="44.858960304147466" lon="11.514569525404609"><ele>8.200000000000001</ele><time>2026-04-04T11:56:54.999Z</time></trkpt><trkpt lat="44.85888512252449" lon="11.514621567752572"><ele>8.4</ele><time>2026-04-04T11:56:55.999Z</time></trkpt><trkpt lat="44.858811894648035" lon="11.514657004498014"><ele>8.600000000000001</ele><time>2026-04-04T11:56:56.999Z</time></trkpt><trkpt lat="44.85873185222177" lon="11.514706639791775"><ele>8.8</ele><time>2026-04-04T11:56:57.999Z</time></trkpt><trkpt lat="44.85866869216373" lon="11.51488811499102"><ele>9.0</ele><time>2026-04-04T11:56:59.999Z</time></trkpt><trkpt lat="44.85866076656325" lon="11.515016719108205"><ele>9.0</ele><time>2026-04-04T11:57:00.999Z</time></trkpt><trkpt lat="44.858658341542046" lon="11.515159837106639"><ele>9.0</ele><time>2026-04-04T11:57:01.999Z</time></trkpt><trkpt lat="44.85864810150519" lon="11.515319487280669"><ele>9.0</ele><time>2026-04-04T11:57:02.999Z</time></trkpt><trkpt lat="44.8586280542801" lon="11.515487822829208"><ele>9.0</ele><time>2026-04-04T11:57:03.999Z</time></trkpt><trkpt lat="44.858598787629326" lon="11.515674854557302"><ele>8.75</ele><time>2026-04-04T11:57:04.999Z</time></trkpt><trkpt lat="44.85856574235424" lon="11.515867004578478"><ele>8.5</ele><time>2026-04-04T11:57:05.999Z</time></trkpt><trkpt lat="44.85853260989122" lon="11.516074480281322"><ele>8.25</ele><time>2026-04-04T11:57:06.999Z</time></trkpt><trkpt lat="44.8584987088699" lon="11.516280544002923"><ele>8.0</ele><time>2026-04-04T11:57:07.999Z</time></trkpt><trkpt lat="44.8584516075243" lon="11.516490033568136"><ele>8.333333333333332</ele><time>2026-04-04T11:57:08.999Z</time></trkpt><trkpt lat="44.85839788464654" lon="11.516707931927595"><ele>8.666666666666666</ele><time>2026-04-04T11:57:09.999Z</time></trkpt><trkpt lat="44.85833832033515" lon="11.516932187110571"><ele>9.0</ele><time>2026-04-04T11:57:10.999Z</time></trkpt><trkpt lat="44.858279476038994" lon="11.517163274057314"><ele>9.0</ele><time>2026-04-04T11:57:11.999Z</time></trkpt><trkpt lat="44.85823185515454" lon="11.517406355023533"><ele>9.0</ele><time>2026-04-04T11:57:12.999Z</time></trkpt><trkpt lat="44.85819283054504" lon="11.517647752619801"><ele>9.0</ele><time>2026-04-04T11:57:13.999Z</time></trkpt><trkpt lat="44.85816855800474" lon="11.517880969840638"><ele>9.0</ele><time>2026-04-04T11:57:14.999Z</time></trkpt><trkpt lat="44.85814355802908" lon="11.518118175640396"><ele>9.0</ele><time>2026-04-04T11:57:15.999Z</time></trkpt><trkpt lat="44.85812577976498" lon="11.518351760388633"><ele>9.0</ele><time>2026-04-04T11:57:16.999Z</time></trkpt><trkpt lat="44.85810475474692" lon="11.518579853961691"><ele>9.0</ele><time>2026-04-04T11:57:17.999Z</time></trkpt><trkpt lat="44.85808278690978" lon="11.518818018436372"><ele>9.0</ele><time>2026-04-04T11:57:18.999Z</time></trkpt><trkpt lat="44.85806274190761" lon="11.519061423343063"><ele>9.0</ele><time>2026-04-04T11:57:19.999Z</time></trkpt><trkpt lat="44.85804600500013" lon="11.519302062133631"><ele>9.0</ele><time>2026-04-04T11:57:20.999Z</time></trkpt><trkpt lat="44.858031734286975" lon="11.51953401867527"><ele>9.0</ele><time>2026-04-04T11:57:21.999Z</time></trkpt><trkpt lat="44.8580124811998" lon="11.519761741453548"><ele>9.0</ele><time>2026-04-04T11:57:22.999Z</time></trkpt><trkpt lat="44.85799597001263" lon="11.51998832613044"><ele>9.0</ele><time>2026-04-04T11:57:23.999Z</time></trkpt><trkpt lat="44.85798032968229" lon="11.520213519752092"><ele>9.0</ele><time>2026-04-04T11:57:24.999Z</time></trkpt><trkpt lat="44.857968584505734" lon="11.520438201426705"><ele>9.0</ele><time>2026-04-04T11:57:25.999Z</time></trkpt><trkpt lat="44.857961399501484" lon="11.52066470458942"><ele>8.666666666666666</ele><time>2026-04-04T11:57:26.999Z</time></trkpt><trkpt lat="44.85796016955767" lon="11.520890108841572"><ele>8.333333333333332</ele><time>2026-04-04T11:57:27.999Z</time></trkpt><trkpt lat="44.85795854125179" lon="11.521111054708333"><ele>8.0</ele><time>2026-04-04T11:57:28.999Z</time></trkpt><trkpt lat="44.85795419230033" lon="11.521339302152205"><ele>7.666666666666666</ele><time>2026-04-04T11:57:29.999Z</time></trkpt><trkpt lat="44.8579527295036" lon="11.521560331945423"><ele>7.333333333333334</ele><time>2026-04-04T11:57:30.999Z</time></trkpt><trkpt lat="44.857949717057764" lon="11.521785324537396"><ele>7.0</ele><time>2026-04-04T11:57:31.999Z</time></trkpt><trkpt lat="44.85794065365917" lon="11.522007980654582"><ele>7.333333333333334</ele><time>2026-04-04T11:57:32.999Z</time></trkpt><trkpt lat="44.857908824202966" lon="11.522224057733712"><ele>7.666666666666666</ele><time>2026-04-04T11:57:33.999Z</time></trkpt><trkpt lat="44.85784207619128" lon="11.522425157288046"><ele>8.0</ele><time>2026-04-04T11:57:34.999Z</time></trkpt><trkpt lat="44.857772026246124" lon="11.522627040856957"><ele>8.0</ele><time>2026-04-04T11:57:35.999Z</time></trkpt><trkpt lat="44.85766934416967" lon="11.522799692405918"><ele>8.0</ele><time>2026-04-04T11:57:36.999Z</time></trkpt><trkpt lat="44.85756083999016" lon="11.522968680807525"><ele>8.0</ele><time>2026-04-04T11:57:37.999Z</time></trkpt><trkpt lat="44.857452430840965" lon="11.523130824826808"><ele>8.333333333333332</ele><time>2026-04-04T11:57:39Z</time></trkpt><trkpt lat="44.857337460434394" lon="11.523295410087655"><ele>8.666666666666666</ele><time>2026-04-04T11:57:40Z</time></trkpt><trkpt lat="44.85722139155144" lon="11.523460424452372"><ele>9.0</ele><time>2026-04-04T11:57:41Z</time></trkpt><trkpt lat="44.857109123170254" lon="11.523621831997875"><ele>8.666666666666666</ele><time>2026-04-04T11:57:42Z</time></trkpt><trkpt lat="44.85699847044156" lon="11.5237755834483"><ele>8.333333333333332</ele><time>2026-04-04T11:57:43Z</time></trkpt><trkpt lat="44.856893266970864" lon="11.52392799028607"><ele>8.0</ele><time>2026-04-04T11:57:44Z</time></trkpt><trkpt lat="44.85678533231603" lon="11.52408940798064"><ele>8.0</ele><time>2026-04-04T11:57:45Z</time></trkpt><trkpt lat="44.85668302960363" lon="11.524264170127292"><ele>8.0</ele><time>2026-04-04T11:57:46Z</time></trkpt><trkpt lat="44.85660105430731" lon="11.524456685517093"><ele>8.0</ele><time>2026-04-04T11:57:47Z</time></trkpt><trkpt lat="44.856545673076305" lon="11.52466407038488"><ele>8.333333333333332</ele><time>2026-04-04T11:57:48Z</time></trkpt><trkpt lat="44.856506120664804" lon="11.524878077089266"><ele>8.666666666666666</ele><time>2026-04-04T11:57:49Z</time></trkpt><trkpt lat="44.856484262740096" lon="11.52510248218775"><ele>9.0</ele><time>2026-04-04T11:57:50Z</time></trkpt><trkpt lat="44.85647847184686" lon="11.525333166216255"><ele>9.333333333333334</ele><time>2026-04-04T11:57:51Z</time></trkpt><trkpt lat="44.8564942386954" lon="11.52556002615759"><ele>9.666666666666668</ele><time>2026-04-04T11:57:52Z</time></trkpt><trkpt lat="44.856531872890365" lon="11.525780301931658"><ele>10.0</ele><time>2026-04-04T11:57:53Z</time></trkpt><trkpt lat="44.85658912154936" lon="11.525994165221437"><ele>10.0</ele><time>2026-04-04T11:57:54Z</time></trkpt><trkpt lat="44.85665188130362" lon="11.526191263382335"><ele>10.0</ele><time>2026-04-04T11:57:55Z</time></trkpt><trkpt lat="44.85670626340383" lon="11.526382043271838"><ele>10.0</ele><time>2026-04-04T11:57:56Z</time></trkpt><trkpt lat="44.85673516966325" lon="11.526600014142824"><ele>9.666666666666668</ele><time>2026-04-04T11:57:57Z</time></trkpt><trkpt lat="44.856771192423665" lon="11.526821470216376"><ele>9.333333333333334</ele><time>2026-04-04T11:57:58Z</time></trkpt><trkpt lat="44.856798660941884" lon="11.527026090960709"><ele>9.0</ele><time>2026-04-04T11:57:59Z</time></trkpt><trkpt lat="44.85682080610581" lon="11.527233281101807"><ele>8.25</ele><time>2026-04-04T11:58:00Z</time></trkpt><trkpt lat="44.856854623020865" lon="11.52744140181354"><ele>7.5</ele><time>2026-04-04T11:58:01Z</time></trkpt><trkpt lat="44.85686537507785" lon="11.527653747443631"><ele>6.75</ele><time>2026-04-04T11:58:02Z</time></trkpt><trkpt lat="44.85685816153732" lon="11.527859268524658"><ele>6.0</ele><time>2026-04-04T11:58:03Z</time></trkpt><trkpt lat="44.85688071267598" lon="11.528060876233926"><ele>5.75</ele><time>2026-04-04T11:58:04Z</time></trkpt><trkpt lat="44.85688859655688" lon="11.528267265081325"><ele>5.5</ele><time>2026-04-04T11:58:05Z</time></trkpt><trkpt lat="44.856889924209206" lon="11.528480165352688"><ele>5.25</ele><time>2026-04-04T11:58:06Z</time></trkpt><trkpt lat="44.85689332706278" lon="11.528684442809993"><ele>5.0</ele><time>2026-04-04T11:58:07Z</time></trkpt><trkpt lat="44.85690242987661" lon="11.528878423662466"><ele>5.0</ele><time>2026-04-04T11:58:08Z</time></trkpt><trkpt lat="44.85690776425186" lon="11.529077226981027"><ele>5.0</ele><time>2026-04-04T11:58:09Z</time></trkpt><trkpt lat="44.85691557908299" lon="11.529279597916908"><ele>5.0</ele><time>2026-04-04T11:58:09.999Z</time></trkpt><trkpt lat="44.85692233842202" lon="11.529476416648665"><ele>5.0</ele><time>2026-04-04T11:58:10.999Z</time></trkpt><trkpt lat="44.85692976693868" lon="11.529673886954393"><ele>5.25</ele><time>2026-04-04T11:58:11.999Z</time></trkpt><trkpt lat="44.85693546945815" lon="11.52986381896736"><ele>5.5</ele><time>2026-04-04T11:58:12.999Z</time></trkpt><trkpt lat="44.85694306688276" lon="11.530053854987738"><ele>5.75</ele><time>2026-04-04T11:58:13.999Z</time></trkpt><trkpt lat="44.856951234943836" lon="11.530240894229669"><ele>6.0</ele><time>2026-04-04T11:58:14.999Z</time></trkpt><trkpt lat="44.8569582524112" lon="11.530427491167579"><ele>6.0</ele><time>2026-04-04T11:58:15.999Z</time></trkpt><trkpt lat="44.85696508941012" lon="11.530624257447846"><ele>6.0</ele><time>2026-04-04T11:58:16.999Z</time></trkpt><trkpt lat="44.85697040104057" lon="11.530819980370984"><ele>6.0</ele><time>2026-04-04T11:58:17.999Z</time></trkpt><trkpt lat="44.85697251867408" lon="11.53100999987717"><ele>6.0</ele><time>2026-04-04T11:58:18.999Z</time></trkpt><trkpt lat="44.85697094263877" lon="11.531194927745183"><ele>6.0</ele><time>2026-04-04T11:58:19.999Z</time></trkpt><trkpt lat="44.85696910246806" lon="11.53138242742144"><ele>6.0</ele><time>2026-04-04T11:58:20.999Z</time></trkpt><trkpt lat="44.856966280656444" lon="11.531568119618685"><ele>6.0</ele><time>2026-04-04T11:58:21.999Z</time></trkpt><trkpt lat="44.856958253668154" lon="11.531762879063459"><ele>6.0</ele><time>2026-04-04T11:58:22.999Z</time></trkpt><trkpt lat="44.856956346357606" lon="11.531953427176918"><ele>6.25</ele><time>2026-04-04T11:58:23.999Z</time></trkpt><trkpt lat="44.85694776093523" lon="11.532157723183337"><ele>6.5</ele><time>2026-04-04T11:58:24.999Z</time></trkpt><trkpt lat="44.85693468324342" lon="11.532367616178382"><ele>6.75</ele><time>2026-04-04T11:58:25.999Z</time></trkpt><trkpt lat="44.85692570837497" lon="11.532574759854878"><ele>7.0</ele><time>2026-04-04T11:58:26.999Z</time></trkpt><trkpt lat="44.856916522130994" lon="11.532782264743327"><ele>6.75</ele><time>2026-04-04T11:58:27.999Z</time></trkpt><trkpt lat="44.85690486764709" lon="11.532967928859204"><ele>6.5</ele><time>2026-04-04T11:58:28.999Z</time></trkpt><trkpt lat="44.85688907130544" lon="11.533182658732196"><ele>6.25</ele><time>2026-04-04T11:58:29.999Z</time></trkpt><trkpt lat="44.85687449808594" lon="11.533390898403782"><ele>6.0</ele><time>2026-04-04T11:58:30.999Z</time></trkpt><trkpt lat="44.85685763855956" lon="11.533600835352885"><ele>6.0</ele><time>2026-04-04T11:58:31.999Z</time></trkpt><trkpt lat="44.8568374701933" lon="11.533820523867757"><ele>6.0</ele><time>2026-04-04T11:58:32.999Z</time></trkpt><trkpt lat="44.85681179428854" lon="11.534037888711499"><ele>6.0</ele><time>2026-04-04T11:58:33.999Z</time></trkpt><trkpt lat="44.85679893162692" lon="11.534243626688774"><ele>6.0</ele><time>2026-04-04T11:58:34.999Z</time></trkpt><trkpt lat="44.85677825627945" lon="11.534453782574621"><ele>6.0</ele><time>2026-04-04T11:58:35.999Z</time></trkpt><trkpt lat="44.85675749751617" lon="11.534669193902683"><ele>6.0</ele><time>2026-04-04T11:58:36.999Z</time></trkpt><trkpt lat="44.85672965864588" lon="11.534890362542859"><ele>6.0</ele><time>2026-04-04T11:58:37.999Z</time></trkpt><trkpt lat="44.85670004243256" lon="11.535112729486187"><ele>6.0</ele><time>2026-04-04T11:58:38.999Z</time></trkpt><trkpt lat="44.85666921068309" lon="11.535335216136428"><ele>6.0</ele><time>2026-04-04T11:58:39.999Z</time></trkpt><trkpt lat="44.85663780158459" lon="11.535558711617048"><ele>6.333333333333334</ele><time>2026-04-04T11:58:40.999Z</time></trkpt><trkpt lat="44.85659760152505" lon="11.535795524731487"><ele>6.666666666666667</ele><time>2026-04-04T11:58:41.999Z</time></trkpt><trkpt lat="44.85656071015598" lon="11.536027387925907"><ele>7.0</ele><time>2026-04-04T11:58:42.999Z</time></trkpt><trkpt lat="44.856521872347706" lon="11.536257794381582"><ele>7.333333333333334</ele><time>2026-04-04T11:58:43.999Z</time></trkpt><trkpt lat="44.85648814230765" lon="11.536487392730917"><ele>7.666666666666666</ele><time>2026-04-04T11:58:44.999Z</time></trkpt><trkpt lat="44.85645615640333" lon="11.53670749822129"><ele>8.0</ele><time>2026-04-04T11:58:45.999Z</time></trkpt><trkpt lat="44.856425119395986" lon="11.53694215277087"><ele>7.333333333333333</ele><time>2026-04-04T11:58:46.999Z</time></trkpt><trkpt lat="44.856396595296836" lon="11.537174455347138"><ele>6.666666666666666</ele><time>2026-04-04T11:58:47.999Z</time></trkpt><trkpt lat="44.85636474119395" lon="11.53740920147742"><ele>6.0</ele><time>2026-04-04T11:58:48.999Z</time></trkpt><trkpt lat="44.856334972272286" lon="11.537649930474794"><ele>6.0</ele><time>2026-04-04T11:58:49.999Z</time></trkpt><trkpt lat="44.85630497000981" lon="11.537886410542649"><ele>6.0</ele><time>2026-04-04T11:58:50.999Z</time></trkpt><trkpt lat="44.85627386108466" lon="11.538125781471107"><ele>6.0</ele><time>2026-04-04T11:58:51.999Z</time></trkpt><trkpt lat="44.85623841953354" lon="11.538366623577815"><ele>6.0</ele><time>2026-04-04T11:58:52.999Z</time></trkpt><trkpt lat="44.85620314752039" lon="11.538602321976507"><ele>6.0</ele><time>2026-04-04T11:58:53.999Z</time></trkpt><trkpt lat="44.85616880621559" lon="11.538849219136264"><ele>6.0</ele><time>2026-04-04T11:58:54.999Z</time></trkpt><trkpt lat="44.85612853407235" lon="11.539089516694254"><ele>5.666666666666667</ele><time>2026-04-04T11:58:55.999Z</time></trkpt><trkpt lat="44.85608792900235" lon="11.539332556959744"><ele>5.333333333333334</ele><time>2026-04-04T11:58:56.999Z</time></trkpt><trkpt lat="44.856048006583634" lon="11.53957928499065"><ele>5.0</ele><time>2026-04-04T11:58:57.999Z</time></trkpt><trkpt lat="44.85600634927594" lon="11.53982815198066"><ele>4.666666666666667</ele><time>2026-04-04T11:58:58.999Z</time></trkpt><trkpt lat="44.855974806405726" lon="11.540072643642446"><ele>4.333333333333333</ele><time>2026-04-04T11:58:59.999Z</time></trkpt><trkpt lat="44.85594453739456" lon="11.540324566768675"><ele>4.0</ele><time>2026-04-04T11:59:00.999Z</time></trkpt><trkpt lat="44.855904900330344" lon="11.540567010878057"><ele>5.0</ele><time>2026-04-04T11:59:01.999Z</time></trkpt><trkpt lat="44.85587373090853" lon="11.540815605575627"><ele>6.0</ele><time>2026-04-04T11:59:02.999Z</time></trkpt><trkpt lat="44.85583748979405" lon="11.54106305345755"><ele>7.0</ele><time>2026-04-04T11:59:03.999Z</time></trkpt><trkpt lat="44.855802574465805" lon="11.541303682893007"><ele>7.0</ele><time>2026-04-04T11:59:04.999Z</time></trkpt><trkpt lat="44.855766602280795" lon="11.541539342574291"><ele>7.0</ele><time>2026-04-04T11:59:05.999Z</time></trkpt><trkpt lat="44.85572918170126" lon="11.541775683778864"><ele>7.0</ele><time>2026-04-04T11:59:06.999Z</time></trkpt><trkpt lat="44.85568543274832" lon="11.542007320579058"><ele>7.0</ele><time>2026-04-04T11:59:07.999Z</time></trkpt><trkpt lat="44.85564458760372" lon="11.542242212434532"><ele>7.0</ele><time>2026-04-04T11:59:08.999Z</time></trkpt><trkpt lat="44.85559820352058" lon="11.542476396915998"><ele>7.0</ele><time>2026-04-04T11:59:09.999Z</time></trkpt><trkpt lat="44.85554499390093" lon="11.54271221025962"><ele>7.0</ele><time>2026-04-04T11:59:10.999Z</time></trkpt><trkpt lat="44.855484922174924" lon="11.542940983003128"><ele>7.0</ele><time>2026-04-04T11:59:11.999Z</time></trkpt><trkpt lat="44.8554235871365" lon="11.543168733319112"><ele>7.0</ele><time>2026-04-04T11:59:12.999Z</time></trkpt><trkpt lat="44.855360228588005" lon="11.543392908702579"><ele>7.0</ele><time>2026-04-04T11:59:13.999Z</time></trkpt><trkpt lat="44.85529803187837" lon="11.54361242920062"><ele>7.0</ele><time>2026-04-04T11:59:14.999Z</time></trkpt><trkpt lat="44.85523821371125" lon="11.543830678631577"><ele>7.0</ele><time>2026-04-04T11:59:15.999Z</time></trkpt><trkpt lat="44.85518065512958" lon="11.544044198707503"><ele>7.0</ele><time>2026-04-04T11:59:16.999Z</time></trkpt><trkpt lat="44.85512446076249" lon="11.544256746664164"><ele>7.0</ele><time>2026-04-04T11:59:17.999Z</time></trkpt><trkpt lat="44.855080968052036" lon="11.544464661018566"><ele>7.0</ele><time>2026-04-04T11:59:18.999Z</time></trkpt><trkpt lat="44.85505304875424" lon="11.544670171053792"><ele>6.75</ele><time>2026-04-04T11:59:19.999Z</time></trkpt><trkpt lat="44.85503302130744" lon="11.544870360873146"><ele>6.5</ele><time>2026-04-04T11:59:20.999Z</time></trkpt><trkpt lat="44.85502226888342" lon="11.545065870807983"><ele>6.25</ele><time>2026-04-04T11:59:21.999Z</time></trkpt><trkpt lat="44.85501471559763" lon="11.545254126382106"><ele>6.0</ele><time>2026-04-04T11:59:22.999Z</time></trkpt><trkpt lat="44.855008712433275" lon="11.545437684270118"><ele>6.75</ele><time>2026-04-04T11:59:23.999Z</time></trkpt><trkpt lat="44.85500811999864" lon="11.545611815340141"><ele>7.5</ele><time>2026-04-04T11:59:24.999Z</time></trkpt><trkpt lat="44.85500768973434" lon="11.545788261628674"><ele>8.25</ele><time>2026-04-04T11:59:25.999Z</time></trkpt><trkpt lat="44.85498747054887" lon="11.545941435869967"><ele>9.0</ele><time>2026-04-04T11:59:26.999Z</time></trkpt><trkpt lat="44.854981598579926" lon="11.546079408121708"><ele>9.0</ele><time>2026-04-04T11:59:27.999Z</time></trkpt><trkpt lat="44.85495126779981" lon="11.546203382971258"><ele>9.0</ele><time>2026-04-04T11:59:28.999Z</time></trkpt><trkpt lat="44.85490653233071" lon="11.54630365325515"><ele>9.0</ele><time>2026-04-04T11:59:29.999Z</time></trkpt><trkpt lat="44.85484511791694" lon="11.5463882569561"><ele>9.0</ele><time>2026-04-04T11:59:30.999Z</time></trkpt><trkpt lat="44.85477024935748" lon="11.546454878881413"><ele>9.0</ele><time>2026-04-04T11:59:31.999Z</time></trkpt><trkpt lat="44.85470792209577" lon="11.546538029974181"><ele>9.0</ele><time>2026-04-04T11:59:32.999Z</time></trkpt><trkpt lat="44.85466067441731" lon="11.546643475505904"><ele>8.6</ele><time>2026-04-04T11:59:33.999Z</time></trkpt><trkpt lat="44.85463123598983" lon="11.54675569090904"><ele>8.2</ele><time>2026-04-04T11:59:34.999Z</time></trkpt><trkpt lat="44.85462441884144" lon="11.546878469433302"><ele>7.799999999999999</ele><time>2026-04-04T11:59:35.999Z</time></trkpt><trkpt lat="44.85463384142241" lon="11.547010290760241"><ele>7.3999999999999995</ele><time>2026-04-04T11:59:36.999Z</time></trkpt><trkpt lat="44.85464505337486" lon="11.547142040660733"><ele>7.0</ele><time>2026-04-04T11:59:37.999Z</time></trkpt><trkpt lat="44.8546281570996" lon="11.547274029627161"><ele>7.0</ele><time>2026-04-04T11:59:38.999Z</time></trkpt><trkpt lat="44.85458354960587" lon="11.547411279010726"><ele>6.999999999999999</ele><time>2026-04-04T11:59:39.999Z</time></trkpt><trkpt lat="44.85451578738178" lon="11.547533308631051"><ele>6.999999999999999</ele><time>2026-04-04T11:59:40.999Z</time></trkpt><trkpt lat="44.85443142990843" lon="11.547643939138341"><ele>7.0</ele><time>2026-04-04T11:59:41.999Z</time></trkpt><trkpt lat="44.85435433907129" lon="11.547754666794486"><ele>7.0</ele><time>2026-04-04T11:59:42.999Z</time></trkpt><trkpt lat="44.85427836141237" lon="11.547877336740765"><ele>7.0</ele><time>2026-04-04T11:59:43.999Z</time></trkpt><trkpt lat="44.854200008339916" lon="11.548002832093616"><ele>7.0</ele><time>2026-04-04T11:59:44.999Z</time></trkpt><trkpt lat="44.854116445434244" lon="11.548129095558618"><ele>7.0</ele><time>2026-04-04T11:59:45.999Z</time></trkpt><trkpt lat="44.85402666061317" lon="11.54825618565795"><ele>7.0</ele><time>2026-04-04T11:59:46.999Z</time></trkpt><trkpt lat="44.85394022927595" lon="11.54839333506497"><ele>7.0</ele><time>2026-04-04T11:59:48Z</time></trkpt><trkpt lat="44.85386131837299" lon="11.548535963622172"><ele>7.0</ele><time>2026-04-04T11:59:49Z</time></trkpt><trkpt lat="44.85380024898387" lon="11.54868926222649"><ele>7.0</ele><time>2026-04-04T11:59:50Z</time></trkpt><trkpt lat="44.85374054319676" lon="11.548855265597732"><ele>7.0</ele><time>2026-04-04T11:59:51Z</time></trkpt><trkpt lat="44.85368806364" lon="11.54902678241928"><ele>7.25</ele><time>2026-04-04T11:59:52Z</time></trkpt><trkpt lat="44.85364102926612" lon="11.549199577103611"><ele>7.5</ele><time>2026-04-04T11:59:53Z</time></trkpt><trkpt lat="44.85358904328867" lon="11.549378688768513"><ele>7.75</ele><time>2026-04-04T11:59:54Z</time></trkpt><trkpt lat="44.853539367424375" lon="11.549562582603713"><ele>8.0</ele><time>2026-04-04T11:59:55Z</time></trkpt><trkpt lat="44.85350244110333" lon="11.549747249619296"><ele>8.0</ele><time>2026-04-04T11:59:56Z</time></trkpt><trkpt lat="44.853459194374445" lon="11.54993361453171"><ele>8.0</ele><time>2026-04-04T11:59:57Z</time></trkpt><trkpt lat="44.8534178476173" lon="11.550116735509828"><ele>8.0</ele><time>2026-04-04T11:59:58Z</time></trkpt><trkpt lat="44.85337987227764" lon="11.550294019938118"><ele>8.0</ele><time>2026-04-04T11:59:59Z</time></trkpt><trkpt lat="44.853342802293604" lon="11.550483627253103"><ele>8.5</ele><time>2026-04-04T12:00:00Z</time></trkpt><trkpt lat="44.85330417512176" lon="11.55066940627277"><ele>9.0</ele><time>2026-04-04T12:00:01Z</time></trkpt><trkpt lat="44.85326413465369" lon="11.550850517178695"><ele>9.5</ele><time>2026-04-04T12:00:02Z</time></trkpt><trkpt lat="44.85322933953379" lon="11.551034769276054"><ele>10.0</ele><time>2026-04-04T12:00:03Z</time></trkpt><trkpt lat="44.85319958334774" lon="11.55121736055755"><ele>10.0</ele><time>2026-04-04T12:00:04Z</time></trkpt><trkpt lat="44.853161968145386" lon="11.551402545550218"><ele>10.0</ele><time>2026-04-04T12:00:05Z</time></trkpt><trkpt lat="44.8531286065651" lon="11.551581049092155"><ele>10.0</ele><time>2026-04-04T12:00:06Z</time></trkpt><trkpt lat="44.853098359281624" lon="11.551740262067149"><ele>10.0</ele><time>2026-04-04T12:00:07Z</time></trkpt><trkpt lat="44.85307243072329" lon="11.55189759003496"><ele>9.4</ele><time>2026-04-04T12:00:08Z</time></trkpt><trkpt lat="44.85304254957288" lon="11.552047765745384"><ele>8.8</ele><time>2026-04-04T12:00:09Z</time></trkpt><trkpt lat="44.853016316202044" lon="11.552183086606052"><ele>8.2</ele><time>2026-04-04T12:00:10Z</time></trkpt><trkpt lat="44.85298787028637" lon="11.552304940363724"><ele>7.6</ele><time>2026-04-04T12:00:11Z</time></trkpt><trkpt lat="44.85296020086397" lon="11.55241254848613"><ele>7.0</ele><time>2026-04-04T12:00:12Z</time></trkpt><trkpt lat="44.85291835165326" lon="11.55249632661"><ele>7.0</ele><time>2026-04-04T12:00:13Z</time></trkpt><trkpt lat="44.852869071772126" lon="11.552564290671194"><ele>7.0</ele><time>2026-04-04T12:00:14Z</time></trkpt><trkpt lat="44.85281338337818" lon="11.552617071520924"><ele>7.0</ele><time>2026-04-04T12:00:15Z</time></trkpt><trkpt lat="44.85277039650723" lon="11.552695968481002"><ele>7.0</ele><time>2026-04-04T12:00:16Z</time></trkpt><trkpt lat="44.85274801395686" lon="11.552787976229505"><ele>7.0</ele><time>2026-04-04T12:00:17Z</time></trkpt><trkpt lat="44.852749224665835" lon="11.552888657253783"><ele>7.0</ele><time>2026-04-04T12:00:17.999Z</time></trkpt><trkpt lat="44.85276390433453" lon="11.552998020952462"><ele>7.0</ele><time>2026-04-04T12:00:18.999Z</time></trkpt><trkpt lat="44.852780766890454" lon="11.553115216186916"><ele>7.0</ele><time>2026-04-04T12:00:19.999Z</time></trkpt><trkpt lat="44.8527777212498" lon="11.55324890725205"><ele>6.999999999999999</ele><time>2026-04-04T12:00:20.999Z</time></trkpt><trkpt lat="44.8527685415589" lon="11.553394257913798"><ele>6.999999999999999</ele><time>2026-04-04T12:00:21.999Z</time></trkpt><trkpt lat="44.85274782864668" lon="11.553542212744555"><ele>7.0</ele><time>2026-04-04T12:00:22.999Z</time></trkpt><trkpt lat="44.852715750878424" lon="11.553682214396417"><ele>7.0</ele><time>2026-04-04T12:00:23.999Z</time></trkpt><trkpt lat="44.852684532348476" lon="11.553819605072487"><ele>7.0</ele><time>2026-04-04T12:00:24.999Z</time></trkpt><trkpt lat="44.85265208171823" lon="11.553964181289345"><ele>6.999999999999999</ele><time>2026-04-04T12:00:25.999Z</time></trkpt><trkpt lat="44.85261963640757" lon="11.554111853768045"><ele>6.999999999999999</ele><time>2026-04-04T12:00:26.999Z</time></trkpt><trkpt lat="44.85258529276924" lon="11.55426748612047"><ele>7.0</ele><time>2026-04-04T12:00:27.999Z</time></trkpt><trkpt lat="44.85255464252906" lon="11.5544240944686"><ele>7.0</ele><time>2026-04-04T12:00:28.999Z</time></trkpt><trkpt lat="44.852523906897574" lon="11.554582307408548"><ele>7.75</ele><time>2026-04-04T12:00:29.999Z</time></trkpt><trkpt lat="44.85248965869312" lon="11.554739759357629"><ele>8.5</ele><time>2026-04-04T12:00:30.999Z</time></trkpt><trkpt lat="44.85244986329698" lon="11.554903989212306"><ele>9.25</ele><time>2026-04-04T12:00:31.999Z</time></trkpt><trkpt lat="44.85241119903097" lon="11.55507068470168"><ele>10.0</ele><time>2026-04-04T12:00:32.999Z</time></trkpt><trkpt lat="44.8523722708106" lon="11.555236580698445"><ele>9.5</ele><time>2026-04-04T12:00:33.999Z</time></trkpt><trkpt lat="44.85233294816275" lon="11.555405745787441"><ele>9.0</ele><time>2026-04-04T12:00:34.999Z</time></trkpt><trkpt lat="44.852290988037076" lon="11.555579153149798"><ele>8.5</ele><time>2026-04-04T12:00:35.999Z</time></trkpt><trkpt lat="44.85224610798192" lon="11.5557568010039"><ele>8.0</ele><time>2026-04-04T12:00:36.999Z</time></trkpt><trkpt lat="44.85220338995429" lon="11.555943407385074"><ele>8.0</ele><time>2026-04-04T12:00:37.999Z</time></trkpt><trkpt lat="44.85215784382337" lon="11.556128365583318"><ele>8.0</ele><time>2026-04-04T12:00:38.999Z</time></trkpt><trkpt lat="44.85211457889321" lon="11.55630949944714"><ele>8.0</ele><time>2026-04-04T12:00:39.999Z</time></trkpt><trkpt lat="44.85207016326347" lon="11.556488221096206"><ele>8.0</ele><time>2026-04-04T12:00:40.999Z</time></trkpt><trkpt lat="44.852028220068476" lon="11.55667005836948"><ele>8.0</ele><time>2026-04-04T12:00:41.999Z</time></trkpt><trkpt lat="44.851986004657086" lon="11.556846953349208"><ele>8.0</ele><time>2026-04-04T12:00:42.999Z</time></trkpt><trkpt lat="44.85193936166328" lon="11.557024494685699"><ele>8.0</ele><time>2026-04-04T12:00:43.999Z</time></trkpt><trkpt lat="44.85188501659082" lon="11.55719391999695"><ele>8.0</ele><time>2026-04-04T12:00:44.999Z</time></trkpt><trkpt lat="44.85182871591161" lon="11.557370792221102"><ele>8.0</ele><time>2026-04-04T12:00:45.999Z</time></trkpt><trkpt lat="44.851772981622126" lon="11.557544594072988"><ele>8.0</ele><time>2026-04-04T12:00:46.999Z</time></trkpt><trkpt lat="44.85172011222128" lon="11.557721936402992"><ele>8.0</ele><time>2026-04-04T12:00:47.999Z</time></trkpt><trkpt lat="44.851666975353886" lon="11.557894172396024"><ele>8.0</ele><time>2026-04-04T12:00:48.999Z</time></trkpt><trkpt lat="44.85161465826707" lon="11.55807484392346"><ele>8.0</ele><time>2026-04-04T12:00:49.999Z</time></trkpt><trkpt lat="44.85156337079953" lon="11.558257240851004"><ele>8.0</ele><time>2026-04-04T12:00:50.999Z</time></trkpt><trkpt lat="44.85151094915074" lon="11.558441483635168"><ele>8.0</ele><time>2026-04-04T12:00:51.999Z</time></trkpt><trkpt lat="44.85145936831184" lon="11.558630949474516"><ele>8.0</ele><time>2026-04-04T12:00:52.999Z</time></trkpt><trkpt lat="44.85140932424396" lon="11.558823286923195"><ele>7.5</ele><time>2026-04-04T12:00:53.999Z</time></trkpt><trkpt lat="44.85136081995114" lon="11.559018812627025"><ele>7.0</ele><time>2026-04-04T12:00:54.999Z</time></trkpt><trkpt lat="44.85131310147807" lon="11.559214173475254"><ele>6.5</ele><time>2026-04-04T12:00:55.999Z</time></trkpt><trkpt lat="44.85126753557503" lon="11.55940212549807"><ele>6.0</ele><time>2026-04-04T12:00:56.999Z</time></trkpt><trkpt lat="44.85122385042432" lon="11.559588072169298"><ele>6.0</ele><time>2026-04-04T12:00:57.999Z</time></trkpt><trkpt lat="44.85117792539934" lon="11.559771720721479"><ele>6.0</ele><time>2026-04-04T12:00:58.999Z</time></trkpt><trkpt lat="44.851134150828635" lon="11.559955513917698"><ele>6.0</ele><time>2026-04-04T12:00:59.999Z</time></trkpt><trkpt lat="44.85108883501353" lon="11.560138024843754"><ele>6.0</ele><time>2026-04-04T12:01:00.999Z</time></trkpt><trkpt lat="44.85104140240554" lon="11.560321771377502"><ele>6.5</ele><time>2026-04-04T12:01:01.999Z</time></trkpt><trkpt lat="44.85099303305379" lon="11.56050756467051"><ele>7.0</ele><time>2026-04-04T12:01:02.999Z</time></trkpt><trkpt lat="44.85094401552406" lon="11.560690939932426"><ele>7.5</ele><time>2026-04-04T12:01:03.999Z</time></trkpt><trkpt lat="44.85089367316656" lon="11.560875097325502"><ele>8.0</ele><time>2026-04-04T12:01:04.999Z</time></trkpt><trkpt lat="44.850843020700296" lon="11.56105946690972"><ele>8.0</ele><time>2026-04-04T12:01:05.999Z</time></trkpt><trkpt lat="44.85079160681684" lon="11.561242583494057"><ele>8.0</ele><time>2026-04-04T12:01:06.999Z</time></trkpt><trkpt lat="44.850740041999636" lon="11.56143023501911"><ele>8.0</ele><time>2026-04-04T12:01:07.999Z</time></trkpt><trkpt lat="44.85068785760945" lon="11.561611303214374"><ele>8.0</ele><time>2026-04-04T12:01:08.999Z</time></trkpt><trkpt lat="44.85063862236851" lon="11.561783260993128"><ele>8.0</ele><time>2026-04-04T12:01:09.999Z</time></trkpt><trkpt lat="44.85059102100766" lon="11.561953737656799"><ele>8.0</ele><time>2026-04-04T12:01:10.999Z</time></trkpt><trkpt lat="44.85054149756147" lon="11.562122948026975"><ele>8.0</ele><time>2026-04-04T12:01:11.999Z</time></trkpt><trkpt lat="44.850491602362844" lon="11.56229293600131"><ele>8.0</ele><time>2026-04-04T12:01:12.999Z</time></trkpt><trkpt lat="44.850440042457635" lon="11.562461723951106"><ele>8.0</ele><time>2026-04-04T12:01:13.999Z</time></trkpt><trkpt lat="44.850390540508606" lon="11.562635227152912"><ele>8.0</ele><time>2026-04-04T12:01:14.999Z</time></trkpt><trkpt lat="44.85034082364497" lon="11.562807656150662"><ele>8.0</ele><time>2026-04-04T12:01:15.999Z</time></trkpt><trkpt lat="44.85029411501463" lon="11.562964930471702"><ele>8.0</ele><time>2026-04-04T12:01:16.999Z</time></trkpt><trkpt lat="44.850247941202085" lon="11.56311238854182"><ele>7.800000000000001</ele><time>2026-04-04T12:01:17.999Z</time></trkpt><trkpt lat="44.85020199259288" lon="11.563253269289858"><ele>7.6000000000000005</ele><time>2026-04-04T12:01:18.999Z</time></trkpt><trkpt lat="44.85014881315097" lon="11.563390411323862"><ele>7.3999999999999995</ele><time>2026-04-04T12:01:19.999Z</time></trkpt><trkpt lat="44.850092067955295" lon="11.563531072822686"><ele>7.199999999999999</ele><time>2026-04-04T12:01:20.999Z</time></trkpt><trkpt lat="44.850037114519154" lon="11.563664987482728"><ele>7.0</ele><time>2026-04-04T12:01:21.999Z</time></trkpt><trkpt lat="44.8499825073787" lon="11.56379758533094"><ele>7.6</ele><time>2026-04-04T12:01:22.999Z</time></trkpt><trkpt lat="44.84992589791079" lon="11.563929071614375"><ele>8.2</ele><time>2026-04-04T12:01:23.999Z</time></trkpt><trkpt lat="44.84986888749703" lon="11.564063740882059"><ele>8.8</ele><time>2026-04-04T12:01:24.999Z</time></trkpt><trkpt lat="44.8498131985401" lon="11.564199277149292"><ele>9.4</ele><time>2026-04-04T12:01:25.999Z</time></trkpt><trkpt lat="44.84975674550842" lon="11.564337677011629"><ele>10.0</ele><time>2026-04-04T12:01:26.999Z</time></trkpt><trkpt lat="44.849704804409406" lon="11.564477855751868"><ele>9.5</ele><time>2026-04-04T12:01:27.999Z</time></trkpt><trkpt lat="44.84965218928926" lon="11.56462349184666"><ele>9.0</ele><time>2026-04-04T12:01:28.999Z</time></trkpt><trkpt lat="44.849605486350164" lon="11.564774118699205"><ele>8.5</ele><time>2026-04-04T12:01:29.999Z</time></trkpt><trkpt lat="44.84956284471477" lon="11.564932695435328"><ele>8.0</ele><time>2026-04-04T12:01:30.999Z</time></trkpt><trkpt lat="44.849520486292" lon="11.565079732158303"><ele>8.0</ele><time>2026-04-04T12:01:31.999Z</time></trkpt><trkpt lat="44.84947997187823" lon="11.565229956921508"><ele>8.0</ele><time>2026-04-04T12:01:32.999Z</time></trkpt><trkpt lat="44.84943516482253" lon="11.565373760672985"><ele>8.0</ele><time>2026-04-04T12:01:33.999Z</time></trkpt><trkpt lat="44.84939260337998" lon="11.565521011120255"><ele>8.0</ele><time>2026-04-04T12:01:34.999Z</time></trkpt><trkpt lat="44.8493497626392" lon="11.565673156576725"><ele>7.75</ele><time>2026-04-04T12:01:35.999Z</time></trkpt><trkpt lat="44.84930667964191" lon="11.565834060729907"><ele>7.5</ele><time>2026-04-04T12:01:36.999Z</time></trkpt><trkpt lat="44.84926490041076" lon="11.565996355599232"><ele>7.25</ele><time>2026-04-04T12:01:37.999Z</time></trkpt><trkpt lat="44.849221418616466" lon="11.566155839272396"><ele>7.0</ele><time>2026-04-04T12:01:38.999Z</time></trkpt><trkpt lat="44.84917691724154" lon="11.566308493070375"><ele>7.5</ele><time>2026-04-04T12:01:39.999Z</time></trkpt><trkpt lat="44.84913372086727" lon="11.566471097145497"><ele>8.0</ele><time>2026-04-04T12:01:40.999Z</time></trkpt><trkpt lat="44.849090805302694" lon="11.566628000936142"><ele>8.5</ele><time>2026-04-04T12:01:41.999Z</time></trkpt><trkpt lat="44.84904384804516" lon="11.56679530457445"><ele>9.0</ele><time>2026-04-04T12:01:42.999Z</time></trkpt><trkpt lat="44.848994669722686" lon="11.566965649499418"><ele>8.75</ele><time>2026-04-04T12:01:43.999Z</time></trkpt><trkpt lat="44.84895476331518" lon="11.567140367941915"><ele>8.5</ele><time>2026-04-04T12:01:45Z</time></trkpt><trkpt lat="44.84890676010822" lon="11.567340869216585"><ele>8.25</ele><time>2026-04-04T12:01:46Z</time></trkpt><trkpt lat="44.84885574593718" lon="11.56752856763963"><ele>8.0</ele><time>2026-04-04T12:01:47Z</time></trkpt><trkpt lat="44.8488031023024" lon="11.567721217989888"><ele>7.75</ele><time>2026-04-04T12:01:48Z</time></trkpt><trkpt lat="44.84875287354552" lon="11.567911404387457"><ele>7.5</ele><time>2026-04-04T12:01:49Z</time></trkpt><trkpt lat="44.84869841801581" lon="11.56809880183861"><ele>7.25</ele><time>2026-04-04T12:01:50Z</time></trkpt><trkpt lat="44.84864410973868" lon="11.568286699350494"><ele>7.0</ele><time>2026-04-04T12:01:51Z</time></trkpt><trkpt lat="44.84859511808407" lon="11.568476593126409"><ele>7.0</ele><time>2026-04-04T12:01:52Z</time></trkpt><trkpt lat="44.848552220074595" lon="11.56866399529084"><ele>7.0</ele><time>2026-04-04T12:01:53Z</time></trkpt><trkpt lat="44.848517093443384" lon="11.568852003862746"><ele>7.0</ele><time>2026-04-04T12:01:54Z</time></trkpt><trkpt lat="44.84848700774911" lon="11.56904222980331"><ele>7.0</ele><time>2026-04-04T12:01:55Z</time></trkpt><trkpt lat="44.8484599922937" lon="11.56923067973143"><ele>7.25</ele><time>2026-04-04T12:01:56Z</time></trkpt><trkpt lat="44.848437632342" lon="11.569416919016067"><ele>7.5</ele><time>2026-04-04T12:01:57Z</time></trkpt><trkpt lat="44.84841443572671" lon="11.56959259672437"><ele>7.75</ele><time>2026-04-04T12:01:58Z</time></trkpt><trkpt lat="44.848395865392725" lon="11.569752884802673"><ele>8.0</ele><time>2026-04-04T12:01:59Z</time></trkpt><trkpt lat="44.84837782305573" lon="11.56989855077905"><ele>7.999999999999999</ele><time>2026-04-04T12:02:00Z</time></trkpt><trkpt lat="44.84835981411839" lon="11.570035025862952"><ele>8.0</ele><time>2026-04-04T12:02:01Z</time></trkpt><trkpt lat="44.848344226976295" lon="11.57016889408642"><ele>8.0</ele><time>2026-04-04T12:02:02Z</time></trkpt><trkpt lat="44.848331665680675" lon="11.570290292192109"><ele>8.0</ele><time>2026-04-04T12:02:03Z</time></trkpt><trkpt lat="44.84831729815831" lon="11.570404210986268"><ele>7.999999999999999</ele><time>2026-04-04T12:02:04Z</time></trkpt><trkpt lat="44.848304451479464" lon="11.570502335451899"><ele>8.0</ele><time>2026-04-04T12:02:05Z</time></trkpt><trkpt lat="44.848312139887454" lon="11.570594753781522"><ele>8.0</ele><time>2026-04-04T12:02:06Z</time></trkpt><trkpt lat="44.84836091615476" lon="11.57074784388421"><ele>8.0</ele><time>2026-04-04T12:02:08Z</time></trkpt><trkpt lat="44.848255464182685" lon="11.57083751336024"><ele>8.0</ele><time>2026-04-04T12:02:10Z</time></trkpt><trkpt lat="44.84837266000618" lon="11.5709158258125"><ele>8.0</ele><time>2026-04-04T12:02:11Z</time></trkpt><trkpt lat="44.84824241564497" lon="11.570931951408035"><ele>8.0</ele><time>2026-04-04T12:02:15Z</time></trkpt><trkpt lat="44.84836549342778" lon="11.570967084067883"><ele>8.0</ele><time>2026-04-04T12:02:18Z</time></trkpt><trkpt lat="44.848239447419736" lon="11.5709559172189"><ele>8.0</ele><time>2026-04-04T12:02:30Z</time></trkpt><trkpt lat="44.84822645540968" lon="11.571062661605572"><ele>8.0</ele><time>2026-04-04T12:06:13Z</time></trkpt><trkpt lat="44.84821321361907" lon="11.571170803227746"><ele>8.0</ele><time>2026-04-04T12:06:38Z</time></trkpt><trkpt lat="44.84820338352404" lon="11.57130814815035"><ele>8.333333333333332</ele><time>2026-04-04T12:06:40Z</time></trkpt><trkpt lat="44.84819193861995" lon="11.571408362068745"><ele>8.666666666666666</ele><time>2026-04-04T12:06:41Z</time></trkpt><trkpt lat="44.84817659447841" lon="11.571528258185955"><ele>9.0</ele><time>2026-04-04T12:06:42Z</time></trkpt><trkpt lat="44.84815992586553" lon="11.571651204458748"><ele>9.333333333333334</ele><time>2026-04-04T12:06:43Z</time></trkpt><trkpt lat="44.848144923560874" lon="11.571788161956357"><ele>9.666666666666668</ele><time>2026-04-04T12:06:44Z</time></trkpt><trkpt lat="44.8481320710593" lon="11.571933960027701"><ele>10.0</ele><time>2026-04-04T12:06:45Z</time></trkpt><trkpt lat="44.84812644872336" lon="11.572085149391214"><ele>10.25</ele><time>2026-04-04T12:06:46Z</time></trkpt><trkpt lat="44.8481184084653" lon="11.572238815696892"><ele>10.5</ele><time>2026-04-04T12:06:47Z</time></trkpt><trkpt lat="44.84810823910363" lon="11.572398128684773"><ele>10.75</ele><time>2026-04-04T12:06:48Z</time></trkpt><trkpt lat="44.84809839306081" lon="11.572559637353779"><ele>11.0</ele><time>2026-04-04T12:06:49Z</time></trkpt><trkpt lat="44.848085794526895" lon="11.572728386241447"><ele>10.5</ele><time>2026-04-04T12:06:50Z</time></trkpt><trkpt lat="44.84807592518331" lon="11.572899294871535"><ele>10.0</ele><time>2026-04-04T12:06:51Z</time></trkpt><trkpt lat="44.84806316241583" lon="11.573071628793496"><ele>9.5</ele><time>2026-04-04T12:06:52Z</time></trkpt><trkpt lat="44.84805281463932" lon="11.57323862462974"><ele>9.0</ele><time>2026-04-04T12:06:53Z</time></trkpt><trkpt lat="44.84803956338763" lon="11.573406000151232"><ele>9.0</ele><time>2026-04-04T12:06:54Z</time></trkpt><trkpt lat="44.84802125919697" lon="11.57356641697297"><ele>9.0</ele><time>2026-04-04T12:06:55Z</time></trkpt><trkpt lat="44.84799656817048" lon="11.573706744761573"><ele>9.0</ele><time>2026-04-04T12:06:56Z</time></trkpt><trkpt lat="44.84797488333378" lon="11.573832737841556"><ele>9.0</ele><time>2026-04-04T12:06:57Z</time></trkpt><trkpt lat="44.847955600773126" lon="11.573951358394158"><ele>9.0</ele><time>2026-04-04T12:06:58Z</time></trkpt><trkpt lat="44.84793551703122" lon="11.574054211514513"><ele>8.2</ele><time>2026-04-04T12:06:59Z</time></trkpt><trkpt lat="44.847917650094146" lon="11.574145790754255"><ele>7.4</ele><time>2026-04-04T12:07:00Z</time></trkpt><trkpt lat="44.84787522907742" lon="11.574296010374397"><ele>6.6</ele><time>2026-04-04T12:07:02Z</time></trkpt><trkpt lat="44.84779276653353" lon="11.574404437771094"><ele>5.8</ele><time>2026-04-04T12:07:04Z</time></trkpt><trkpt lat="44.847720326079276" lon="11.574447288743517"><ele>5.0</ele><time>2026-04-04T12:07:05Z</time></trkpt><trkpt lat="44.847650530406746" lon="11.574501886333644"><ele>5.166666666666667</ele><time>2026-04-04T12:07:06Z</time></trkpt><trkpt lat="44.84758000934867" lon="11.574531134941392"><ele>5.333333333333334</ele><time>2026-04-04T12:07:07Z</time></trkpt><trkpt lat="44.84750600386671" lon="11.574525747679461"><ele>5.5</ele><time>2026-04-04T12:07:08Z</time></trkpt><trkpt lat="44.84743243991085" lon="11.574495086685994"><ele>5.666666666666667</ele><time>2026-04-04T12:07:09Z</time></trkpt><trkpt lat="44.84734358123424" lon="11.574434888565683"><ele>5.833333333333333</ele><time>2026-04-04T12:07:10Z</time></trkpt><trkpt lat="44.84724450596096" lon="11.5743710419544"><ele>6.0</ele><time>2026-04-04T12:07:11Z</time></trkpt><trkpt lat="44.847132993551114" lon="11.57430681217772"><ele>6.5</ele><time>2026-04-04T12:07:12Z</time></trkpt><trkpt lat="44.847010895362416" lon="11.574227768781169"><ele>7.0</ele><time>2026-04-04T12:07:13Z</time></trkpt><trkpt lat="44.84687672082271" lon="11.574141995032916"><ele>7.5</ele><time>2026-04-04T12:07:14Z</time></trkpt><trkpt lat="44.846735511825244" lon="11.57404962594288"><ele>8.0</ele><time>2026-04-04T12:07:15Z</time></trkpt><trkpt lat="44.84658896685195" lon="11.573956733969741"><ele>8.0</ele><time>2026-04-04T12:07:16Z</time></trkpt><trkpt lat="44.84643217335439" lon="11.573857464149588"><ele>8.0</ele><time>2026-04-04T12:07:17Z</time></trkpt><trkpt lat="44.84626552215577" lon="11.573754325016099"><ele>8.0</ele><time>2026-04-04T12:07:18Z</time></trkpt><trkpt lat="44.84608872939987" lon="11.573654294242505"><ele>7.333333333333333</ele><time>2026-04-04T12:07:19Z</time></trkpt><trkpt lat="44.84590535112286" lon="11.573552173634834"><ele>6.666666666666666</ele><time>2026-04-04T12:07:20Z</time></trkpt><trkpt lat="44.84570835638873" lon="11.573451002472241"><ele>6.0</ele><time>2026-04-04T12:07:21Z</time></trkpt><trkpt lat="44.8455006816091" lon="11.57334945211842"><ele>6.0</ele><time>2026-04-04T12:07:22Z</time></trkpt><trkpt lat="44.845284205366546" lon="11.573250533402"><ele>6.0</ele><time>2026-04-04T12:07:23Z</time></trkpt><trkpt lat="44.84506067657834" lon="11.573152315568288"><ele>7.0</ele><time>2026-04-04T12:07:24Z</time></trkpt><trkpt lat="44.84482906667051" lon="11.573072359785733"><ele>8.0</ele><time>2026-04-04T12:07:25Z</time></trkpt><trkpt lat="44.84459385300535" lon="11.572997221426705"><ele>8.0</ele><time>2026-04-04T12:07:25.999Z</time></trkpt><trkpt lat="44.84435361020184" lon="11.572930726508288"><ele>8.0</ele><time>2026-04-04T12:07:26.999Z</time></trkpt><trkpt lat="44.844108185781955" lon="11.572874581727001"><ele>7.5</ele><time>2026-04-04T12:07:27.999Z</time></trkpt><trkpt lat="44.84385945326653" lon="11.572828808821317"><ele>7.0</ele><time>2026-04-04T12:07:28.999Z</time></trkpt><trkpt lat="44.843622626101634" lon="11.572792752910162"><ele>6.0</ele><time>2026-04-04T12:07:29.999Z</time></trkpt><trkpt lat="44.8433836200456" lon="11.572756588373661"><ele>5.0</ele><time>2026-04-04T12:07:30.999Z</time></trkpt><trkpt lat="44.843145462746236" lon="11.572730663127695"><ele>5.0</ele><time>2026-04-04T12:07:31.999Z</time></trkpt><trkpt lat="44.84290692955327" lon="11.57270977964446"><ele>5.0</ele><time>2026-04-04T12:07:32.999Z</time></trkpt><trkpt lat="44.84267002165774" lon="11.572694777844493"><ele>6.0</ele><time>2026-04-04T12:07:33.999Z</time></trkpt><trkpt lat="44.84243073210423" lon="11.572675097791178"><ele>7.0</ele><time>2026-04-04T12:07:34.999Z</time></trkpt><trkpt lat="44.84219305108042" lon="11.572651326121381"><ele>7.0</ele><time>2026-04-04T12:07:35.999Z</time></trkpt><trkpt lat="44.841955835450854" lon="11.572633334411739"><ele>7.0</ele><time>2026-04-04T12:07:36.999Z</time></trkpt><trkpt lat="44.84171929613333" lon="11.572618585842097"><ele>7.5</ele><time>2026-04-04T12:07:37.999Z</time></trkpt><trkpt lat="44.84148464932723" lon="11.572605585969086"><ele>8.0</ele><time>2026-04-04T12:07:38.999Z</time></trkpt><trkpt lat="44.84124834631489" lon="11.572602534938524"><ele>8.0</ele><time>2026-04-04T12:07:39.999Z</time></trkpt><trkpt lat="44.84100875207898" lon="11.572603053292841"><ele>8.0</ele><time>2026-04-04T12:07:40.999Z</time></trkpt><trkpt lat="44.840771936947576" lon="11.572618187075536"><ele>8.5</ele><time>2026-04-04T12:07:41.999Z</time></trkpt><trkpt lat="44.840531373788735" lon="11.572641415032408"><ele>9.0</ele><time>2026-04-04T12:07:42.999Z</time></trkpt><trkpt lat="44.840291951102515" lon="11.572676056351833"><ele>8.5</ele><time>2026-04-04T12:07:43.999Z</time></trkpt><trkpt lat="44.84004910691614" lon="11.572713162439417"><ele>8.0</ele><time>2026-04-04T12:07:44.999Z</time></trkpt><trkpt lat="44.839808655803566" lon="11.572757292119212"><ele>8.0</ele><time>2026-04-04T12:07:45.999Z</time></trkpt><trkpt lat="44.839565818586216" lon="11.572816870967733"><ele>8.0</ele><time>2026-04-04T12:07:46.999Z</time></trkpt><trkpt lat="44.83932403979777" lon="11.572884725923931"><ele>8.0</ele><time>2026-04-04T12:07:47.999Z</time></trkpt><trkpt lat="44.83907823350578" lon="11.5729660258143"><ele>8.0</ele><time>2026-04-04T12:07:48.999Z</time></trkpt><trkpt lat="44.838849518564196" lon="11.573048034238688"><ele>8.0</ele><time>2026-04-04T12:07:49.999Z</time></trkpt><trkpt lat="44.83863243123109" lon="11.573135405464466"><ele>8.0</ele><time>2026-04-04T12:07:50.999Z</time></trkpt><trkpt lat="44.838428432784625" lon="11.573226196817599"><ele>8.0</ele><time>2026-04-04T12:07:51.999Z</time></trkpt><trkpt lat="44.8382318842416" lon="11.573326269668444"><ele>8.333333333333332</ele><time>2026-04-04T12:07:52.999Z</time></trkpt><trkpt lat="44.83805556063798" lon="11.573424051925905"><ele>8.666666666666666</ele><time>2026-04-04T12:07:53.999Z</time></trkpt><trkpt lat="44.837861752885054" lon="11.573532981110436"><ele>9.0</ele><time>2026-04-04T12:07:54.999Z</time></trkpt><trkpt lat="44.83766115708157" lon="11.573651475829857"><ele>9.0</ele><time>2026-04-04T12:07:55.999Z</time></trkpt><trkpt lat="44.83745893339891" lon="11.573780579447604"><ele>9.0</ele><time>2026-04-04T12:07:56.999Z</time></trkpt><trkpt lat="44.83724953960872" lon="11.573927117777052"><ele>9.0</ele><time>2026-04-04T12:07:57.999Z</time></trkpt><trkpt lat="44.837043317709345" lon="11.574079554999445"><ele>9.0</ele><time>2026-04-04T12:07:58.999Z</time></trkpt><trkpt lat="44.83683878980274" lon="11.574239155316546"><ele>8.0</ele><time>2026-04-04T12:07:59.999Z</time></trkpt><trkpt lat="44.83663117563641" lon="11.574408501278143"><ele>7.0</ele><time>2026-04-04T12:08:00.999Z</time></trkpt><trkpt lat="44.83642039479318" lon="11.574582349893525"><ele>7.0</ele><time>2026-04-04T12:08:01.999Z</time></trkpt><trkpt lat="44.83620642401948" lon="11.574760501971852"><ele>7.0</ele><time>2026-04-04T12:08:03Z</time></trkpt><trkpt lat="44.83598740094739" lon="11.574948089745037"><ele>7.0</ele><time>2026-04-04T12:08:04Z</time></trkpt><trkpt lat="44.83576485642982" lon="11.575136152655043"><ele>7.0</ele><time>2026-04-04T12:08:05Z</time></trkpt><trkpt lat="44.83553672745025" lon="11.575323199210404"><ele>7.0</ele><time>2026-04-04T12:08:06Z</time></trkpt><trkpt lat="44.83530735161943" lon="11.575515763607997"><ele>7.0</ele><time>2026-04-04T12:08:07Z</time></trkpt><trkpt lat="44.83508526451969" lon="11.575715225434765"><ele>8.0</ele><time>2026-04-04T12:08:08Z</time></trkpt><trkpt lat="44.83486486963239" lon="11.575906776598005"><ele>9.0</ele><time>2026-04-04T12:08:09Z</time></trkpt><trkpt lat="44.83465168759166" lon="11.576094694965635"><ele>8.0</ele><time>2026-04-04T12:08:10Z</time></trkpt><trkpt lat="44.834437112216946" lon="11.576283954670064"><ele>7.0</ele><time>2026-04-04T12:08:11Z</time></trkpt><trkpt lat="44.834220030627066" lon="11.576474374218067"><ele>7.0</ele><time>2026-04-04T12:08:12Z</time></trkpt><trkpt lat="44.83400523996136" lon="11.57666454326275"><ele>7.0</ele><time>2026-04-04T12:08:13Z</time></trkpt><trkpt lat="44.83378940784173" lon="11.576856358737855"><ele>8.0</ele><time>2026-04-04T12:08:14Z</time></trkpt><trkpt lat="44.833576639177316" lon="11.577044419260988"><ele>9.0</ele><time>2026-04-04T12:08:15Z</time></trkpt><trkpt lat="44.83336260620779" lon="11.577230100611715"><ele>9.0</ele><time>2026-04-04T12:08:16Z</time></trkpt><trkpt lat="44.833149684192364" lon="11.577413444754393"><ele>9.0</ele><time>2026-04-04T12:08:17Z</time></trkpt><trkpt lat="44.83293664325188" lon="11.577598954657182"><ele>9.0</ele><time>2026-04-04T12:08:18Z</time></trkpt><trkpt lat="44.8327239888468" lon="11.57778457690693"><ele>9.0</ele><time>2026-04-04T12:08:19Z</time></trkpt><trkpt lat="44.83251152616871" lon="11.57797114301379"><ele>7.5</ele><time>2026-04-04T12:08:20Z</time></trkpt><trkpt lat="44.83229971103355" lon="11.578159060145452"><ele>6.0</ele><time>2026-04-04T12:08:21Z</time></trkpt><trkpt lat="44.83208902966051" lon="11.578341561993778"><ele>6.0</ele><time>2026-04-04T12:08:22Z</time></trkpt><trkpt lat="44.831877264912166" lon="11.578525905380923"><ele>6.0</ele><time>2026-04-04T12:08:23Z</time></trkpt><trkpt lat="44.8316651275205" lon="11.57870783742411"><ele>6.0</ele><time>2026-04-04T12:08:24Z</time></trkpt><trkpt lat="44.8314535703165" lon="11.578893963229609"><ele>6.0</ele><time>2026-04-04T12:08:25Z</time></trkpt><trkpt lat="44.831243746674296" lon="11.57907614282045"><ele>6.0</ele><time>2026-04-04T12:08:26Z</time></trkpt><trkpt lat="44.831047167724556" lon="11.579241865943702"><ele>6.0</ele><time>2026-04-04T12:08:27Z</time></trkpt><trkpt lat="44.83085998871886" lon="11.579402845746266"><ele>6.0</ele><time>2026-04-04T12:08:28Z</time></trkpt><trkpt lat="44.83068306384436" lon="11.579565934820542"><ele>5.666666666666667</ele><time>2026-04-04T12:08:29Z</time></trkpt><trkpt lat="44.83050891097379" lon="11.579716220509132"><ele>5.333333333333334</ele><time>2026-04-04T12:08:30Z</time></trkpt><trkpt lat="44.830334126156636" lon="11.579869971911647"><ele>5.0</ele><time>2026-04-04T12:08:31Z</time></trkpt><trkpt lat="44.83015858049889" lon="11.580024246380574"><ele>5.333333333333334</ele><time>2026-04-04T12:08:32Z</time></trkpt><trkpt lat="44.82997920158762" lon="11.580182011035374"><ele>5.666666666666667</ele><time>2026-04-04T12:08:33Z</time></trkpt><trkpt lat="44.829798564118434" lon="11.580342200820493"><ele>6.0</ele><time>2026-04-04T12:08:34Z</time></trkpt><trkpt lat="44.829611761003015" lon="11.580506860973346"><ele>6.0</ele><time>2026-04-04T12:08:35Z</time></trkpt><trkpt lat="44.82942598020656" lon="11.580662202052672"><ele>6.0</ele><time>2026-04-04T12:08:36Z</time></trkpt><trkpt lat="44.829249093326915" lon="11.58081737882089"><ele>6.0</ele><time>2026-04-04T12:08:37Z</time></trkpt><trkpt lat="44.82908350267726" lon="11.580964213430342"><ele>6.333333333333334</ele><time>2026-04-04T12:08:38Z</time></trkpt><trkpt lat="44.828926737708265" lon="11.581102889335817"><ele>6.666666666666667</ele><time>2026-04-04T12:08:39Z</time></trkpt><trkpt lat="44.82877916176629" lon="11.581232296065954"><ele>7.0</ele><time>2026-04-04T12:08:40Z</time></trkpt><trkpt lat="44.82863568464478" lon="11.581352377658346"><ele>6.333333333333334</ele><time>2026-04-04T12:08:41Z</time></trkpt><trkpt lat="44.82849589164776" lon="11.581470565770044"><ele>5.666666666666667</ele><time>2026-04-04T12:08:42Z</time></trkpt><trkpt lat="44.82835459009322" lon="11.581588633512636"><ele>5.0</ele><time>2026-04-04T12:08:43Z</time></trkpt><trkpt lat="44.82821723900707" lon="11.58171201135124"><ele>5.0</ele><time>2026-04-04T12:08:44Z</time></trkpt><trkpt lat="44.828077641189516" lon="11.581833391739362"><ele>5.0</ele><time>2026-04-04T12:08:45Z</time></trkpt><trkpt lat="44.82793392100171" lon="11.581961369721565"><ele>5.0</ele><time>2026-04-04T12:08:46Z</time></trkpt><trkpt lat="44.82779023256628" lon="11.582103728096495"><ele>5.0</ele><time>2026-04-04T12:08:47Z</time></trkpt><trkpt lat="44.827645532575005" lon="11.582250598615406"><ele>5.0</ele><time>2026-04-04T12:08:48Z</time></trkpt><trkpt lat="44.82750856722009" lon="11.5823987527318"><ele>5.0</ele><time>2026-04-04T12:08:49Z</time></trkpt><trkpt lat="44.827380657628716" lon="11.582546957260181"><ele>5.0</ele><time>2026-04-04T12:08:50Z</time></trkpt><trkpt lat="44.827267321526136" lon="11.5826855263834"><ele>5.0</ele><time>2026-04-04T12:08:51Z</time></trkpt><trkpt lat="44.82715689616011" lon="11.582829222521942"><ele>5.0</ele><time>2026-04-04T12:08:52Z</time></trkpt><trkpt lat="44.82704968830117" lon="11.582972505045422"><ele>5.0</ele><time>2026-04-04T12:08:53Z</time></trkpt><trkpt lat="44.826952815659496" lon="11.583105551684104"><ele>4.8</ele><time>2026-04-04T12:08:54Z</time></trkpt><trkpt lat="44.82686722766334" lon="11.583230724609717"><ele>4.6</ele><time>2026-04-04T12:08:55Z</time></trkpt><trkpt lat="44.82679544530907" lon="11.583345865962103"><ele>4.4</ele><time>2026-04-04T12:08:56Z</time></trkpt><trkpt lat="44.82673481974694" lon="11.583440654572135"><ele>4.2</ele><time>2026-04-04T12:08:57Z</time></trkpt><trkpt lat="44.82668415936337" lon="11.58352351228882"><ele>4.0</ele><time>2026-04-04T12:08:58Z</time></trkpt><trkpt lat="44.826612140923956" lon="11.583641991095845"><ele>4.2</ele><time>2026-04-04T12:09:00Z</time></trkpt><trkpt lat="44.82655281943397" lon="11.583741469163138"><ele>4.4</ele><time>2026-04-04T12:09:02Z</time></trkpt><trkpt lat="44.82648904512866" lon="11.583825009970603"><ele>4.6</ele><time>2026-04-04T12:09:04Z</time></trkpt><trkpt lat="44.82635898682742" lon="11.583867285266995"><ele>4.8</ele><time>2026-04-04T12:09:06Z</time></trkpt><trkpt lat="44.82627856508465" lon="11.583876772969615"><ele>5.0</ele><time>2026-04-04T12:09:07Z</time></trkpt><trkpt lat="44.82620437644902" lon="11.583918101776948"><ele>5.0</ele><time>2026-04-04T12:09:08Z</time></trkpt><trkpt lat="44.826140748661295" lon="11.58398766386125"><ele>5.0</ele><time>2026-04-04T12:09:09Z</time></trkpt><trkpt lat="44.82606634502898" lon="11.584032795646728"><ele>5.0</ele><time>2026-04-04T12:09:10Z</time></trkpt><trkpt lat="44.8259821109897" lon="11.584038777659355"><ele>5.0</ele><time>2026-04-04T12:09:11Z</time></trkpt><trkpt lat="44.82588323764022" lon="11.584007036250426"><ele>5.0</ele><time>2026-04-04T12:09:12Z</time></trkpt><trkpt lat="44.82575883823899" lon="11.583945361175028"><ele>5.666666666666667</ele><time>2026-04-04T12:09:12.999Z</time></trkpt><trkpt lat="44.825612286669504" lon="11.583872372923327"><ele>6.333333333333334</ele><time>2026-04-04T12:09:13.999Z</time></trkpt><trkpt lat="44.82545434895523" lon="11.583802533047859"><ele>7.0</ele><time>2026-04-04T12:09:14.999Z</time></trkpt><trkpt lat="44.82527705052543" lon="11.583722872205914"><ele>7.0</ele><time>2026-04-04T12:09:15.999Z</time></trkpt><trkpt lat="44.825085223144185" lon="11.58363847698984"><ele>7.0</ele><time>2026-04-04T12:09:16.999Z</time></trkpt><trkpt lat="44.82488415121942" lon="11.583548605338185"><ele>7.0</ele><time>2026-04-04T12:09:17.999Z</time></trkpt><trkpt lat="44.82467625685633" lon="11.583457479126393"><ele>7.0</ele><time>2026-04-04T12:09:18.999Z</time></trkpt><trkpt lat="44.82445686944374" lon="11.583362362285088"><ele>7.0</ele><time>2026-04-04T12:09:19.999Z</time></trkpt><trkpt lat="44.824232686408685" lon="11.583263426392913"><ele>8.0</ele><time>2026-04-04T12:09:20.999Z</time></trkpt><trkpt lat="44.82400546058298" lon="11.583158903526561"><ele>9.0</ele><time>2026-04-04T12:09:21.999Z</time></trkpt><trkpt lat="44.82355323290619" lon="11.582958114864136"><ele>8.5</ele><time>2026-04-04T12:09:23.999Z</time></trkpt><trkpt lat="44.82333106587528" lon="11.582863154155431"><ele>8.0</ele><time>2026-04-04T12:09:24.999Z</time></trkpt><trkpt lat="44.823116580659786" lon="11.582770524370318"><ele>8.0</ele><time>2026-04-04T12:09:25.999Z</time></trkpt><trkpt lat="44.82290960399934" lon="11.582681339943319"><ele>8.0</ele><time>2026-04-04T12:09:26.999Z</time></trkpt><trkpt lat="44.82270221084662" lon="11.582589930703515"><ele>8.0</ele><time>2026-04-04T12:09:27.999Z</time></trkpt><trkpt lat="44.82249335848528" lon="11.58249654778752"><ele>7.666666666666666</ele><time>2026-04-04T12:09:28.999Z</time></trkpt><trkpt lat="44.82228226277653" lon="11.58240304684835"><ele>7.333333333333334</ele><time>2026-04-04T12:09:29.999Z</time></trkpt><trkpt lat="44.82207084621212" lon="11.582310482168124"><ele>7.0</ele><time>2026-04-04T12:09:30.999Z</time></trkpt><trkpt lat="44.8218665667329" lon="11.582194666103081"><ele>7.0</ele><time>2026-04-04T12:09:31.999Z</time></trkpt><trkpt lat="44.821658436235424" lon="11.58210139657041"><ele>7.0</ele><time>2026-04-04T12:09:32.999Z</time></trkpt><trkpt lat="44.82145481540595" lon="11.582009770787902"><ele>7.0</ele><time>2026-04-04T12:09:33.999Z</time></trkpt><trkpt lat="44.821254291312776" lon="11.58191953846453"><ele>6.666666666666667</ele><time>2026-04-04T12:09:34.999Z</time></trkpt><trkpt lat="44.82104902825048" lon="11.581827173695986"><ele>6.333333333333334</ele><time>2026-04-04T12:09:35.999Z</time></trkpt><trkpt lat="44.820838636178216" lon="11.581732500991308"><ele>6.0</ele><time>2026-04-04T12:09:36.999Z</time></trkpt><trkpt lat="44.820620942135385" lon="11.581634540503295"><ele>7.0</ele><time>2026-04-04T12:09:37.999Z</time></trkpt><trkpt lat="44.82039635073658" lon="11.581534926286022"><ele>8.0</ele><time>2026-04-04T12:09:38.999Z</time></trkpt><trkpt lat="44.82016080930091" lon="11.581430455289487"><ele>8.0</ele><time>2026-04-04T12:09:39.999Z</time></trkpt><trkpt lat="44.81991906923316" lon="11.581323267393131"><ele>8.0</ele><time>2026-04-04T12:09:40.999Z</time></trkpt><trkpt lat="44.81967297456378" lon="11.58121417301524"><ele>8.0</ele><time>2026-04-04T12:09:41.999Z</time></trkpt><trkpt lat="44.81943163008033" lon="11.581129073864064"><ele>8.0</ele><time>2026-04-04T12:09:42.999Z</time></trkpt><trkpt lat="44.81920044617785" lon="11.581022492767126"><ele>8.0</ele><time>2026-04-04T12:09:43.999Z</time></trkpt><trkpt lat="44.81898329951679" lon="11.58092640114398"><ele>8.0</ele><time>2026-04-04T12:09:44.999Z</time></trkpt><trkpt lat="44.818769481742876" lon="11.580844506213573"><ele>8.0</ele><time>2026-04-04T12:09:45.999Z</time></trkpt><trkpt lat="44.81855013806555" lon="11.580774723607371"><ele>7.0</ele><time>2026-04-04T12:09:46.999Z</time></trkpt><trkpt lat="44.81832944280785" lon="11.580711983731517"><ele>6.0</ele><time>2026-04-04T12:09:47.999Z</time></trkpt><trkpt lat="44.81810972062324" lon="11.580652423555946"><ele>5.0</ele><time>2026-04-04T12:09:48.999Z</time></trkpt><trkpt lat="44.81789319082714" lon="11.580602201726292"><ele>5.0</ele><time>2026-04-04T12:09:49.999Z</time></trkpt><trkpt lat="44.81767800148137" lon="11.580558537727185"><ele>5.0</ele><time>2026-04-04T12:09:50.999Z</time></trkpt><trkpt lat="44.81746862784712" lon="11.580521349013765"><ele>5.0</ele><time>2026-04-04T12:09:51.999Z</time></trkpt><trkpt lat="44.81726243958845" lon="11.580494658030497"><ele>5.666666666666667</ele><time>2026-04-04T12:09:52.999Z</time></trkpt><trkpt lat="44.817055773423604" lon="11.580473472058053"><ele>6.333333333333334</ele><time>2026-04-04T12:09:53.999Z</time></trkpt><trkpt lat="44.8168484085949" lon="11.58046083882767"><ele>7.0</ele><time>2026-04-04T12:09:54.999Z</time></trkpt><trkpt lat="44.81664478713459" lon="11.580457632170793"><ele>5.666666666666667</ele><time>2026-04-04T12:09:55.999Z</time></trkpt><trkpt lat="44.81644320460991" lon="11.58045977417367"><ele>4.333333333333334</ele><time>2026-04-04T12:09:56.999Z</time></trkpt><trkpt lat="44.81624368002529" lon="11.580464906653898"><ele>3.0</ele><time>2026-04-04T12:09:57.999Z</time></trkpt><trkpt lat="44.81604351922524" lon="11.580473228091241"><ele>3.666666666666667</ele><time>2026-04-04T12:09:58.999Z</time></trkpt><trkpt lat="44.815841084595505" lon="11.58048263810091"><ele>4.333333333333334</ele><time>2026-04-04T12:09:59.999Z</time></trkpt><trkpt lat="44.81563751531309" lon="11.5804942488125"><ele>5.0</ele><time>2026-04-04T12:10:00.999Z</time></trkpt><trkpt lat="44.815428750022164" lon="11.580495286242398"><ele>5.0</ele><time>2026-04-04T12:10:01.999Z</time></trkpt><trkpt lat="44.815214802227594" lon="11.580486500398798"><ele>5.0</ele><time>2026-04-04T12:10:02.999Z</time></trkpt><trkpt lat="44.81499999036052" lon="11.580469323897987"><ele>5.0</ele><time>2026-04-04T12:10:03.999Z</time></trkpt><trkpt lat="44.814787998102446" lon="11.58044929355023"><ele>5.666666666666667</ele><time>2026-04-04T12:10:04.999Z</time></trkpt><trkpt lat="44.814579896872175" lon="11.580401395034606"><ele>6.333333333333334</ele><time>2026-04-04T12:10:05.999Z</time></trkpt><trkpt lat="44.81437306788426" lon="11.58038716958457"><ele>7.0</ele><time>2026-04-04T12:10:06.999Z</time></trkpt><trkpt lat="44.814170488683686" lon="11.580340853589298"><ele>7.0</ele><time>2026-04-04T12:10:07.999Z</time></trkpt><trkpt lat="44.81397226686813" lon="11.580290110682478"><ele>7.0</ele><time>2026-04-04T12:10:09Z</time></trkpt><trkpt lat="44.81377424533848" lon="11.580234579771764"><ele>7.0</ele><time>2026-04-04T12:10:10Z</time></trkpt><trkpt lat="44.81358317342305" lon="11.580150293105964"><ele>7.333333333333334</ele><time>2026-04-04T12:10:11Z</time></trkpt><trkpt lat="44.81338816881192" lon="11.580077369163757"><ele>7.666666666666666</ele><time>2026-04-04T12:10:12Z</time></trkpt><trkpt lat="44.813193610135876" lon="11.57999768493175"><ele>8.0</ele><time>2026-04-04T12:10:13Z</time></trkpt><trkpt lat="44.81300094368794" lon="11.579913491705392"><ele>8.0</ele><time>2026-04-04T12:10:14Z</time></trkpt><trkpt lat="44.81281304820779" lon="11.579823723014474"><ele>8.0</ele><time>2026-04-04T12:10:15Z</time></trkpt><trkpt lat="44.812627408570876" lon="11.579729226273775"><ele>8.0</ele><time>2026-04-04T12:10:16Z</time></trkpt><trkpt lat="44.812443881474856" lon="11.579623765751435"><ele>8.0</ele><time>2026-04-04T12:10:17Z</time></trkpt><trkpt lat="44.812247142322725" lon="11.579532961119387"><ele>8.0</ele><time>2026-04-04T12:10:18Z</time></trkpt><trkpt lat="44.812051096834196" lon="11.579406954221533"><ele>8.0</ele><time>2026-04-04T12:10:19Z</time></trkpt><trkpt lat="44.81186523234369" lon="11.579253186753835"><ele>8.0</ele><time>2026-04-04T12:10:20Z</time></trkpt><trkpt lat="44.81166864077312" lon="11.579135608609533"><ele>8.0</ele><time>2026-04-04T12:10:21Z</time></trkpt><trkpt lat="44.81148772875532" lon="11.578971796729311"><ele>8.0</ele><time>2026-04-04T12:10:22Z</time></trkpt><trkpt lat="44.81129276927242" lon="11.578844844713824"><ele>8.0</ele><time>2026-04-04T12:10:23Z</time></trkpt><trkpt lat="44.81110645332895" lon="11.578689811427358"><ele>8.0</ele><time>2026-04-04T12:10:24Z</time></trkpt><trkpt lat="44.81092121802306" lon="11.578531606984932"><ele>8.0</ele><time>2026-04-04T12:10:25Z</time></trkpt><trkpt lat="44.81073123026841" lon="11.578382346818184"><ele>7.666666666666666</ele><time>2026-04-04T12:10:26Z</time></trkpt><trkpt lat="44.81054472251318" lon="11.578229767520938"><ele>7.333333333333334</ele><time>2026-04-04T12:10:27Z</time></trkpt><trkpt lat="44.81035127640571" lon="11.578078336234995"><ele>7.0</ele><time>2026-04-04T12:10:28Z</time></trkpt><trkpt lat="44.81016280770533" lon="11.57791840629299"><ele>7.5</ele><time>2026-04-04T12:10:29Z</time></trkpt><trkpt lat="44.80997181645962" lon="11.5777493924113"><ele>8.0</ele><time>2026-04-04T12:10:30Z</time></trkpt><trkpt lat="44.80978391074537" lon="11.577563204412261"><ele>8.0</ele><time>2026-04-04T12:10:31Z</time></trkpt><trkpt lat="44.80959652986133" lon="11.577381428953395"><ele>8.0</ele><time>2026-04-04T12:10:32Z</time></trkpt><trkpt lat="44.80941072319082" lon="11.577189041400992"><ele>8.5</ele><time>2026-04-04T12:10:33Z</time></trkpt><trkpt lat="44.8092321111049" lon="11.576990594091232"><ele>9.0</ele><time>2026-04-04T12:10:34Z</time></trkpt><trkpt lat="44.80905604674097" lon="11.576786890755999"><ele>9.0</ele><time>2026-04-04T12:10:35Z</time></trkpt><trkpt lat="44.80888319462301" lon="11.576576580194667"><ele>9.0</ele><time>2026-04-04T12:10:36Z</time></trkpt><trkpt lat="44.808714379474786" lon="11.576358440940087"><ele>8.5</ele><time>2026-04-04T12:10:37Z</time></trkpt><trkpt lat="44.80854845444585" lon="11.576135516155906"><ele>8.0</ele><time>2026-04-04T12:10:38Z</time></trkpt><trkpt lat="44.80838720399713" lon="11.575905222799543"><ele>9.5</ele><time>2026-04-04T12:10:39Z</time></trkpt><trkpt lat="44.80823047780756" lon="11.575666997634755"><ele>11.0</ele><time>2026-04-04T12:10:40Z</time></trkpt><trkpt lat="44.80807758143415" lon="11.575426176601233"><ele>9.5</ele><time>2026-04-04T12:10:41Z</time></trkpt><trkpt lat="44.80792659597167" lon="11.57518706718725"><ele>8.0</ele><time>2026-04-04T12:10:42Z</time></trkpt><trkpt lat="44.807778577963745" lon="11.574945591118723"><ele>8.333333333333332</ele><time>2026-04-04T12:10:43Z</time></trkpt><trkpt lat="44.80763045153185" lon="11.574705708517268"><ele>8.666666666666666</ele><time>2026-04-04T12:10:44Z</time></trkpt><trkpt lat="44.807480564601356" lon="11.574474404572527"><ele>9.0</ele><time>2026-04-04T12:10:45Z</time></trkpt><trkpt lat="44.807334546182915" lon="11.574245862475205"><ele>9.333333333333334</ele><time>2026-04-04T12:10:46Z</time></trkpt><trkpt lat="44.80719266148167" lon="11.574011566399907"><ele>9.666666666666668</ele><time>2026-04-04T12:10:47Z</time></trkpt><trkpt lat="44.807051333207724" lon="11.573778540626941"><ele>10.0</ele><time>2026-04-04T12:10:48Z</time></trkpt><trkpt lat="44.80690661843873" lon="11.573546616431326"><ele>10.0</ele><time>2026-04-04T12:10:49Z</time></trkpt><trkpt lat="44.806759442290286" lon="11.573318647431922"><ele>10.0</ele><time>2026-04-04T12:10:50Z</time></trkpt><trkpt lat="44.806603533148696" lon="11.573089257486568"><ele>10.0</ele><time>2026-04-04T12:10:51Z</time></trkpt><trkpt lat="44.806441888325224" lon="11.572865643811902"><ele>11.0</ele><time>2026-04-04T12:10:52Z</time></trkpt><trkpt lat="44.80627728017381" lon="11.572645189607073"><ele>12.0</ele><time>2026-04-04T12:10:53Z</time></trkpt><trkpt lat="44.80609973028313" lon="11.572420574906861"><ele>12.5</ele><time>2026-04-04T12:10:54Z</time></trkpt><trkpt lat="44.80592423991182" lon="11.572190851857464"><ele>13.0</ele><time>2026-04-04T12:10:55Z</time></trkpt><trkpt lat="44.80574363118729" lon="11.571958182567268"><ele>12.0</ele><time>2026-04-04T12:10:56Z</time></trkpt><trkpt lat="44.805554211900976" lon="11.571739640009776"><ele>11.0</ele><time>2026-04-04T12:10:57Z</time></trkpt><trkpt lat="44.80535993090158" lon="11.571516192970691"><ele>11.5</ele><time>2026-04-04T12:10:58Z</time></trkpt><trkpt lat="44.805157484344626" lon="11.57131112219439"><ele>12.0</ele><time>2026-04-04T12:10:59Z</time></trkpt><trkpt lat="44.80495257444843" lon="11.571104528299854"><ele>12.0</ele><time>2026-04-04T12:11:00Z</time></trkpt><trkpt lat="44.80474338441035" lon="11.570914760601893"><ele>12.0</ele><time>2026-04-04T12:11:01Z</time></trkpt><trkpt lat="44.80453256126273" lon="11.570727758430502"><ele>13.5</ele><time>2026-04-04T12:11:02Z</time></trkpt><trkpt lat="44.80432796478767" lon="11.570545100154234"><ele>15.0</ele><time>2026-04-04T12:11:03Z</time></trkpt><trkpt lat="44.80412878608952" lon="11.570372799586966"><ele>12.5</ele><time>2026-04-04T12:11:04Z</time></trkpt><trkpt lat="44.803932323058895" lon="11.570200172047127"><ele>10.0</ele><time>2026-04-04T12:11:05Z</time></trkpt><trkpt lat="44.80372790717217" lon="11.570027762211316"><ele>10.0</ele><time>2026-04-04T12:11:06Z</time></trkpt><trkpt lat="44.80351386059935" lon="11.569846572763627"><ele>10.0</ele><time>2026-04-04T12:11:07Z</time></trkpt><trkpt lat="44.803281993282226" lon="11.569649744765584"><ele>10.5</ele><time>2026-04-04T12:11:08Z</time></trkpt><trkpt lat="44.80303571421564" lon="11.569446952489994"><ele>11.0</ele><time>2026-04-04T12:11:09Z</time></trkpt><trkpt lat="44.80277770752652" lon="11.569235636071557"><ele>11.0</ele><time>2026-04-04T12:11:10Z</time></trkpt><trkpt lat="44.8025081334162" lon="11.56900813854191"><ele>11.0</ele><time>2026-04-04T12:11:11Z</time></trkpt><trkpt lat="44.8022284385636" lon="11.568754363881926"><ele>10.5</ele><time>2026-04-04T12:11:12Z</time></trkpt><trkpt lat="44.80193169379711" lon="11.568490959433854"><ele>10.0</ele><time>2026-04-04T12:11:12.999Z</time></trkpt><trkpt lat="44.801624898261515" lon="11.568215342864507"><ele>10.0</ele><time>2026-04-04T12:11:13.999Z</time></trkpt><trkpt lat="44.80130387722618" lon="11.567936989774259"><ele>10.0</ele><time>2026-04-04T12:11:14.999Z</time></trkpt><trkpt lat="44.801009691949986" lon="11.567674454351797"><ele>9.5</ele><time>2026-04-04T12:11:15.999Z</time></trkpt><trkpt lat="44.8007393626116" lon="11.567442269198974"><ele>9.0</ele><time>2026-04-04T12:11:16.999Z</time></trkpt><trkpt lat="44.80048741756245" lon="11.567222134573106"><ele>9.0</ele><time>2026-04-04T12:11:17.999Z</time></trkpt><trkpt lat="44.80025906296819" lon="11.567016570424489"><ele>9.0</ele><time>2026-04-04T12:11:18.999Z</time></trkpt><trkpt lat="44.80002681536671" lon="11.566831170063425"><ele>8.5</ele><time>2026-04-04T12:11:19.999Z</time></trkpt><trkpt lat="44.79979700507709" lon="11.56666556177344"><ele>8.0</ele><time>2026-04-04T12:11:20.999Z</time></trkpt><trkpt lat="44.799554053483845" lon="11.566510183898286"><ele>8.0</ele><time>2026-04-04T12:11:21.999Z</time></trkpt><trkpt lat="44.799310557743794" lon="11.56636525312982"><ele>8.0</ele><time>2026-04-04T12:11:22.999Z</time></trkpt><trkpt lat="44.799070582320965" lon="11.566238334514907"><ele>7.5</ele><time>2026-04-04T12:11:23.999Z</time></trkpt><trkpt lat="44.79883461609573" lon="11.56613432287838"><ele>7.0</ele><time>2026-04-04T12:11:24.999Z</time></trkpt><trkpt lat="44.79860720400096" lon="11.566048442024545"><ele>7.666666666666667</ele><time>2026-04-04T12:11:25.999Z</time></trkpt><trkpt lat="44.79839295981404" lon="11.565980209194922"><ele>8.333333333333334</ele><time>2026-04-04T12:11:26.999Z</time></trkpt><trkpt lat="44.798183901342675" lon="11.565927040687209"><ele>9.0</ele><time>2026-04-04T12:11:27.999Z</time></trkpt><trkpt lat="44.79797863940453" lon="11.565885617788643"><ele>9.0</ele><time>2026-04-04T12:11:28.999Z</time></trkpt><trkpt lat="44.797767630050934" lon="11.56585582170059"><ele>9.0</ele><time>2026-04-04T12:11:29.999Z</time></trkpt><trkpt lat="44.797553505254065" lon="11.565832026482566"><ele>9.0</ele><time>2026-04-04T12:11:30.999Z</time></trkpt><trkpt lat="44.797338204759214" lon="11.565823221626323"><ele>9.333333333333334</ele><time>2026-04-04T12:11:31.999Z</time></trkpt><trkpt lat="44.797123494160864" lon="11.565811569641191"><ele>9.666666666666668</ele><time>2026-04-04T12:11:32.999Z</time></trkpt><trkpt lat="44.79691087417258" lon="11.565802994387912"><ele>10.0</ele><time>2026-04-04T12:11:33.999Z</time></trkpt><trkpt lat="44.796694471305486" lon="11.565800956010557"><ele>9.333333333333334</ele><time>2026-04-04T12:11:34.999Z</time></trkpt><trkpt lat="44.79647333475875" lon="11.565801052783819"><ele>8.666666666666666</ele><time>2026-04-04T12:11:35.999Z</time></trkpt><trkpt lat="44.79627734138883" lon="11.565801916714948"><ele>8.0</ele><time>2026-04-04T12:11:36.999Z</time></trkpt><trkpt lat="44.79607731434809" lon="11.565806290594535"><ele>8.666666666666666</ele><time>2026-04-04T12:11:37.999Z</time></trkpt><trkpt lat="44.795871726647604" lon="11.565801118848114"><ele>9.333333333333334</ele><time>2026-04-04T12:11:38.999Z</time></trkpt><trkpt lat="44.795657957980254" lon="11.565796331361025"><ele>10.0</ele><time>2026-04-04T12:11:39.999Z</time></trkpt><trkpt lat="44.795450959900144" lon="11.565801474197093"><ele>10.0</ele><time>2026-04-04T12:11:40.999Z</time></trkpt><trkpt lat="44.79527211038766" lon="11.565803223983536"><ele>10.0</ele><time>2026-04-04T12:11:41.999Z</time></trkpt><trkpt lat="44.79512419451951" lon="11.56578710494687"><ele>10.0</ele><time>2026-04-04T12:11:42.999Z</time></trkpt><trkpt lat="44.79496674762689" lon="11.565784726885461"><ele>10.0</ele><time>2026-04-04T12:11:43.999Z</time></trkpt><trkpt lat="44.79482461074776" lon="11.565782944127255"><ele>10.0</ele><time>2026-04-04T12:11:44.999Z</time></trkpt><trkpt lat="44.79468801274201" lon="11.56578858434392"><ele>10.0</ele><time>2026-04-04T12:11:45.999Z</time></trkpt><trkpt lat="44.794558729982995" lon="11.565787859641024"><ele>10.0</ele><time>2026-04-04T12:11:46.999Z</time></trkpt><trkpt lat="44.79444180968475" lon="11.56576710078595"><ele>9.75</ele><time>2026-04-04T12:11:47.999Z</time></trkpt><trkpt lat="44.79432149754869" lon="11.56576056332515"><ele>9.5</ele><time>2026-04-04T12:11:48.999Z</time></trkpt><trkpt lat="44.79420451068411" lon="11.565734980322707"><ele>9.25</ele><time>2026-04-04T12:11:49.999Z</time></trkpt><trkpt lat="44.79410778554944" lon="11.56566755746007"><ele>9.0</ele><time>2026-04-04T12:11:50.999Z</time></trkpt><trkpt lat="44.79402196518011" lon="11.565567686927732"><ele>9.0</ele><time>2026-04-04T12:11:51.999Z</time></trkpt><trkpt lat="44.79395702816143" lon="11.565430036600384"><ele>9.0</ele><time>2026-04-04T12:11:52.999Z</time></trkpt><trkpt lat="44.79390188716865" lon="11.565278676141814"><ele>9.0</ele><time>2026-04-04T12:11:53.999Z</time></trkpt><trkpt lat="44.79389088658997" lon="11.56510965363986"><ele>9.0</ele><time>2026-04-04T12:11:54.999Z</time></trkpt><trkpt lat="44.79391650508845" lon="11.564938199589124"><ele>9.0</ele><time>2026-04-04T12:11:55.999Z</time></trkpt><trkpt lat="44.79396792404381" lon="11.564796093256357"><ele>9.0</ele><time>2026-04-04T12:11:56.999Z</time></trkpt><trkpt lat="44.79404126661893" lon="11.564673030786091"><ele>9.0</ele><time>2026-04-04T12:11:57.999Z</time></trkpt><trkpt lat="44.7941325548947" lon="11.564579740104085"><ele>9.0</ele><time>2026-04-04T12:11:58.999Z</time></trkpt><trkpt lat="44.794236239911726" lon="11.564518957396096"><ele>9.2</ele><time>2026-04-04T12:11:59.999Z</time></trkpt><trkpt lat="44.794340937792875" lon="11.564503783851391"><ele>9.4</ele><time>2026-04-04T12:12:00.999Z</time></trkpt><trkpt lat="44.79444746646306" lon="11.56453668443772"><ele>9.6</ele><time>2026-04-04T12:12:01.999Z</time></trkpt><trkpt lat="44.79454753625531" lon="11.564606141203432"><ele>9.8</ele><time>2026-04-04T12:12:02.999Z</time></trkpt><trkpt lat="44.79462827318498" lon="11.56469547548434"><ele>10.0</ele><time>2026-04-04T12:12:03.999Z</time></trkpt><trkpt lat="44.79468798592518" lon="11.564823063955897"><ele>10.0</ele><time>2026-04-04T12:12:04.999Z</time></trkpt><trkpt lat="44.79472062882499" lon="11.56497220812695"><ele>10.0</ele><time>2026-04-04T12:12:05.999Z</time></trkpt><trkpt lat="44.7947336474678" lon="11.565140728320143"><ele>10.0</ele><time>2026-04-04T12:12:06.999Z</time></trkpt><trkpt lat="44.79472976156091" lon="11.565326689128216"><ele>10.0</ele><time>2026-04-04T12:12:07.999Z</time></trkpt><trkpt lat="44.79472966329851" lon="11.565533789429683"><ele>10.0</ele><time>2026-04-04T12:12:08.999Z</time></trkpt><trkpt lat="44.79473649650545" lon="11.565751969345044"><ele>10.0</ele><time>2026-04-04T12:12:09.999Z</time></trkpt><trkpt lat="44.79474682883446" lon="11.56599041943208"><ele>10.0</ele><time>2026-04-04T12:12:10.999Z</time></trkpt><trkpt lat="44.7947681083135" lon="11.566236396865037"><ele>9.333333333333334</ele><time>2026-04-04T12:12:11.999Z</time></trkpt><trkpt lat="44.79478557508976" lon="11.566494900531826"><ele>8.666666666666666</ele><time>2026-04-04T12:12:12.999Z</time></trkpt><trkpt lat="44.79479481584955" lon="11.566755936639"><ele>8.0</ele><time>2026-04-04T12:12:13.999Z</time></trkpt><trkpt lat="44.79479878188785" lon="11.567013324874793"><ele>8.333333333333332</ele><time>2026-04-04T12:12:15Z</time></trkpt><trkpt lat="44.79480028183504" lon="11.567265798490565"><ele>8.666666666666666</ele><time>2026-04-04T12:12:16Z</time></trkpt><trkpt lat="44.7948009159726" lon="11.567494286310463"><ele>9.0</ele><time>2026-04-04T12:12:17Z</time></trkpt><trkpt lat="44.79479925523116" lon="11.567721174713663"><ele>9.333333333333334</ele><time>2026-04-04T12:12:18Z</time></trkpt><trkpt lat="44.79479121336948" lon="11.567958414448974"><ele>9.666666666666668</ele><time>2026-04-04T12:12:19Z</time></trkpt><trkpt lat="44.79477900429255" lon="11.568189368211401"><ele>10.0</ele><time>2026-04-04T12:12:20Z</time></trkpt><trkpt lat="44.79476045714413" lon="11.568425657263422"><ele>10.0</ele><time>2026-04-04T12:12:21Z</time></trkpt><trkpt lat="44.794736370431124" lon="11.568660288285297"><ele>10.0</ele><time>2026-04-04T12:12:22Z</time></trkpt><trkpt lat="44.79470441735606" lon="11.568897300815854"><ele>10.0</ele><time>2026-04-04T12:12:23Z</time></trkpt><trkpt lat="44.79466772147242" lon="11.569127988231248"><ele>10.666666666666668</ele><time>2026-04-04T12:12:24Z</time></trkpt><trkpt lat="44.79462765994109" lon="11.569348131812701"><ele>11.333333333333334</ele><time>2026-04-04T12:12:25Z</time></trkpt><trkpt lat="44.79458096913513" lon="11.569569336374725"><ele>12.0</ele><time>2026-04-04T12:12:26Z</time></trkpt><trkpt lat="44.794519575977034" lon="11.569786096590487"><ele>12.0</ele><time>2026-04-04T12:12:27Z</time></trkpt><trkpt lat="44.79445733845784" lon="11.570000050552522"><ele>12.0</ele><time>2026-04-04T12:12:28Z</time></trkpt><trkpt lat="44.79440206033807" lon="11.570196228247037"><ele>12.0</ele><time>2026-04-04T12:12:29Z</time></trkpt><trkpt lat="44.79435585239321" lon="11.570367060085385"><ele>12.0</ele><time>2026-04-04T12:12:30Z</time></trkpt><trkpt lat="44.79431279849387" lon="11.570522822032709"><ele>12.0</ele><time>2026-04-04T12:12:31Z</time></trkpt><trkpt lat="44.79426967672783" lon="11.570686700658898"><ele>12.0</ele><time>2026-04-04T12:12:32Z</time></trkpt><trkpt lat="44.79422805606483" lon="11.570834260934191"><ele>12.0</ele><time>2026-04-04T12:12:33Z</time></trkpt><trkpt lat="44.79419214560048" lon="11.570964611831725"><ele>12.0</ele><time>2026-04-04T12:12:34Z</time></trkpt><trkpt lat="44.79416144110283" lon="11.571068690519004"><ele>12.0</ele><time>2026-04-04T12:12:35Z</time></trkpt><trkpt lat="44.79412930375314" lon="11.571158617110973"><ele>12.166666666666666</ele><time>2026-04-04T12:12:36Z</time></trkpt><trkpt lat="44.79408873320604" lon="11.571235005036046"><ele>12.333333333333332</ele><time>2026-04-04T12:12:37Z</time></trkpt><trkpt lat="44.79404681028007" lon="11.571302237374583"><ele>12.5</ele><time>2026-04-04T12:12:38Z</time></trkpt><trkpt lat="44.793981488993154" lon="11.571381001968918"><ele>12.666666666666666</ele><time>2026-04-04T12:12:40Z</time></trkpt><trkpt lat="44.79390468407594" lon="11.571480214884755"><ele>12.833333333333332</ele><time>2026-04-04T12:12:42Z</time></trkpt><trkpt lat="44.79381170930751" lon="11.571490602383674"><ele>13.0</ele><time>2026-04-04T12:12:43Z</time></trkpt><trkpt lat="44.79373047643227" lon="11.571540644077258"><ele>13.0</ele><time>2026-04-04T12:12:44Z</time></trkpt><trkpt lat="44.79361731132281" lon="11.57150962473063"><ele>13.0</ele><time>2026-04-04T12:12:45Z</time></trkpt><trkpt lat="44.79350094135086" lon="11.571489769236065"><ele>13.0</ele><time>2026-04-04T12:12:46Z</time></trkpt><trkpt lat="44.793372098658125" lon="11.571455893607164"><ele>13.0</ele><time>2026-04-04T12:12:47Z</time></trkpt><trkpt lat="44.79323834868239" lon="11.57143138998903"><ele>12.75</ele><time>2026-04-04T12:12:48Z</time></trkpt><trkpt lat="44.79309933397807" lon="11.571416762057403"><ele>12.5</ele><time>2026-04-04T12:12:49Z</time></trkpt><trkpt lat="44.792949871706114" lon="11.571420530883634"><ele>12.25</ele><time>2026-04-04T12:12:50Z</time></trkpt><trkpt lat="44.792805334526015" lon="11.571442275564003"><ele>12.0</ele><time>2026-04-04T12:12:51Z</time></trkpt><trkpt lat="44.79266956997276" lon="11.57147832720345"><ele>12.0</ele><time>2026-04-04T12:12:52Z</time></trkpt><trkpt lat="44.79253936346431" lon="11.571521632163904"><ele>12.0</ele><time>2026-04-04T12:12:53Z</time></trkpt><trkpt lat="44.79241418896991" lon="11.571575988320799"><ele>12.0</ele><time>2026-04-04T12:12:54Z</time></trkpt><trkpt lat="44.79228981079421" lon="11.57162937794308"><ele>12.0</ele><time>2026-04-04T12:12:55Z</time></trkpt><trkpt lat="44.792164732511736" lon="11.571686759727744"><ele>12.0</ele><time>2026-04-04T12:12:56Z</time></trkpt><trkpt lat="44.79203487831531" lon="11.571747159381188"><ele>12.0</ele><time>2026-04-04T12:12:57Z</time></trkpt><trkpt lat="44.79190550731435" lon="11.57181118760655"><ele>12.0</ele><time>2026-04-04T12:12:58Z</time></trkpt><trkpt lat="44.79178574877799" lon="11.571876178013188"><ele>12.0</ele><time>2026-04-04T12:12:59Z</time></trkpt><trkpt lat="44.7916617479546" lon="11.571934872036849"><ele>12.0</ele><time>2026-04-04T12:13:00Z</time></trkpt><trkpt lat="44.791534561099645" lon="11.571997142307382"><ele>12.0</ele><time>2026-04-04T12:13:01Z</time></trkpt><trkpt lat="44.79140748050193" lon="11.572058207823662"><ele>12.0</ele><time>2026-04-04T12:13:02Z</time></trkpt><trkpt lat="44.79127762079261" lon="11.572111228420493"><ele>12.0</ele><time>2026-04-04T12:13:03Z</time></trkpt><trkpt lat="44.791151406766225" lon="11.572163152378865"><ele>12.25</ele><time>2026-04-04T12:13:04Z</time></trkpt><trkpt lat="44.79103073262751" lon="11.572220768676374"><ele>12.5</ele><time>2026-04-04T12:13:05Z</time></trkpt><trkpt lat="44.7909081866654" lon="11.572275497316692"><ele>12.75</ele><time>2026-04-04T12:13:06Z</time></trkpt><trkpt lat="44.79079465381116" lon="11.572329143998873"><ele>13.0</ele><time>2026-04-04T12:13:07Z</time></trkpt><trkpt lat="44.79068215291737" lon="11.572377661477885"><ele>13.0</ele><time>2026-04-04T12:13:08Z</time></trkpt><trkpt lat="44.79057680192183" lon="11.572437931572232"><ele>13.0</ele><time>2026-04-04T12:13:09Z</time></trkpt><trkpt lat="44.79048272584062" lon="11.572499217399539"><ele>13.0</ele><time>2026-04-04T12:13:10Z</time></trkpt><trkpt lat="44.790400492959826" lon="11.572568407295153"><ele>13.0</ele><time>2026-04-04T12:13:11Z</time></trkpt><trkpt lat="44.79032351934376" lon="11.57264660678424"><ele>13.0</ele><time>2026-04-04T12:13:12Z</time></trkpt><trkpt lat="44.79024609505783" lon="11.572743329511992"><ele>12.833333333333332</ele><time>2026-04-04T12:13:13Z</time></trkpt><trkpt lat="44.79016219035608" lon="11.572838714408507"><ele>12.666666666666666</ele><time>2026-04-04T12:13:14Z</time></trkpt><trkpt lat="44.79008299182344" lon="11.572924373796596"><ele>12.5</ele><time>2026-04-04T12:13:15Z</time></trkpt><trkpt lat="44.79000988454985" lon="11.573002165824821"><ele>12.333333333333332</ele><time>2026-04-04T12:13:16Z</time></trkpt><trkpt lat="44.78994857959607" lon="11.573059571936534"><ele>12.166666666666666</ele><time>2026-04-04T12:13:17Z</time></trkpt><trkpt lat="44.78988050845682" lon="11.573099279412947"><ele>12.0</ele><time>2026-04-04T12:13:18Z</time></trkpt><trkpt lat="44.7898040773245" lon="11.573110713874545"><ele>11.8</ele><time>2026-04-04T12:13:19Z</time></trkpt><trkpt lat="44.78972421937937" lon="11.57311271139507"><ele>11.6</ele><time>2026-04-04T12:13:20Z</time></trkpt><trkpt lat="44.78963363877192" lon="11.573122847714327"><ele>11.4</ele><time>2026-04-04T12:13:21Z</time></trkpt><trkpt lat="44.789546102868734" lon="11.573178348554398"><ele>11.200000000000001</ele><time>2026-04-04T12:13:21.999Z</time></trkpt><trkpt lat="44.78946493531951" lon="11.5732779519037"><ele>11.0</ele><time>2026-04-04T12:13:22.999Z</time></trkpt><trkpt lat="44.789387963619255" lon="11.573382851998232"><ele>11.25</ele><time>2026-04-04T12:13:23.999Z</time></trkpt><trkpt lat="44.789322255385386" lon="11.573497308055519"><ele>11.5</ele><time>2026-04-04T12:13:24.999Z</time></trkpt><trkpt lat="44.78916320325749" lon="11.573513111363038"><ele>11.75</ele><time>2026-04-04T12:13:25.999Z</time></trkpt><trkpt lat="44.78901989866514" lon="11.57352512031151"><ele>12.0</ele><time>2026-04-04T12:13:26.999Z</time></trkpt><trkpt lat="44.7888729655326" lon="11.573551731860274"><ele>12.0</ele><time>2026-04-04T12:13:27.999Z</time></trkpt><trkpt lat="44.78871652404969" lon="11.573605687785431"><ele>12.0</ele><time>2026-04-04T12:13:28.999Z</time></trkpt><trkpt lat="44.78856034208512" lon="11.573711503813408"><ele>12.0</ele><time>2026-04-04T12:13:29.999Z</time></trkpt><trkpt lat="44.78840081906253" lon="11.573841701364236"><ele>11.666666666666666</ele><time>2026-04-04T12:13:30.999Z</time></trkpt><trkpt lat="44.78824793536398" lon="11.573993625186992"><ele>11.333333333333332</ele><time>2026-04-04T12:13:31.999Z</time></trkpt><trkpt lat="44.78808810627287" lon="11.574146838777425"><ele>11.0</ele><time>2026-04-04T12:13:32.999Z</time></trkpt><trkpt lat="44.787933271027136" lon="11.574293116982924"><ele>11.0</ele><time>2026-04-04T12:13:33.999Z</time></trkpt><trkpt lat="44.78777159182238" lon="11.574419345951018"><ele>11.0</ele><time>2026-04-04T12:13:34.999Z</time></trkpt><trkpt lat="44.7876035000061" lon="11.57452772062492"><ele>11.0</ele><time>2026-04-04T12:13:35.999Z</time></trkpt><trkpt lat="44.7874307482687" lon="11.57460352046638"><ele>10.666666666666666</ele><time>2026-04-04T12:13:36.999Z</time></trkpt><trkpt lat="44.78724503265122" lon="11.574640881188696"><ele>10.333333333333334</ele><time>2026-04-04T12:13:37.999Z</time></trkpt><trkpt lat="44.78704620511904" lon="11.574643579242329"><ele>10.0</ele><time>2026-04-04T12:13:38.999Z</time></trkpt><trkpt lat="44.78684138627804" lon="11.574628650357585"><ele>10.0</ele><time>2026-04-04T12:13:39.999Z</time></trkpt><trkpt lat="44.78663035194215" lon="11.57460202017431"><ele>10.0</ele><time>2026-04-04T12:13:40.999Z</time></trkpt><trkpt lat="44.78641338795151" lon="11.574574268525135"><ele>10.0</ele><time>2026-04-04T12:13:41.999Z</time></trkpt><trkpt lat="44.78620605839027" lon="11.5745538001593"><ele>10.0</ele><time>2026-04-04T12:13:42.999Z</time></trkpt><trkpt lat="44.78600147168511" lon="11.574529872367814"><ele>10.0</ele><time>2026-04-04T12:13:43.999Z</time></trkpt><trkpt lat="44.78580652046848" lon="11.574508645588603"><ele>10.0</ele><time>2026-04-04T12:13:44.999Z</time></trkpt><trkpt lat="44.78562407471799" lon="11.574497150188096"><ele>10.0</ele><time>2026-04-04T12:13:45.999Z</time></trkpt><trkpt lat="44.78544077338004" lon="11.57450979461005"><ele>10.0</ele><time>2026-04-04T12:13:46.999Z</time></trkpt><trkpt lat="44.785254256686954" lon="11.574546990420227"><ele>10.0</ele><time>2026-04-04T12:13:47.999Z</time></trkpt><trkpt lat="44.785067360784154" lon="11.574597376999707"><ele>10.666666666666668</ele><time>2026-04-04T12:13:48.999Z</time></trkpt><trkpt lat="44.784890459103956" lon="11.574650454525521"><ele>11.333333333333334</ele><time>2026-04-04T12:13:49.999Z</time></trkpt><trkpt lat="44.78471777169628" lon="11.574698137808957"><ele>12.0</ele><time>2026-04-04T12:13:50.999Z</time></trkpt><trkpt lat="44.784544347022084" lon="11.574740801302909"><ele>12.0</ele><time>2026-04-04T12:13:51.999Z</time></trkpt><trkpt lat="44.78437279702553" lon="11.574784241542273"><ele>12.0</ele><time>2026-04-04T12:13:52.999Z</time></trkpt><trkpt lat="44.78419674510185" lon="11.574826648652675"><ele>12.0</ele><time>2026-04-04T12:13:53.999Z</time></trkpt><trkpt lat="44.78401737364939" lon="11.574869888923097"><ele>12.0</ele><time>2026-04-04T12:13:54.999Z</time></trkpt><trkpt lat="44.78384109445514" lon="11.574917292572612"><ele>12.0</ele><time>2026-04-04T12:13:55.999Z</time></trkpt><trkpt lat="44.78366120369051" lon="11.57497423116396"><ele>12.0</ele><time>2026-04-04T12:13:56.999Z</time></trkpt><trkpt lat="44.78348407924663" lon="11.575037057974226"><ele>11.333333333333334</ele><time>2026-04-04T12:13:57.999Z</time></trkpt><trkpt lat="44.78330828930971" lon="11.575104219915254"><ele>10.666666666666668</ele><time>2026-04-04T12:13:58.999Z</time></trkpt><trkpt lat="44.78313855666684" lon="11.5751702457181"><ele>10.0</ele><time>2026-04-04T12:13:59.999Z</time></trkpt><trkpt lat="44.782971950446374" lon="11.575237408149885"><ele>10.0</ele><time>2026-04-04T12:14:00.999Z</time></trkpt><trkpt lat="44.78281724737926" lon="11.575299724431602"><ele>10.0</ele><time>2026-04-04T12:14:01.999Z</time></trkpt><trkpt lat="44.78265795709671" lon="11.575358486569796"><ele>10.0</ele><time>2026-04-04T12:14:02.999Z</time></trkpt><trkpt lat="44.782486665946294" lon="11.575424198790172"><ele>10.333333333333334</ele><time>2026-04-04T12:14:03.999Z</time></trkpt><trkpt lat="44.7823187047525" lon="11.575487709239683"><ele>10.666666666666666</ele><time>2026-04-04T12:14:04.999Z</time></trkpt><trkpt lat="44.78214527726461" lon="11.575549951803087"><ele>11.0</ele><time>2026-04-04T12:14:05.999Z</time></trkpt><trkpt lat="44.781972467439935" lon="11.575597755828866"><ele>11.0</ele><time>2026-04-04T12:14:06.999Z</time></trkpt><trkpt lat="44.7818033822689" lon="11.575641487790175"><ele>11.0</ele><time>2026-04-04T12:14:07.999Z</time></trkpt><trkpt lat="44.78164922954124" lon="11.5756797850367"><ele>11.0</ele><time>2026-04-04T12:14:08.999Z</time></trkpt><trkpt lat="44.781503626687176" lon="11.575714594828238"><ele>11.0</ele><time>2026-04-04T12:14:09.999Z</time></trkpt><trkpt lat="44.78136538857807" lon="11.575745237761923"><ele>11.0</ele><time>2026-04-04T12:14:10.999Z</time></trkpt><trkpt lat="44.78122502626147" lon="11.575776702405063"><ele>11.0</ele><time>2026-04-04T12:14:11.999Z</time></trkpt><trkpt lat="44.78107719401918" lon="11.575814035627243"><ele>11.0</ele><time>2026-04-04T12:14:12.999Z</time></trkpt><trkpt lat="44.780922698900625" lon="11.575854713871848"><ele>11.333333333333332</ele><time>2026-04-04T12:14:13.999Z</time></trkpt><trkpt lat="44.780762489756036" lon="11.575911037033288"><ele>11.666666666666666</ele><time>2026-04-04T12:14:14.999Z</time></trkpt><trkpt lat="44.780593871284914" lon="11.575973906202934"><ele>12.0</ele><time>2026-04-04T12:14:15.999Z</time></trkpt><trkpt lat="44.78042136139119" lon="11.57603556790265"><ele>12.0</ele><time>2026-04-04T12:14:16.999Z</time></trkpt><trkpt lat="44.78024687913438" lon="11.576095071222463"><ele>12.0</ele><time>2026-04-04T12:14:17.999Z</time></trkpt><trkpt lat="44.78007575092503" lon="11.576157513605455"><ele>12.0</ele><time>2026-04-04T12:14:18.999Z</time></trkpt><trkpt lat="44.77990362549008" lon="11.576221874318813"><ele>11.666666666666666</ele><time>2026-04-04T12:14:19.999Z</time></trkpt><trkpt lat="44.77972725314634" lon="11.57628444767571"><ele>11.333333333333332</ele><time>2026-04-04T12:14:21Z</time></trkpt><trkpt lat="44.77955261751236" lon="11.576350380165037"><ele>11.0</ele><time>2026-04-04T12:14:22Z</time></trkpt><trkpt lat="44.77938897162884" lon="11.576416843500098"><ele>11.0</ele><time>2026-04-04T12:14:23Z</time></trkpt><trkpt lat="44.779226603869574" lon="11.576475624075341"><ele>11.0</ele><time>2026-04-04T12:14:24Z</time></trkpt><trkpt lat="44.77905551025983" lon="11.576528868189182"><ele>11.0</ele><time>2026-04-04T12:14:25Z</time></trkpt><trkpt lat="44.77888415733112" lon="11.576579863455631"><ele>11.0</ele><time>2026-04-04T12:14:26Z</time></trkpt><trkpt lat="44.778711585843936" lon="11.576628776568768"><ele>11.0</ele><time>2026-04-04T12:14:27Z</time></trkpt><trkpt lat="44.778538593665125" lon="11.576674868979344"><ele>11.0</ele><time>2026-04-04T12:14:28Z</time></trkpt><trkpt lat="44.77836642437531" lon="11.576721750381155"><ele>11.333333333333332</ele><time>2026-04-04T12:14:29Z</time></trkpt><trkpt lat="44.77819221478685" lon="11.57677117281372"><ele>11.666666666666666</ele><time>2026-04-04T12:14:30Z</time></trkpt><trkpt lat="44.77801883643935" lon="11.576822321974698"><ele>12.0</ele><time>2026-04-04T12:14:31Z</time></trkpt><trkpt lat="44.77784570513208" lon="11.57687654007403"><ele>12.0</ele><time>2026-04-04T12:14:32Z</time></trkpt><trkpt lat="44.777673819599855" lon="11.576932780842908"><ele>12.0</ele><time>2026-04-04T12:14:33Z</time></trkpt><trkpt lat="44.77750533933599" lon="11.57699187665251"><ele>12.0</ele><time>2026-04-04T12:14:34Z</time></trkpt><trkpt lat="44.77734230888142" lon="11.577055658780173"><ele>11.666666666666666</ele><time>2026-04-04T12:14:35Z</time></trkpt><trkpt lat="44.777186077692214" lon="11.577113648571341"><ele>11.333333333333332</ele><time>2026-04-04T12:14:36Z</time></trkpt><trkpt lat="44.77703586209805" lon="11.577169543971747"><ele>11.0</ele><time>2026-04-04T12:14:37Z</time></trkpt><trkpt lat="44.776884140342624" lon="11.577223813744048"><ele>11.333333333333332</ele><time>2026-04-04T12:14:38Z</time></trkpt><trkpt lat="44.77673690017057" lon="11.57727236078321"><ele>11.666666666666666</ele><time>2026-04-04T12:14:39Z</time></trkpt><trkpt lat="44.77658818607062" lon="11.577321820913314"><ele>12.0</ele><time>2026-04-04T12:14:40Z</time></trkpt><trkpt lat="44.77644319078004" lon="11.577367380244104"><ele>12.0</ele><time>2026-04-04T12:14:41Z</time></trkpt><trkpt lat="44.776295404324685" lon="11.57741607252413"><ele>12.0</ele><time>2026-04-04T12:14:42Z</time></trkpt><trkpt lat="44.77614328230791" lon="11.577469777513627"><ele>12.0</ele><time>2026-04-04T12:14:43Z</time></trkpt><trkpt lat="44.77599081002692" lon="11.577523089180417"><ele>11.333333333333334</ele><time>2026-04-04T12:14:44Z</time></trkpt><trkpt lat="44.77584240718432" lon="11.577570963323486"><ele>10.666666666666668</ele><time>2026-04-04T12:14:45Z</time></trkpt><trkpt lat="44.775691831395335" lon="11.57761845052162"><ele>10.0</ele><time>2026-04-04T12:14:46Z</time></trkpt><trkpt lat="44.775539288861886" lon="11.577665199879794"><ele>10.0</ele><time>2026-04-04T12:14:47Z</time></trkpt><trkpt lat="44.77538411342785" lon="11.577711881763175"><ele>10.0</ele><time>2026-04-04T12:14:48Z</time></trkpt><trkpt lat="44.77522936945265" lon="11.577758488484106"><ele>10.0</ele><time>2026-04-04T12:14:49Z</time></trkpt><trkpt lat="44.77507504379019" lon="11.577801720551376"><ele>10.0</ele><time>2026-04-04T12:14:50Z</time></trkpt><trkpt lat="44.77492582838928" lon="11.5778425732628"><ele>10.0</ele><time>2026-04-04T12:14:51Z</time></trkpt><trkpt lat="44.77478316674024" lon="11.577880288253679"><ele>10.0</ele><time>2026-04-04T12:14:52Z</time></trkpt><trkpt lat="44.77464847624935" lon="11.577917222024169"><ele>10.0</ele><time>2026-04-04T12:14:53Z</time></trkpt><trkpt lat="44.77451651148809" lon="11.577959682550278"><ele>9.75</ele><time>2026-04-04T12:14:54Z</time></trkpt><trkpt lat="44.77439275027169" lon="11.577994129272689"><ele>9.5</ele><time>2026-04-04T12:14:55Z</time></trkpt><trkpt lat="44.774274170737144" lon="11.57802635898341"><ele>9.25</ele><time>2026-04-04T12:14:56Z</time></trkpt><trkpt lat="44.77416161689409" lon="11.578056607514235"><ele>9.0</ele><time>2026-04-04T12:14:57Z</time></trkpt><trkpt lat="44.77405643881999" lon="11.578083429658982"><ele>9.0</ele><time>2026-04-04T12:14:58Z</time></trkpt><trkpt lat="44.77395748447846" lon="11.578105847224927"><ele>9.0</ele><time>2026-04-04T12:14:59Z</time></trkpt><trkpt lat="44.773865608354065" lon="11.578128633904917"><ele>9.0</ele><time>2026-04-04T12:15:00Z</time></trkpt><trkpt lat="44.77378063371471" lon="11.578149954916164"><ele>9.0</ele><time>2026-04-04T12:15:01Z</time></trkpt><trkpt lat="44.773695789904814" lon="11.578145777234337"><ele>9.0</ele><time>2026-04-04T12:15:02Z</time></trkpt><trkpt lat="44.77362360732741" lon="11.578161904968429"><ele>9.0</ele><time>2026-04-04T12:15:03Z</time></trkpt><trkpt lat="44.77355891227094" lon="11.578197222180062"><ele>9.6</ele><time>2026-04-04T12:15:04Z</time></trkpt><trkpt lat="44.773444411073406" lon="11.578221822434864"><ele>10.2</ele><time>2026-04-04T12:15:06Z</time></trkpt><trkpt lat="44.773351461091" lon="11.578238812290417"><ele>10.799999999999999</ele><time>2026-04-04T12:15:08Z</time></trkpt><trkpt lat="44.773270795902846" lon="11.578255234963638"><ele>11.4</ele><time>2026-04-04T12:15:10Z</time></trkpt><trkpt lat="44.773175907160756" lon="11.578261934521718"><ele>12.0</ele><time>2026-04-04T12:15:13Z</time></trkpt><trkpt lat="44.77308932190125" lon="11.578281280216693"><ele>12.0</ele><time>2026-04-04T12:15:16Z</time></trkpt><trkpt lat="44.772969835411374" lon="11.578306578443682"><ele>12.0</ele><time>2026-04-04T12:15:18Z</time></trkpt><trkpt lat="44.772876300286725" lon="11.578326738252958"><ele>12.0</ele><time>2026-04-04T12:15:19Z</time></trkpt><trkpt lat="44.77275935359638" lon="11.57835194395676"><ele>12.0</ele><time>2026-04-04T12:15:20Z</time></trkpt><trkpt lat="44.77262583247543" lon="11.578402135964899"><ele>11.666666666666666</ele><time>2026-04-04T12:15:21Z</time></trkpt><trkpt lat="44.77247477270224" lon="11.578435071220342"><ele>11.333333333333332</ele><time>2026-04-04T12:15:22Z</time></trkpt><trkpt lat="44.77230571555397" lon="11.578473219055153"><ele>11.0</ele><time>2026-04-04T12:15:23Z</time></trkpt><trkpt lat="44.77211486961268" lon="11.57851447119017"><ele>11.0</ele><time>2026-04-04T12:15:24Z</time></trkpt><trkpt lat="44.771910703676625" lon="11.578554020986976"><ele>11.0</ele><time>2026-04-04T12:15:25Z</time></trkpt><trkpt lat="44.77169704316979" lon="11.578592570614852"><ele>11.0</ele><time>2026-04-04T12:15:26Z</time></trkpt><trkpt lat="44.771473306219086" lon="11.578630668215192"><ele>10.5</ele><time>2026-04-04T12:15:27Z</time></trkpt><trkpt lat="44.77124152193058" lon="11.578665606713903"><ele>10.0</ele><time>2026-04-04T12:15:28Z</time></trkpt><trkpt lat="44.77100055850337" lon="11.57869057848456"><ele>10.0</ele><time>2026-04-04T12:15:28.999Z</time></trkpt><trkpt lat="44.770763353402" lon="11.578711649691208"><ele>10.0</ele><time>2026-04-04T12:15:29.999Z</time></trkpt><trkpt lat="44.77052283986337" lon="11.578726031008093"><ele>10.0</ele><time>2026-04-04T12:15:30.999Z</time></trkpt><trkpt lat="44.77028666336779" lon="11.578735153845743"><ele>10.0</ele><time>2026-04-04T12:15:31.999Z</time></trkpt><trkpt lat="44.77004715175404" lon="11.578739732996318"><ele>10.5</ele><time>2026-04-04T12:15:32.999Z</time></trkpt><trkpt lat="44.76980329769302" lon="11.578736178883071"><ele>11.0</ele><time>2026-04-04T12:15:33.999Z</time></trkpt><trkpt lat="44.76955816032477" lon="11.578730048001566"><ele>10.5</ele><time>2026-04-04T12:15:34.999Z</time></trkpt><trkpt lat="44.76930635880769" lon="11.57871543117147"><ele>10.0</ele><time>2026-04-04T12:15:35.999Z</time></trkpt><trkpt lat="44.76905695596505" lon="11.578698609212612"><ele>11.0</ele><time>2026-04-04T12:15:36.999Z</time></trkpt><trkpt lat="44.76881116592539" lon="11.57867674155238"><ele>12.0</ele><time>2026-04-04T12:15:37.999Z</time></trkpt><trkpt lat="44.768566762783166" lon="11.57863701117745"><ele>11.0</ele><time>2026-04-04T12:15:38.999Z</time></trkpt><trkpt lat="44.76831913182762" lon="11.57862117617489"><ele>10.0</ele><time>2026-04-04T12:15:39.999Z</time></trkpt><trkpt lat="44.76806820657423" lon="11.578615731883312"><ele>10.0</ele><time>2026-04-04T12:15:40.999Z</time></trkpt><trkpt lat="44.7678211652896" lon="11.578624439146592"><ele>10.0</ele><time>2026-04-04T12:15:41.999Z</time></trkpt><trkpt lat="44.76757494982951" lon="11.578664640340744"><ele>10.0</ele><time>2026-04-04T12:15:42.999Z</time></trkpt><trkpt lat="44.76732871646519" lon="11.578677722704466"><ele>10.0</ele><time>2026-04-04T12:15:43.999Z</time></trkpt><trkpt lat="44.76709228828256" lon="11.57869256391498"><ele>10.0</ele><time>2026-04-04T12:15:44.999Z</time></trkpt><trkpt lat="44.76686483931559" lon="11.57869953446492"><ele>10.0</ele><time>2026-04-04T12:15:45.999Z</time></trkpt><trkpt lat="44.76664849524061" lon="11.578694616852323"><ele>10.0</ele><time>2026-04-04T12:15:46.999Z</time></trkpt><trkpt lat="44.76644207580805" lon="11.578678667533113"><ele>9.666666666666668</ele><time>2026-04-04T12:15:47.999Z</time></trkpt><trkpt lat="44.76623870549679" lon="11.578650251505563"><ele>9.333333333333334</ele><time>2026-04-04T12:15:48.999Z</time></trkpt><trkpt lat="44.76604333473014" lon="11.578609489486281"><ele>9.0</ele><time>2026-04-04T12:15:49.999Z</time></trkpt><trkpt lat="44.76586369266922" lon="11.578552192895387"><ele>9.666666666666666</ele><time>2026-04-04T12:15:50.999Z</time></trkpt><trkpt lat="44.76568761048817" lon="11.578479471546538"><ele>10.333333333333332</ele><time>2026-04-04T12:15:51.999Z</time></trkpt><trkpt lat="44.765514666242915" lon="11.57837507017463"><ele>11.0</ele><time>2026-04-04T12:15:52.999Z</time></trkpt><trkpt lat="44.76534501761989" lon="11.578238813347904"><ele>10.666666666666666</ele><time>2026-04-04T12:15:53.999Z</time></trkpt><trkpt lat="44.76518409228193" lon="11.578062898065514"><ele>10.333333333333334</ele><time>2026-04-04T12:15:54.999Z</time></trkpt><trkpt lat="44.765029669060496" lon="11.57787686084373"><ele>10.0</ele><time>2026-04-04T12:15:55.999Z</time></trkpt><trkpt lat="44.764868410375975" lon="11.577668633304784"><ele>10.0</ele><time>2026-04-04T12:15:56.999Z</time></trkpt><trkpt lat="44.76469673884194" lon="11.577483989978507"><ele>10.0</ele><time>2026-04-04T12:15:57.999Z</time></trkpt><trkpt lat="44.764507904357295" lon="11.57731644139726"><ele>10.0</ele><time>2026-04-04T12:15:58.999Z</time></trkpt><trkpt lat="44.76432372897639" lon="11.577164626491475"><ele>10.333333333333334</ele><time>2026-04-04T12:15:59.999Z</time></trkpt><trkpt lat="44.76415809401722" lon="11.577031691439041"><ele>10.666666666666666</ele><time>2026-04-04T12:16:00.999Z</time></trkpt><trkpt lat="44.76401140812105" lon="11.57691435821802"><ele>11.0</ele><time>2026-04-04T12:16:01.999Z</time></trkpt><trkpt lat="44.76385662888916" lon="11.57681479526668"><ele>11.0</ele><time>2026-04-04T12:16:02.999Z</time></trkpt><trkpt lat="44.76369035893271" lon="11.576743924373632"><ele>11.0</ele><time>2026-04-04T12:16:03.999Z</time></trkpt><trkpt lat="44.763514005230256" lon="11.576699614769607"><ele>11.0</ele><time>2026-04-04T12:16:04.999Z</time></trkpt><trkpt lat="44.763333109573516" lon="11.576680509264735"><ele>11.0</ele><time>2026-04-04T12:16:05.999Z</time></trkpt><trkpt lat="44.7631480519543" lon="11.576647019317443"><ele>11.0</ele><time>2026-04-04T12:16:06.999Z</time></trkpt><trkpt lat="44.762977585201014" lon="11.57657184078129"><ele>11.0</ele><time>2026-04-04T12:16:07.999Z</time></trkpt><trkpt lat="44.76280588507276" lon="11.576459768326165"><ele>10.666666666666666</ele><time>2026-04-04T12:16:08.999Z</time></trkpt><trkpt lat="44.762646364573094" lon="11.576311283243456"><ele>10.333333333333334</ele><time>2026-04-04T12:16:09.999Z</time></trkpt><trkpt lat="44.762483600397935" lon="11.576162169837719"><ele>10.0</ele><time>2026-04-04T12:16:10.999Z</time></trkpt><trkpt lat="44.762308307624316" lon="11.576037643466059"><ele>10.0</ele><time>2026-04-04T12:16:11.999Z</time></trkpt><trkpt lat="44.76214101309458" lon="11.575890096452097"><ele>10.0</ele><time>2026-04-04T12:16:12.999Z</time></trkpt><trkpt lat="44.76197058610008" lon="11.57575407151289"><ele>10.0</ele><time>2026-04-04T12:16:13.999Z</time></trkpt><trkpt lat="44.761704294071365" lon="11.575855044939052"><ele>10.0</ele><time>2026-04-04T12:16:14.999Z</time></trkpt><trkpt lat="44.76148612647867" lon="11.575819144782283"><ele>10.0</ele><time>2026-04-04T12:16:15.999Z</time></trkpt><trkpt lat="44.76126637253509" lon="11.575778295432311"><ele>10.0</ele><time>2026-04-04T12:16:16.999Z</time></trkpt><trkpt lat="44.76104699603095" lon="11.575721347844848"><ele>9.666666666666668</ele><time>2026-04-04T12:16:17.999Z</time></trkpt><trkpt lat="44.76083409162481" lon="11.575647360654377"><ele>9.333333333333334</ele><time>2026-04-04T12:16:18.999Z</time></trkpt><trkpt lat="44.760624676512165" lon="11.575569686492257"><ele>9.0</ele><time>2026-04-04T12:16:19.999Z</time></trkpt><trkpt lat="44.76042150799401" lon="11.575507193261867"><ele>9.0</ele><time>2026-04-04T12:16:20.999Z</time></trkpt><trkpt lat="44.76021181085185" lon="11.575473656108889"><ele>9.0</ele><time>2026-04-04T12:16:21.999Z</time></trkpt><trkpt lat="44.759996882776186" lon="11.575468440553434"><ele>9.0</ele><time>2026-04-04T12:16:22.999Z</time></trkpt><trkpt lat="44.7597775155357" lon="11.575480459571018"><ele>9.666666666666666</ele><time>2026-04-04T12:16:23.999Z</time></trkpt><trkpt lat="44.759555479226435" lon="11.575471133491005"><ele>10.333333333333332</ele><time>2026-04-04T12:16:24.999Z</time></trkpt><trkpt lat="44.759332068498466" lon="11.575427851036677"><ele>11.0</ele><time>2026-04-04T12:16:25.999Z</time></trkpt><trkpt lat="44.75910443398308" lon="11.575370940435432"><ele>11.0</ele><time>2026-04-04T12:16:27Z</time></trkpt><trkpt lat="44.758877177897055" lon="11.575314978788414"><ele>11.0</ele><time>2026-04-04T12:16:28Z</time></trkpt><trkpt lat="44.7586501617574" lon="11.57526923004927"><ele>11.5</ele><time>2026-04-04T12:16:29Z</time></trkpt><trkpt lat="44.75842472661613" lon="11.575238341561775"><ele>12.0</ele><time>2026-04-04T12:16:30Z</time></trkpt><trkpt lat="44.758199372609184" lon="11.57522785997781"><ele>12.0</ele><time>2026-04-04T12:16:31Z</time></trkpt><trkpt lat="44.75797730012801" lon="11.57523517308089"><ele>12.0</ele><time>2026-04-04T12:16:32Z</time></trkpt><trkpt lat="44.7577556509271" lon="11.575247487894693"><ele>12.0</ele><time>2026-04-04T12:16:33Z</time></trkpt><trkpt lat="44.75753826378141" lon="11.575264537631407"><ele>11.666666666666666</ele><time>2026-04-04T12:16:34Z</time></trkpt><trkpt lat="44.757333149501044" lon="11.575282550172385"><ele>11.333333333333332</ele><time>2026-04-04T12:16:35Z</time></trkpt><trkpt lat="44.757136113652074" lon="11.575298645387385"><ele>11.0</ele><time>2026-04-04T12:16:36Z</time></trkpt><trkpt lat="44.756948409751814" lon="11.57531452588256"><ele>10.666666666666666</ele><time>2026-04-04T12:16:37Z</time></trkpt><trkpt lat="44.756763352837794" lon="11.575328325299203"><ele>10.333333333333334</ele><time>2026-04-04T12:16:38Z</time></trkpt><trkpt lat="44.75658435557717" lon="11.575336283376682"><ele>10.0</ele><time>2026-04-04T12:16:39Z</time></trkpt><trkpt lat="44.756414265939206" lon="11.575333333743474"><ele>10.0</ele><time>2026-04-04T12:16:40Z</time></trkpt><trkpt lat="44.75626280723614" lon="11.575324293535695"><ele>10.0</ele><time>2026-04-04T12:16:41Z</time></trkpt><trkpt lat="44.75611781435737" lon="11.575308885010225"><ele>10.0</ele><time>2026-04-04T12:16:42Z</time></trkpt><trkpt lat="44.75597925194113" lon="11.57528405931711"><ele>10.0</ele><time>2026-04-04T12:16:43Z</time></trkpt><trkpt lat="44.75584692871346" lon="11.575254076098723"><ele>10.5</ele><time>2026-04-04T12:16:44Z</time></trkpt><trkpt lat="44.755725891786426" lon="11.57522269828653"><ele>11.0</ele><time>2026-04-04T12:16:45Z</time></trkpt><trkpt lat="44.7556137859312" lon="11.57519486365129"><ele>11.5</ele><time>2026-04-04T12:16:46Z</time></trkpt><trkpt lat="44.75550097885884" lon="11.575165842461262"><ele>12.0</ele><time>2026-04-04T12:16:47Z</time></trkpt><trkpt lat="44.75537890276206" lon="11.575129519854652"><ele>12.0</ele><time>2026-04-04T12:16:48Z</time></trkpt><trkpt lat="44.755255421071226" lon="11.575096345579095"><ele>12.0</ele><time>2026-04-04T12:16:49Z</time></trkpt><trkpt lat="44.755125913902155" lon="11.57506521349598"><ele>12.0</ele><time>2026-04-04T12:16:50Z</time></trkpt><trkpt lat="44.75498918747922" lon="11.575040827814258"><ele>12.0</ele><time>2026-04-04T12:16:51Z</time></trkpt><trkpt lat="44.75484893908998" lon="11.575018741785485"><ele>11.666666666666666</ele><time>2026-04-04T12:16:52Z</time></trkpt><trkpt lat="44.754702943684684" lon="11.575011573887378"><ele>11.333333333333332</ele><time>2026-04-04T12:16:53Z</time></trkpt><trkpt lat="44.754552561020475" lon="11.575015158893319"><ele>11.0</ele><time>2026-04-04T12:16:54Z</time></trkpt><trkpt lat="44.754391583740926" lon="11.575020174804251"><ele>11.0</ele><time>2026-04-04T12:16:55Z</time></trkpt><trkpt lat="44.754223698799954" lon="11.575019211577212"><ele>11.0</ele><time>2026-04-04T12:16:56Z</time></trkpt><trkpt lat="44.75404761019059" lon="11.575015690514913"><ele>11.0</ele><time>2026-04-04T12:16:57Z</time></trkpt><trkpt lat="44.753867527885966" lon="11.575014032923502"><ele>11.0</ele><time>2026-04-04T12:16:58Z</time></trkpt><trkpt lat="44.7536841982791" lon="11.57502590439972"><ele>11.0</ele><time>2026-04-04T12:16:59Z</time></trkpt><trkpt lat="44.75349683832248" lon="11.57505714409914"><ele>11.0</ele><time>2026-04-04T12:17:00Z</time></trkpt><trkpt lat="44.75330821142246" lon="11.575108680042883"><ele>11.0</ele><time>2026-04-04T12:17:01Z</time></trkpt><trkpt lat="44.75311631922469" lon="11.575175930827278"><ele>11.0</ele><time>2026-04-04T12:17:02Z</time></trkpt><trkpt lat="44.752922777263954" lon="11.575255210389365"><ele>11.0</ele><time>2026-04-04T12:17:03Z</time></trkpt><trkpt lat="44.752731296736535" lon="11.575353747725222"><ele>10.666666666666666</ele><time>2026-04-04T12:17:04Z</time></trkpt><trkpt lat="44.75254182769735" lon="11.575467419614785"><ele>10.333333333333334</ele><time>2026-04-04T12:17:05Z</time></trkpt><trkpt lat="44.75235178022445" lon="11.575585665308726"><ele>10.0</ele><time>2026-04-04T12:17:06Z</time></trkpt><trkpt lat="44.752161408229426" lon="11.575705962364772"><ele>10.0</ele><time>2026-04-04T12:17:07Z</time></trkpt><trkpt lat="44.75198144105244" lon="11.57581932837356"><ele>10.0</ele><time>2026-04-04T12:17:08Z</time></trkpt><trkpt lat="44.75180698998239" lon="11.575921904620069"><ele>10.0</ele><time>2026-04-04T12:17:09Z</time></trkpt><trkpt lat="44.75163126029344" lon="11.57601122956323"><ele>10.0</ele><time>2026-04-04T12:17:10Z</time></trkpt><trkpt lat="44.75144932207439" lon="11.5760757290977"><ele>10.0</ele><time>2026-04-04T12:17:11Z</time></trkpt><trkpt lat="44.75126115033839" lon="11.576111179529024"><ele>10.0</ele><time>2026-04-04T12:17:12Z</time></trkpt><trkpt lat="44.751068589374185" lon="11.576111286270885"><ele>10.333333333333334</ele><time>2026-04-04T12:17:13Z</time></trkpt><trkpt lat="44.750875221574944" lon="11.576077828146598"><ele>10.666666666666666</ele><time>2026-04-04T12:17:14Z</time></trkpt><trkpt lat="44.750681151188196" lon="11.576015463086812"><ele>11.0</ele><time>2026-04-04T12:17:15Z</time></trkpt><trkpt lat="44.750485873756766" lon="11.575927482563642"><ele>11.0</ele><time>2026-04-04T12:17:16Z</time></trkpt><trkpt lat="44.750289759653995" lon="11.575835312308941"><ele>11.0</ele><time>2026-04-04T12:17:17Z</time></trkpt><trkpt lat="44.75009177200006" lon="11.57573507224245"><ele>11.0</ele><time>2026-04-04T12:17:18Z</time></trkpt><trkpt lat="44.749887350839565" lon="11.575640266558011"><ele>10.666666666666666</ele><time>2026-04-04T12:17:19Z</time></trkpt><trkpt lat="44.749680997004624" lon="11.575552606647106"><ele>10.333333333333334</ele><time>2026-04-04T12:17:20Z</time></trkpt><trkpt lat="44.7494733139145" lon="11.575466817901468"><ele>10.0</ele><time>2026-04-04T12:17:21Z</time></trkpt><trkpt lat="44.74926401403921" lon="11.575379766588387"><ele>9.666666666666668</ele><time>2026-04-04T12:17:22Z</time></trkpt><trkpt lat="44.74905561531077" lon="11.575289737106583"><ele>9.333333333333334</ele><time>2026-04-04T12:17:23Z</time></trkpt><trkpt lat="44.74885616249797" lon="11.575202302089076"><ele>9.0</ele><time>2026-04-04T12:17:24Z</time></trkpt><trkpt lat="44.74866007537666" lon="11.575111806997102"><ele>9.333333333333334</ele><time>2026-04-04T12:17:25Z</time></trkpt><trkpt lat="44.74846668491687" lon="11.575021964658768"><ele>9.666666666666668</ele><time>2026-04-04T12:17:26Z</time></trkpt><trkpt lat="44.74827795479431" lon="11.574928691858625"><ele>10.0</ele><time>2026-04-04T12:17:27Z</time></trkpt><trkpt lat="44.74809115819123" lon="11.574832454421438"><ele>10.0</ele><time>2026-04-04T12:17:28Z</time></trkpt><trkpt lat="44.747910310374145" lon="11.574729146905847"><ele>10.0</ele><time>2026-04-04T12:17:29Z</time></trkpt><trkpt lat="44.74774540164034" lon="11.574627507610723"><ele>10.0</ele><time>2026-04-04T12:17:30Z</time></trkpt><trkpt lat="44.74759222387825" lon="11.574529154865928"><ele>9.666666666666668</ele><time>2026-04-04T12:17:30.999Z</time></trkpt><trkpt lat="44.74744926165707" lon="11.574425876160738"><ele>9.333333333333334</ele><time>2026-04-04T12:17:31.999Z</time></trkpt><trkpt lat="44.74730707789456" lon="11.574307995087374"><ele>9.0</ele><time>2026-04-04T12:17:32.999Z</time></trkpt><trkpt lat="44.747161493935174" lon="11.574178787186822"><ele>9.0</ele><time>2026-04-04T12:17:33.999Z</time></trkpt><trkpt lat="44.747007026983034" lon="11.574055986930436"><ele>9.0</ele><time>2026-04-04T12:17:34.999Z</time></trkpt><trkpt lat="44.746844432859284" lon="11.573946105289584"><ele>9.0</ele><time>2026-04-04T12:17:35.999Z</time></trkpt><trkpt lat="44.7466760374606" lon="11.57385536943059"><ele>9.0</ele><time>2026-04-04T12:17:36.999Z</time></trkpt><trkpt lat="44.746502119571595" lon="11.573772099543065"><ele>9.0</ele><time>2026-04-04T12:17:37.999Z</time></trkpt><trkpt lat="44.746327037261494" lon="11.573693240803385"><ele>9.0</ele><time>2026-04-04T12:17:38.999Z</time></trkpt><trkpt lat="44.74614810815599" lon="11.57362583962269"><ele>9.0</ele><time>2026-04-04T12:17:39.999Z</time></trkpt><trkpt lat="44.74596563941529" lon="11.573569296503132"><ele>9.0</ele><time>2026-04-04T12:17:40.999Z</time></trkpt><trkpt lat="44.74578670360319" lon="11.573534074801518"><ele>9.0</ele><time>2026-04-04T12:17:41.999Z</time></trkpt><trkpt lat="44.7456120521368" lon="11.57350062579868"><ele>9.0</ele><time>2026-04-04T12:17:42.999Z</time></trkpt><trkpt lat="44.74544273713978" lon="11.573475844318159"><ele>9.0</ele><time>2026-04-04T12:17:43.999Z</time></trkpt><trkpt lat="44.74527726123004" lon="11.57345243900168"><ele>9.0</ele><time>2026-04-04T12:17:44.999Z</time></trkpt><trkpt lat="44.74511692762252" lon="11.573431923253386"><ele>9.333333333333334</ele><time>2026-04-04T12:17:45.999Z</time></trkpt><trkpt lat="44.7449607836572" lon="11.573414523245944"><ele>9.666666666666668</ele><time>2026-04-04T12:17:46.999Z</time></trkpt><trkpt lat="44.74480599981116" lon="11.57339833792587"><ele>10.0</ele><time>2026-04-04T12:17:47.999Z</time></trkpt><trkpt lat="44.74465047336441" lon="11.573384777368368"><ele>10.0</ele><time>2026-04-04T12:17:48.999Z</time></trkpt><trkpt lat="44.744495492628275" lon="11.57336123909255"><ele>10.0</ele><time>2026-04-04T12:17:49.999Z</time></trkpt><trkpt lat="44.74434255092901" lon="11.573317612107337"><ele>10.0</ele><time>2026-04-04T12:17:50.999Z</time></trkpt><trkpt lat="44.74419566811382" lon="11.57325164488832"><ele>9.666666666666668</ele><time>2026-04-04T12:17:51.999Z</time></trkpt><trkpt lat="44.744052438395606" lon="11.573162587540896"><ele>9.333333333333334</ele><time>2026-04-04T12:17:52.999Z</time></trkpt><trkpt lat="44.743916547544366" lon="11.57304800785097"><ele>9.0</ele><time>2026-04-04T12:17:53.999Z</time></trkpt><trkpt lat="44.74378679154824" lon="11.572912554287512"><ele>9.0</ele><time>2026-04-04T12:17:54.999Z</time></trkpt><trkpt lat="44.743665875670544" lon="11.572759838066924"><ele>9.0</ele><time>2026-04-04T12:17:55.999Z</time></trkpt><trkpt lat="44.743546624511715" lon="11.572600267210321"><ele>9.0</ele><time>2026-04-04T12:17:56.999Z</time></trkpt><trkpt lat="44.74343261535768" lon="11.57243996717872"><ele>9.0</ele><time>2026-04-04T12:17:57.999Z</time></trkpt><trkpt lat="44.74331800157021" lon="11.572279608770264"><ele>9.0</ele><time>2026-04-04T12:17:58.999Z</time></trkpt><trkpt lat="44.74319849189232" lon="11.572121793150897"><ele>9.0</ele><time>2026-04-04T12:17:59.999Z</time></trkpt><trkpt lat="44.743091638687815" lon="11.57196512462048"><ele>8.666666666666666</ele><time>2026-04-04T12:18:00.999Z</time></trkpt><trkpt lat="44.74298210081586" lon="11.571803384124628"><ele>8.333333333333332</ele><time>2026-04-04T12:18:01.999Z</time></trkpt><trkpt lat="44.742871444482496" lon="11.571645122669862"><ele>8.0</ele><time>2026-04-04T12:18:02.999Z</time></trkpt><trkpt lat="44.742757914202606" lon="11.571488730845537"><ele>8.0</ele><time>2026-04-04T12:18:03.999Z</time></trkpt><trkpt lat="44.74264466083632" lon="11.571334386474236"><ele>8.0</ele><time>2026-04-04T12:18:04.999Z</time></trkpt><trkpt lat="44.742532513272295" lon="11.571176792757022"><ele>8.0</ele><time>2026-04-04T12:18:05.999Z</time></trkpt><trkpt lat="44.74242181571359" lon="11.571021060835722"><ele>8.666666666666666</ele><time>2026-04-04T12:18:06.999Z</time></trkpt><trkpt lat="44.74230984615214" lon="11.570868668645295"><ele>9.333333333333334</ele><time>2026-04-04T12:18:07.999Z</time></trkpt><trkpt lat="44.7421956163707" lon="11.570720871132288"><ele>10.0</ele><time>2026-04-04T12:18:08.999Z</time></trkpt><trkpt lat="44.74208541990844" lon="11.570569913732154"><ele>10.0</ele><time>2026-04-04T12:18:09.999Z</time></trkpt><trkpt lat="44.74197254202867" lon="11.57041944736576"><ele>10.0</ele><time>2026-04-04T12:18:10.999Z</time></trkpt><trkpt lat="44.74185811651282" lon="11.570268958857254"><ele>10.0</ele><time>2026-04-04T12:18:11.999Z</time></trkpt><trkpt lat="44.74174647098553" lon="11.570116271269178"><ele>9.333333333333334</ele><time>2026-04-04T12:18:12.999Z</time></trkpt><trkpt lat="44.74163864946649" lon="11.569959766226876"><ele>8.666666666666666</ele><time>2026-04-04T12:18:13.999Z</time></trkpt><trkpt lat="44.741527591966914" lon="11.569795201213035"><ele>8.0</ele><time>2026-04-04T12:18:14.999Z</time></trkpt><trkpt lat="44.74141617559561" lon="11.569627777096576"><ele>8.0</ele><time>2026-04-04T12:18:15.999Z</time></trkpt><trkpt lat="44.74130589004895" lon="11.569457873028139"><ele>8.0</ele><time>2026-04-04T12:18:16.999Z</time></trkpt><trkpt lat="44.74119323441523" lon="11.569287884893113"><ele>8.0</ele><time>2026-04-04T12:18:17.999Z</time></trkpt><trkpt lat="44.741077472952426" lon="11.569116347393075"><ele>8.333333333333332</ele><time>2026-04-04T12:18:18.999Z</time></trkpt><trkpt lat="44.74096205906306" lon="11.568939581726086"><ele>8.666666666666666</ele><time>2026-04-04T12:18:19.999Z</time></trkpt><trkpt lat="44.74084434039247" lon="11.568761667254522"><ele>9.0</ele><time>2026-04-04T12:18:20.999Z</time></trkpt><trkpt lat="44.74072473708823" lon="11.568580755445362"><ele>9.0</ele><time>2026-04-04T12:18:21.999Z</time></trkpt><trkpt lat="44.74060371847263" lon="11.568400020611207"><ele>9.0</ele><time>2026-04-04T12:18:22.999Z</time></trkpt><trkpt lat="44.7404838017397" lon="11.568220488001245"><ele>9.0</ele><time>2026-04-04T12:18:23.999Z</time></trkpt><trkpt lat="44.740366542339316" lon="11.568044398159124"><ele>9.0</ele><time>2026-04-04T12:18:24.999Z</time></trkpt><trkpt lat="44.74025232212413" lon="11.567872994237787"><ele>9.0</ele><time>2026-04-04T12:18:25.999Z</time></trkpt><trkpt lat="44.74013766204185" lon="11.567703689661084"><ele>9.0</ele><time>2026-04-04T12:18:26.999Z</time></trkpt><trkpt lat="44.7400249211763" lon="11.567532647870394"><ele>9.0</ele><time>2026-04-04T12:18:27.999Z</time></trkpt><trkpt lat="44.73991359701873" lon="11.56736730027326"><ele>9.0</ele><time>2026-04-04T12:18:28.999Z</time></trkpt><trkpt lat="44.73981059619775" lon="11.567214439712716"><ele>9.0</ele><time>2026-04-04T12:18:29.999Z</time></trkpt><trkpt lat="44.73971509831553" lon="11.567070602674058"><ele>8.75</ele><time>2026-04-04T12:18:30.999Z</time></trkpt><trkpt lat="44.73963846456778" lon="11.56691654632191"><ele>8.5</ele><time>2026-04-04T12:18:31.999Z</time></trkpt><trkpt lat="44.73955347761851" lon="11.566776821523788"><ele>8.25</ele><time>2026-04-04T12:18:33Z</time></trkpt><trkpt lat="44.73947625299387" lon="11.566631179808956"><ele>8.0</ele><time>2026-04-04T12:18:34Z</time></trkpt><trkpt lat="44.73941328936388" lon="11.566473275457001"><ele>8.0</ele><time>2026-04-04T12:18:35Z</time></trkpt><trkpt lat="44.73936564822465" lon="11.566301905329746"><ele>8.0</ele><time>2026-04-04T12:18:36Z</time></trkpt><trkpt lat="44.73932875756139" lon="11.56613859334514"><ele>8.0</ele><time>2026-04-04T12:18:37Z</time></trkpt><trkpt lat="44.73929488690298" lon="11.565981015134017"><ele>8.0</ele><time>2026-04-04T12:18:38Z</time></trkpt><trkpt lat="44.73926262823607" lon="11.565820502208833"><ele>8.200000000000001</ele><time>2026-04-04T12:18:39Z</time></trkpt><trkpt lat="44.73923242945734" lon="11.565670677526823"><ele>8.4</ele><time>2026-04-04T12:18:40Z</time></trkpt><trkpt lat="44.73920451638803" lon="11.565532453032734"><ele>8.600000000000001</ele><time>2026-04-04T12:18:41Z</time></trkpt><trkpt lat="44.73917887323603" lon="11.565405469231434"><ele>8.8</ele><time>2026-04-04T12:18:42Z</time></trkpt><trkpt lat="44.73915730584084" lon="11.565299789310869"><ele>9.0</ele><time>2026-04-04T12:18:43Z</time></trkpt><trkpt lat="44.739139207547886" lon="11.565211574957722"><ele>9.2</ele><time>2026-04-04T12:18:44Z</time></trkpt><trkpt lat="44.739114740681586" lon="11.565102781809768"><ele>9.4</ele><time>2026-04-04T12:18:46Z</time></trkpt><trkpt lat="44.73909191290054" lon="11.564997117895087"><ele>9.6</ele><time>2026-04-04T12:18:52Z</time></trkpt><trkpt lat="44.73890263676914" lon="11.565072285857763"><ele>9.8</ele><time>2026-04-04T12:18:54Z</time></trkpt><trkpt lat="44.73884995089715" lon="11.56514836942152"><ele>10.0</ele><time>2026-04-04T12:18:55Z</time></trkpt><trkpt lat="44.73879803091578" lon="11.565246239344653"><ele>10.0</ele><time>2026-04-04T12:18:56Z</time></trkpt><trkpt lat="44.738738950537495" lon="11.56535479137181"><ele>10.0</ele><time>2026-04-04T12:18:57Z</time></trkpt><trkpt lat="44.738658399828246" lon="11.565465415906191"><ele>10.0</ele><time>2026-04-04T12:18:58Z</time></trkpt><trkpt lat="44.738560724477836" lon="11.565575578318773"><ele>10.0</ele><time>2026-04-04T12:18:59Z</time></trkpt><trkpt lat="44.73845505959496" lon="11.565701231602901"><ele>10.0</ele><time>2026-04-04T12:19:00Z</time></trkpt><trkpt lat="44.738342794184256" lon="11.565822000972169"><ele>10.0</ele><time>2026-04-04T12:19:01Z</time></trkpt><trkpt lat="44.738224364708735" lon="11.565947150907585"><ele>10.0</ele><time>2026-04-04T12:19:02Z</time></trkpt><trkpt lat="44.73809916248167" lon="11.566081862865715"><ele>10.0</ele><time>2026-04-04T12:19:03Z</time></trkpt><trkpt lat="44.737960716224336" lon="11.566226237492925"><ele>10.0</ele><time>2026-04-04T12:19:04Z</time></trkpt><trkpt lat="44.73781530753159" lon="11.566376186365305"><ele>10.0</ele><time>2026-04-04T12:19:05Z</time></trkpt><trkpt lat="44.73766818485495" lon="11.566530780603793"><ele>10.0</ele><time>2026-04-04T12:19:06Z</time></trkpt><trkpt lat="44.73752158228387" lon="11.566694206535898"><ele>10.0</ele><time>2026-04-04T12:19:07Z</time></trkpt><trkpt lat="44.737376143771705" lon="11.566855390625312"><ele>10.0</ele><time>2026-04-04T12:19:08Z</time></trkpt><trkpt lat="44.73723685163068" lon="11.567005338465348"><ele>10.0</ele><time>2026-04-04T12:19:09Z</time></trkpt><trkpt lat="44.73712085235614" lon="11.567136310932497"><ele>10.25</ele><time>2026-04-04T12:19:10Z</time></trkpt><trkpt lat="44.73700726752291" lon="11.56726556709774"><ele>10.5</ele><time>2026-04-04T12:19:11Z</time></trkpt><trkpt lat="44.736892357949806" lon="11.567397126963781"><ele>10.75</ele><time>2026-04-04T12:19:12Z</time></trkpt><trkpt lat="44.736777970950186" lon="11.567528277368025"><ele>11.0</ele><time>2026-04-04T12:19:13Z</time></trkpt><trkpt lat="44.736657974073765" lon="11.567664926820418"><ele>11.0</ele><time>2026-04-04T12:19:14Z</time></trkpt><trkpt lat="44.73653627543199" lon="11.567794699102238"><ele>11.0</ele><time>2026-04-04T12:19:15Z</time></trkpt><trkpt lat="44.73641541508963" lon="11.567927398658055"><ele>11.0</ele><time>2026-04-04T12:19:16Z</time></trkpt><trkpt lat="44.736296446712636" lon="11.568062723744847"><ele>11.0</ele><time>2026-04-04T12:19:17Z</time></trkpt><trkpt lat="44.736170310918865" lon="11.56819622862791"><ele>11.0</ele><time>2026-04-04T12:19:18Z</time></trkpt><trkpt lat="44.73604583588782" lon="11.568333251471525"><ele>11.0</ele><time>2026-04-04T12:19:19Z</time></trkpt><trkpt lat="44.735909657530755" lon="11.56847927698402"><ele>11.0</ele><time>2026-04-04T12:19:20Z</time></trkpt><trkpt lat="44.735762453891084" lon="11.568637382054206"><ele>11.0</ele><time>2026-04-04T12:19:21Z</time></trkpt><trkpt lat="44.73560416068238" lon="11.568804806794507"><ele>11.0</ele><time>2026-04-04T12:19:22Z</time></trkpt><trkpt lat="44.73544701819277" lon="11.568974268291496"><ele>10.333333333333332</ele><time>2026-04-04T12:19:23Z</time></trkpt><trkpt lat="44.73528242650267" lon="11.569147654359764"><ele>9.666666666666666</ele><time>2026-04-04T12:19:24Z</time></trkpt><trkpt lat="44.73510707506209" lon="11.569327023106517"><ele>9.0</ele><time>2026-04-04T12:19:25Z</time></trkpt><trkpt lat="44.734935505814484" lon="11.569507823550966"><ele>9.333333333333334</ele><time>2026-04-04T12:19:26Z</time></trkpt><trkpt lat="44.734768329046524" lon="11.5696840792674"><ele>9.666666666666668</ele><time>2026-04-04T12:19:27Z</time></trkpt><trkpt lat="44.7345929700308" lon="11.569867932563394"><ele>10.0</ele><time>2026-04-04T12:19:28Z</time></trkpt><trkpt lat="44.73442378354561" lon="11.570051260535976"><ele>10.333333333333334</ele><time>2026-04-04T12:19:29Z</time></trkpt><trkpt lat="44.73424948255903" lon="11.570242201279493"><ele>10.666666666666666</ele><time>2026-04-04T12:19:30Z</time></trkpt><trkpt lat="44.734075758477395" lon="11.570426759706997"><ele>11.0</ele><time>2026-04-04T12:19:31Z</time></trkpt><trkpt lat="44.73389915459638" lon="11.57061401312973"><ele>11.0</ele><time>2026-04-04T12:19:32Z</time></trkpt><trkpt lat="44.73372431238132" lon="11.570797531444146"><ele>11.0</ele><time>2026-04-04T12:19:33Z</time></trkpt><trkpt lat="44.73356022681518" lon="11.570972613296748"><ele>11.0</ele><time>2026-04-04T12:19:34Z</time></trkpt><trkpt lat="44.733397793763146" lon="11.571143719587537"><ele>10.333333333333332</ele><time>2026-04-04T12:19:35Z</time></trkpt><trkpt lat="44.73323180977521" lon="11.57132189591436"><ele>9.666666666666666</ele><time>2026-04-04T12:19:36Z</time></trkpt><trkpt lat="44.73306484319611" lon="11.571496044326397"><ele>9.0</ele><time>2026-04-04T12:19:36.999Z</time></trkpt><trkpt lat="44.73289571900588" lon="11.571674679292165"><ele>9.0</ele><time>2026-04-04T12:19:37.999Z</time></trkpt><trkpt lat="44.73272933625399" lon="11.571859648124232"><ele>9.0</ele><time>2026-04-04T12:19:38.999Z</time></trkpt><trkpt lat="44.73255805733954" lon="11.572050575784575"><ele>9.0</ele><time>2026-04-04T12:19:39.999Z</time></trkpt><trkpt lat="44.73238959092663" lon="11.572241047513774"><ele>9.0</ele><time>2026-04-04T12:19:40.999Z</time></trkpt><trkpt lat="44.732219618446315" lon="11.572437661623448"><ele>9.0</ele><time>2026-04-04T12:19:41.999Z</time></trkpt><trkpt lat="44.73204987189499" lon="11.572635480639322"><ele>9.0</ele><time>2026-04-04T12:19:42.999Z</time></trkpt><trkpt lat="44.73187559882468" lon="11.572825157551282"><ele>8.5</ele><time>2026-04-04T12:19:43.999Z</time></trkpt><trkpt lat="44.731701898353585" lon="11.573015906027715"><ele>8.0</ele><time>2026-04-04T12:19:44.999Z</time></trkpt><trkpt lat="44.731510811719936" lon="11.573200942745006"><ele>8.0</ele><time>2026-04-04T12:19:45.999Z</time></trkpt><trkpt lat="44.73132376791805" lon="11.573378837581258"><ele>8.0</ele><time>2026-04-04T12:19:46.999Z</time></trkpt><trkpt lat="44.73112995516183" lon="11.573546262871401"><ele>8.0</ele><time>2026-04-04T12:19:47.999Z</time></trkpt><trkpt lat="44.73093099746339" lon="11.5737119020766"><ele>8.0</ele><time>2026-04-04T12:19:48.999Z</time></trkpt><trkpt lat="44.730734889837734" lon="11.573880722061737"><ele>8.0</ele><time>2026-04-04T12:19:49.999Z</time></trkpt><trkpt lat="44.7305435521465" lon="11.574049286993292"><ele>8.0</ele><time>2026-04-04T12:19:50.999Z</time></trkpt><trkpt lat="44.730356604204225" lon="11.574224830989683"><ele>8.0</ele><time>2026-04-04T12:19:51.999Z</time></trkpt><trkpt lat="44.73018322070935" lon="11.574410681884897"><ele>8.0</ele><time>2026-04-04T12:19:52.999Z</time></trkpt><trkpt lat="44.73000976837945" lon="11.574602125978315"><ele>8.0</ele><time>2026-04-04T12:19:53.999Z</time></trkpt><trkpt lat="44.72984244113507" lon="11.574801024330073"><ele>8.0</ele><time>2026-04-04T12:19:54.999Z</time></trkpt><trkpt lat="44.72966814675429" lon="11.574999703153303"><ele>8.0</ele><time>2026-04-04T12:19:55.999Z</time></trkpt><trkpt lat="44.729492139549116" lon="11.575202414620566"><ele>7.5</ele><time>2026-04-04T12:19:56.999Z</time></trkpt><trkpt lat="44.72930786980368" lon="11.575407076064186"><ele>7.0</ele><time>2026-04-04T12:19:57.999Z</time></trkpt><trkpt lat="44.72912363184241" lon="11.575613944709522"><ele>7.0</ele><time>2026-04-04T12:19:58.999Z</time></trkpt><trkpt lat="44.72892857563206" lon="11.575825949175071"><ele>7.0</ele><time>2026-04-04T12:19:59.999Z</time></trkpt><trkpt lat="44.728725850357804" lon="11.57603325117539"><ele>8.0</ele><time>2026-04-04T12:20:00.999Z</time></trkpt><trkpt lat="44.728518921190854" lon="11.576230204209454"><ele>9.0</ele><time>2026-04-04T12:20:01.999Z</time></trkpt><trkpt lat="44.728299634128554" lon="11.57641528310143"><ele>9.0</ele><time>2026-04-04T12:20:02.999Z</time></trkpt><trkpt lat="44.728080675990086" lon="11.576593333713323"><ele>9.0</ele><time>2026-04-04T12:20:03.999Z</time></trkpt><trkpt lat="44.72785327904965" lon="11.576759431379623"><ele>9.0</ele><time>2026-04-04T12:20:04.999Z</time></trkpt><trkpt lat="44.72762890636226" lon="11.576921330674807"><ele>9.0</ele><time>2026-04-04T12:20:05.999Z</time></trkpt><trkpt lat="44.72740799357466" lon="11.577084150434386"><ele>9.0</ele><time>2026-04-04T12:20:06.999Z</time></trkpt><trkpt lat="44.727190553535536" lon="11.577264472338394"><ele>9.0</ele><time>2026-04-04T12:20:07.999Z</time></trkpt><trkpt lat="44.726978024969384" lon="11.577456028787179"><ele>8.5</ele><time>2026-04-04T12:20:08.999Z</time></trkpt><trkpt lat="44.72676875049371" lon="11.577655908036336"><ele>8.0</ele><time>2026-04-04T12:20:09.999Z</time></trkpt><trkpt lat="44.72654554051268" lon="11.577833665209306"><ele>8.5</ele><time>2026-04-04T12:20:10.999Z</time></trkpt><trkpt lat="44.72635034628913" lon="11.578071927878195"><ele>9.0</ele><time>2026-04-04T12:20:11.999Z</time></trkpt><trkpt lat="44.7261460052543" lon="11.57828136438473"><ele>9.0</ele><time>2026-04-04T12:20:12.999Z</time></trkpt><trkpt lat="44.725939405999924" lon="11.57849344611376"><ele>9.0</ele><time>2026-04-04T12:20:13.999Z</time></trkpt><trkpt lat="44.72573274807188" lon="11.57870171914994"><ele>9.0</ele><time>2026-04-04T12:20:14.999Z</time></trkpt><trkpt lat="44.72553199086485" lon="11.578912966403191"><ele>9.0</ele><time>2026-04-04T12:20:15.999Z</time></trkpt><trkpt lat="44.72532617369905" lon="11.579119969401296"><ele>9.0</ele><time>2026-04-04T12:20:16.999Z</time></trkpt><trkpt lat="44.725121128506046" lon="11.57932441265568"><ele>9.0</ele><time>2026-04-04T12:20:17.999Z</time></trkpt><trkpt lat="44.724917805603475" lon="11.579534920925425"><ele>9.0</ele><time>2026-04-04T12:20:18.999Z</time></trkpt><trkpt lat="44.72471709333346" lon="11.579742688276598"><ele>9.0</ele><time>2026-04-04T12:20:19.999Z</time></trkpt><trkpt lat="44.72451633411533" lon="11.57994765451365"><ele>8.0</ele><time>2026-04-04T12:20:20.999Z</time></trkpt><trkpt lat="44.724315382436934" lon="11.580151394725581"><ele>7.0</ele><time>2026-04-04T12:20:21.999Z</time></trkpt><trkpt lat="44.72411784278593" lon="11.580355248173245"><ele>7.0</ele><time>2026-04-04T12:20:22.999Z</time></trkpt><trkpt lat="44.72392014518112" lon="11.580560251875484"><ele>7.0</ele><time>2026-04-04T12:20:23.999Z</time></trkpt><trkpt lat="44.723714183908726" lon="11.580765197979101"><ele>7.0</ele><time>2026-04-04T12:20:24.999Z</time></trkpt><trkpt lat="44.72351061354712" lon="11.58096970716396"><ele>7.0</ele><time>2026-04-04T12:20:25.999Z</time></trkpt><trkpt lat="44.72330732678723" lon="11.581175122215072"><ele>7.0</ele><time>2026-04-04T12:20:26.999Z</time></trkpt><trkpt lat="44.723106131488834" lon="11.581379417071176"><ele>7.0</ele><time>2026-04-04T12:20:27.999Z</time></trkpt><trkpt lat="44.72290397658902" lon="11.581585019991405"><ele>7.5</ele><time>2026-04-04T12:20:28.999Z</time></trkpt><trkpt lat="44.722702736424196" lon="11.581789112100092"><ele>8.0</ele><time>2026-04-04T12:20:29.999Z</time></trkpt><trkpt lat="44.722500154258334" lon="11.581994574616225"><ele>8.0</ele><time>2026-04-04T12:20:30.999Z</time></trkpt><trkpt lat="44.72229853323522" lon="11.582202500615196"><ele>8.0</ele><time>2026-04-04T12:20:31.999Z</time></trkpt><trkpt lat="44.72209774941185" lon="11.582405961115017"><ele>7.5</ele><time>2026-04-04T12:20:32.999Z</time></trkpt><trkpt lat="44.72189593726077" lon="11.58260743617206"><ele>7.0</ele><time>2026-04-04T12:20:33.999Z</time></trkpt><trkpt lat="44.721693222409286" lon="11.582813890829616"><ele>7.5</ele><time>2026-04-04T12:20:34.999Z</time></trkpt><trkpt lat="44.72149559330777" lon="11.58301712486943"><ele>8.0</ele><time>2026-04-04T12:20:35.999Z</time></trkpt><trkpt lat="44.72129805500597" lon="11.583218436950554"><ele>8.0</ele><time>2026-04-04T12:20:36.999Z</time></trkpt><trkpt lat="44.72109856405144" lon="11.583417977429393"><ele>8.0</ele><time>2026-04-04T12:20:37.999Z</time></trkpt><trkpt lat="44.720897454760845" lon="11.583621414813598"><ele>7.5</ele><time>2026-04-04T12:20:39Z</time></trkpt><trkpt lat="44.72069732093006" lon="11.583825316122898"><ele>7.0</ele><time>2026-04-04T12:20:40Z</time></trkpt><trkpt lat="44.720498205358254" lon="11.584030089898533"><ele>7.0</ele><time>2026-04-04T12:20:41Z</time></trkpt><trkpt lat="44.72029716894684" lon="11.58423730908158"><ele>7.0</ele><time>2026-04-04T12:20:42Z</time></trkpt><trkpt lat="44.72009782028679" lon="11.584442887095122"><ele>7.0</ele><time>2026-04-04T12:20:43Z</time></trkpt><trkpt lat="44.71989772445814" lon="11.58464811305103"><ele>7.0</ele><time>2026-04-04T12:20:44Z</time></trkpt><trkpt lat="44.719696959683574" lon="11.584853546014244"><ele>7.0</ele><time>2026-04-04T12:20:45Z</time></trkpt><trkpt lat="44.7194937279386" lon="11.585059317588959"><ele>7.0</ele><time>2026-04-04T12:20:46Z</time></trkpt><trkpt lat="44.71929404412067" lon="11.58526426499121"><ele>6.5</ele><time>2026-04-04T12:20:47Z</time></trkpt><trkpt lat="44.71909417830663" lon="11.585467541039865"><ele>6.0</ele><time>2026-04-04T12:20:48Z</time></trkpt><trkpt lat="44.718893154107725" lon="11.5856713148876"><ele>6.0</ele><time>2026-04-04T12:20:49Z</time></trkpt><trkpt lat="44.718691102228796" lon="11.585878074077693"><ele>6.0</ele><time>2026-04-04T12:20:50Z</time></trkpt><trkpt lat="44.71848405404316" lon="11.58608998523439"><ele>6.5</ele><time>2026-04-04T12:20:51Z</time></trkpt><trkpt lat="44.718276267674774" lon="11.586301632761446"><ele>7.0</ele><time>2026-04-04T12:20:52Z</time></trkpt><trkpt lat="44.718072224279354" lon="11.586511645025196"><ele>7.0</ele><time>2026-04-04T12:20:53Z</time></trkpt><trkpt lat="44.7178679716671" lon="11.586721518291647"><ele>7.0</ele><time>2026-04-04T12:20:54Z</time></trkpt><trkpt lat="44.717661956802694" lon="11.586930281254672"><ele>7.0</ele><time>2026-04-04T12:20:55Z</time></trkpt><trkpt lat="44.71745695542526" lon="11.58714005386336"><ele>7.0</ele><time>2026-04-04T12:20:56Z</time></trkpt><trkpt lat="44.71725016090097" lon="11.587354967503625"><ele>7.0</ele><time>2026-04-04T12:20:57Z</time></trkpt><trkpt lat="44.71703812066963" lon="11.587571326246767"><ele>7.0</ele><time>2026-04-04T12:20:58Z</time></trkpt><trkpt lat="44.7168222695904" lon="11.587790243662377"><ele>6.5</ele><time>2026-04-04T12:20:59Z</time></trkpt><trkpt lat="44.71661346048491" lon="11.588003115178136"><ele>6.0</ele><time>2026-04-04T12:21:00Z</time></trkpt><trkpt lat="44.71640171232549" lon="11.58821958863138"><ele>6.0</ele><time>2026-04-04T12:21:01Z</time></trkpt><trkpt lat="44.71618939475291" lon="11.588434705620626"><ele>6.0</ele><time>2026-04-04T12:21:02Z</time></trkpt><trkpt lat="44.71597534968528" lon="11.588653632666768"><ele>6.5</ele><time>2026-04-04T12:21:03Z</time></trkpt><trkpt lat="44.715764313336315" lon="11.588870341622815"><ele>7.0</ele><time>2026-04-04T12:21:04Z</time></trkpt><trkpt lat="44.71555302729942" lon="11.589083490246495"><ele>7.0</ele><time>2026-04-04T12:21:05Z</time></trkpt><trkpt lat="44.71534477975419" lon="11.589296087719502"><ele>7.0</ele><time>2026-04-04T12:21:06Z</time></trkpt><trkpt lat="44.715133691981485" lon="11.589510352500042"><ele>6.0</ele><time>2026-04-04T12:21:07Z</time></trkpt><trkpt lat="44.714923085528014" lon="11.589721724938194"><ele>5.0</ele><time>2026-04-04T12:21:08Z</time></trkpt><trkpt lat="44.71471185461252" lon="11.589934782094792"><ele>5.0</ele><time>2026-04-04T12:21:09Z</time></trkpt><trkpt lat="44.71450123059208" lon="11.590151222568371"><ele>5.0</ele><time>2026-04-04T12:21:10Z</time></trkpt><trkpt lat="44.71429197066651" lon="11.590363412836155"><ele>5.0</ele><time>2026-04-04T12:21:11Z</time></trkpt><trkpt lat="44.71408310989598" lon="11.590575136191793"><ele>5.0</ele><time>2026-04-04T12:21:12Z</time></trkpt><trkpt lat="44.71387524585119" lon="11.590787895094227"><ele>5.0</ele><time>2026-04-04T12:21:13Z</time></trkpt><trkpt lat="44.71368283904966" lon="11.590991225177603"><ele>5.0</ele><time>2026-04-04T12:21:14Z</time></trkpt><trkpt lat="44.71350079602654" lon="11.591174930616017"><ele>5.5</ele><time>2026-04-04T12:21:15Z</time></trkpt><trkpt lat="44.713319034893516" lon="11.591358777318039"><ele>6.0</ele><time>2026-04-04T12:21:16Z</time></trkpt><trkpt lat="44.71313063490927" lon="11.591555416509765"><ele>6.0</ele><time>2026-04-04T12:21:17Z</time></trkpt><trkpt lat="44.71293806192067" lon="11.591755660228841"><ele>6.0</ele><time>2026-04-04T12:21:18Z</time></trkpt><trkpt lat="44.712736607063206" lon="11.591961355336707"><ele>5.5</ele><time>2026-04-04T12:21:19Z</time></trkpt><trkpt lat="44.71253158560304" lon="11.592167582121034"><ele>5.0</ele><time>2026-04-04T12:21:20Z</time></trkpt><trkpt lat="44.712326217074605" lon="11.592372389349396"><ele>5.0</ele><time>2026-04-04T12:21:21Z</time></trkpt><trkpt lat="44.71212201797297" lon="11.59257586661746"><ele>5.0</ele><time>2026-04-04T12:21:22Z</time></trkpt><trkpt lat="44.711919691425535" lon="11.592780670715355"><ele>5.0</ele><time>2026-04-04T12:21:23Z</time></trkpt><trkpt lat="44.711723409326154" lon="11.592979540079071"><ele>5.0</ele><time>2026-04-04T12:21:24Z</time></trkpt><trkpt lat="44.7115297860274" lon="11.59317480667446"><ele>5.0</ele><time>2026-04-04T12:21:25Z</time></trkpt><trkpt lat="44.711338082256944" lon="11.593371529549342"><ele>5.0</ele><time>2026-04-04T12:21:26Z</time></trkpt><trkpt lat="44.71114859901974" lon="11.59356387736152"><ele>5.5</ele><time>2026-04-04T12:21:27Z</time></trkpt><trkpt lat="44.71095924203022" lon="11.593759568878877"><ele>6.0</ele><time>2026-04-04T12:21:28Z</time></trkpt><trkpt lat="44.710764536933056" lon="11.59395967053304"><ele>6.0</ele><time>2026-04-04T12:21:29Z</time></trkpt><trkpt lat="44.71057047892896" lon="11.594157248328642"><ele>6.0</ele><time>2026-04-04T12:21:30Z</time></trkpt><trkpt lat="44.710373233791636" lon="11.594358699750018"><ele>6.0</ele><time>2026-04-04T12:21:31Z</time></trkpt><trkpt lat="44.71017435614828" lon="11.594558432750762"><ele>6.0</ele><time>2026-04-04T12:21:32Z</time></trkpt><trkpt lat="44.709975307419874" lon="11.594758547194152"><ele>6.0</ele><time>2026-04-04T12:21:33Z</time></trkpt><trkpt lat="44.70977396311495" lon="11.594962136617724"><ele>6.0</ele><time>2026-04-04T12:21:34Z</time></trkpt><trkpt lat="44.70957426569438" lon="11.59516053560561"><ele>5.5</ele><time>2026-04-04T12:21:35Z</time></trkpt><trkpt lat="44.709377932522536" lon="11.5953646460617"><ele>5.0</ele><time>2026-04-04T12:21:36Z</time></trkpt><trkpt lat="44.70918201121656" lon="11.595567437043075"><ele>5.0</ele><time>2026-04-04T12:21:37Z</time></trkpt><trkpt lat="44.70898578398005" lon="11.595768663329407"><ele>5.0</ele><time>2026-04-04T12:21:38Z</time></trkpt><trkpt lat="44.70878891418651" lon="11.59597135000315"><ele>5.0</ele><time>2026-04-04T12:21:39Z</time></trkpt><trkpt lat="44.708591489760025" lon="11.596168032251283"><ele>5.0</ele><time>2026-04-04T12:21:40Z</time></trkpt><trkpt lat="44.7084026154161" lon="11.596358013938977"><ele>5.666666666666667</ele><time>2026-04-04T12:21:41Z</time></trkpt><trkpt lat="44.70823054504576" lon="11.596533554585875"><ele>6.333333333333334</ele><time>2026-04-04T12:21:41.999Z</time></trkpt><trkpt lat="44.70806733209362" lon="11.596700171327573"><ele>7.0</ele><time>2026-04-04T12:21:42.999Z</time></trkpt><trkpt lat="44.70791721967524" lon="11.596857579318494"><ele>7.0</ele><time>2026-04-04T12:21:43.999Z</time></trkpt><trkpt lat="44.70777276283199" lon="11.597002916656566"><ele>7.0</ele><time>2026-04-04T12:21:44.999Z</time></trkpt><trkpt lat="44.70763701818765" lon="11.597145602677779"><ele>7.0</ele><time>2026-04-04T12:21:45.999Z</time></trkpt><trkpt lat="44.707499741868894" lon="11.597290326207165"><ele>7.0</ele><time>2026-04-04T12:21:46.999Z</time></trkpt><trkpt lat="44.70734958196468" lon="11.597443889898791"><ele>7.0</ele><time>2026-04-04T12:21:47.999Z</time></trkpt><trkpt lat="44.70719647105807" lon="11.597598625254438"><ele>7.0</ele><time>2026-04-04T12:21:48.999Z</time></trkpt><trkpt lat="44.707038737766574" lon="11.597759920170107"><ele>6.666666666666667</ele><time>2026-04-04T12:21:49.999Z</time></trkpt><trkpt lat="44.70687337602406" lon="11.597929006426643"><ele>6.333333333333334</ele><time>2026-04-04T12:21:50.999Z</time></trkpt><trkpt lat="44.706703013082574" lon="11.598099231708499"><ele>6.0</ele><time>2026-04-04T12:21:51.999Z</time></trkpt><trkpt lat="44.70653172141341" lon="11.598275438708235"><ele>6.0</ele><time>2026-04-04T12:21:52.999Z</time></trkpt><trkpt lat="44.706356031569854" lon="11.59845618706323"><ele>6.0</ele><time>2026-04-04T12:21:53.999Z</time></trkpt><trkpt lat="44.70617866633654" lon="11.598638003347535"><ele>6.0</ele><time>2026-04-04T12:21:54.999Z</time></trkpt><trkpt lat="44.70599399316774" lon="11.598826919388479"><ele>5.5</ele><time>2026-04-04T12:21:55.999Z</time></trkpt><trkpt lat="44.7058120862618" lon="11.599014735097139"><ele>5.0</ele><time>2026-04-04T12:21:56.999Z</time></trkpt><trkpt lat="44.7056311929073" lon="11.599200755664057"><ele>5.0</ele><time>2026-04-04T12:21:57.999Z</time></trkpt><trkpt lat="44.70544924673237" lon="11.599391306197129"><ele>5.0</ele><time>2026-04-04T12:21:58.999Z</time></trkpt><trkpt lat="44.70526725234174" lon="11.599581148294005"><ele>5.5</ele><time>2026-04-04T12:21:59.999Z</time></trkpt><trkpt lat="44.70507954249843" lon="11.599767842898228"><ele>6.0</ele><time>2026-04-04T12:22:00.999Z</time></trkpt><trkpt lat="44.70488866514306" lon="11.599957280916044"><ele>6.0</ele><time>2026-04-04T12:22:01.999Z</time></trkpt><trkpt lat="44.704698197553796" lon="11.600151508769024"><ele>6.0</ele><time>2026-04-04T12:22:02.999Z</time></trkpt><trkpt lat="44.70450839948856" lon="11.600345539580157"><ele>5.5</ele><time>2026-04-04T12:22:03.999Z</time></trkpt><trkpt lat="44.70431782302328" lon="11.60053944274157"><ele>5.0</ele><time>2026-04-04T12:22:04.999Z</time></trkpt><trkpt lat="44.704126070750206" lon="11.600733902581574"><ele>5.0</ele><time>2026-04-04T12:22:05.999Z</time></trkpt><trkpt lat="44.703934581083054" lon="11.60092713151889"><ele>5.0</ele><time>2026-04-04T12:22:06.999Z</time></trkpt><trkpt lat="44.703741912115106" lon="11.601124255623583"><ele>5.0</ele><time>2026-04-04T12:22:07.999Z</time></trkpt><trkpt lat="44.70354843629323" lon="11.601321328390146"><ele>5.0</ele><time>2026-04-04T12:22:08.999Z</time></trkpt><trkpt lat="44.70335481118483" lon="11.601520454695175"><ele>5.0</ele><time>2026-04-04T12:22:09.999Z</time></trkpt><trkpt lat="44.70316251736172" lon="11.601719113141952"><ele>5.0</ele><time>2026-04-04T12:22:10.999Z</time></trkpt><trkpt lat="44.70297002909754" lon="11.601911970080726"><ele>5.5</ele><time>2026-04-04T12:22:11.999Z</time></trkpt><trkpt lat="44.70277766262767" lon="11.602104257046276"><ele>6.0</ele><time>2026-04-04T12:22:12.999Z</time></trkpt><trkpt lat="44.7025844326654" lon="11.602297089988955"><ele>6.0</ele><time>2026-04-04T12:22:13.999Z</time></trkpt><trkpt lat="44.70239460120986" lon="11.602488649181922"><ele>6.0</ele><time>2026-04-04T12:22:14.999Z</time></trkpt><trkpt lat="44.70220648033556" lon="11.60268061689889"><ele>6.0</ele><time>2026-04-04T12:22:15.999Z</time></trkpt><trkpt lat="44.70201692454732" lon="11.60287744135688"><ele>6.0</ele><time>2026-04-04T12:22:16.999Z</time></trkpt><trkpt lat="44.70182890053926" lon="11.603071610811673"><ele>7.0</ele><time>2026-04-04T12:22:17.999Z</time></trkpt><trkpt lat="44.70163864447563" lon="11.603266333756645"><ele>8.0</ele><time>2026-04-04T12:22:18.999Z</time></trkpt><trkpt lat="44.701445481437474" lon="11.603462029755297"><ele>8.0</ele><time>2026-04-04T12:22:19.999Z</time></trkpt><trkpt lat="44.70125436232553" lon="11.603654850078664"><ele>8.0</ele><time>2026-04-04T12:22:20.999Z</time></trkpt><trkpt lat="44.70105653630802" lon="11.603850020843304"><ele>7.5</ele><time>2026-04-04T12:22:21.999Z</time></trkpt><trkpt lat="44.70086417568321" lon="11.604050617588435"><ele>7.0</ele><time>2026-04-04T12:22:22.999Z</time></trkpt><trkpt lat="44.700670387793444" lon="11.604253736140448"><ele>7.0</ele><time>2026-04-04T12:22:23.999Z</time></trkpt><trkpt lat="44.70047135499344" lon="11.604450987648685"><ele>7.0</ele><time>2026-04-04T12:22:24.999Z</time></trkpt><trkpt lat="44.70027578347004" lon="11.604646953040218"><ele>6.0</ele><time>2026-04-04T12:22:25.999Z</time></trkpt><trkpt lat="44.70007844594909" lon="11.604847354222965"><ele>5.0</ele><time>2026-04-04T12:22:26.999Z</time></trkpt><trkpt lat="44.69988362129063" lon="11.605042988746366"><ele>5.0</ele><time>2026-04-04T12:22:27.999Z</time></trkpt><trkpt lat="44.69968589992899" lon="11.605237993967553"><ele>5.0</ele><time>2026-04-04T12:22:28.999Z</time></trkpt><trkpt lat="44.69948761178183" lon="11.605435336304838"><ele>5.5</ele><time>2026-04-04T12:22:29.999Z</time></trkpt><trkpt lat="44.69928942164515" lon="11.605628220526519"><ele>6.0</ele><time>2026-04-04T12:22:30.999Z</time></trkpt><trkpt lat="44.6990894866584" lon="11.605824835174559"><ele>6.0</ele><time>2026-04-04T12:22:31.999Z</time></trkpt><trkpt lat="44.69889349515568" lon="11.606018662837972"><ele>6.0</ele><time>2026-04-04T12:22:32.999Z</time></trkpt><trkpt lat="44.69869514791795" lon="11.606217255567522"><ele>8.0</ele><time>2026-04-04T12:22:33.999Z</time></trkpt><trkpt lat="44.69849807676697" lon="11.606415684130752"><ele>10.0</ele><time>2026-04-04T12:22:34.999Z</time></trkpt><trkpt lat="44.698304803403694" lon="11.606610326509735"><ele>10.0</ele><time>2026-04-04T12:22:35.999Z</time></trkpt><trkpt lat="44.6981038952965" lon="11.606805366222321"><ele>10.0</ele><time>2026-04-04T12:22:36.999Z</time></trkpt><trkpt lat="44.69790808069451" lon="11.60700287454869"><ele>9.0</ele><time>2026-04-04T12:22:37.999Z</time></trkpt><trkpt lat="44.69771136256101" lon="11.607201453604716"><ele>8.0</ele><time>2026-04-04T12:22:38.999Z</time></trkpt><trkpt lat="44.6975189815438" lon="11.607397966589255"><ele>8.0</ele><time>2026-04-04T12:22:39.999Z</time></trkpt><trkpt lat="44.6973232048137" lon="11.60759445184963"><ele>8.0</ele><time>2026-04-04T12:22:40.999Z</time></trkpt><trkpt lat="44.69713348135011" lon="11.607791434236963"><ele>7.5</ele><time>2026-04-04T12:22:41.999Z</time></trkpt><trkpt lat="44.69693910567363" lon="11.607990908923178"><ele>7.0</ele><time>2026-04-04T12:22:42.999Z</time></trkpt><trkpt lat="44.69674399011739" lon="11.608186866515808"><ele>7.0</ele><time>2026-04-04T12:22:43.999Z</time></trkpt><trkpt lat="44.69654867847112" lon="11.608386290125196"><ele>7.0</ele><time>2026-04-04T12:22:45Z</time></trkpt><trkpt lat="44.696357358312426" lon="11.608585504813234"><ele>7.0</ele><time>2026-04-04T12:22:46Z</time></trkpt><trkpt lat="44.69616263934041" lon="11.60878281770376"><ele>7.0</ele><time>2026-04-04T12:22:47Z</time></trkpt><trkpt lat="44.695970115513056" lon="11.608975333626972"><ele>7.0</ele><time>2026-04-04T12:22:48Z</time></trkpt><trkpt lat="44.695783471309646" lon="11.609171073455558"><ele>7.0</ele><time>2026-04-04T12:22:49Z</time></trkpt><trkpt lat="44.69559478585992" lon="11.609359543804208"><ele>8.5</ele><time>2026-04-04T12:22:50Z</time></trkpt><trkpt lat="44.69540715874074" lon="11.609550067080871"><ele>10.0</ele><time>2026-04-04T12:22:51Z</time></trkpt><trkpt lat="44.69522316194789" lon="11.609739202722722"><ele>10.0</ele><time>2026-04-04T12:22:52Z</time></trkpt><trkpt lat="44.695036023778606" lon="11.609927169426088"><ele>10.0</ele><time>2026-04-04T12:22:53Z</time></trkpt><trkpt lat="44.6948495769882" lon="11.610111316313503"><ele>10.0</ele><time>2026-04-04T12:22:54Z</time></trkpt><trkpt lat="44.69466343313014" lon="11.610295084060631"><ele>10.0</ele><time>2026-04-04T12:22:55Z</time></trkpt><trkpt lat="44.694484014401155" lon="11.610480485005377"><ele>8.0</ele><time>2026-04-04T12:22:56Z</time></trkpt><trkpt lat="44.69430515573374" lon="11.610669059568965"><ele>6.0</ele><time>2026-04-04T12:22:57Z</time></trkpt><trkpt lat="44.694110607431774" lon="11.610852694165311"><ele>6.0</ele><time>2026-04-04T12:22:58Z</time></trkpt><trkpt lat="44.69392961985306" lon="11.611058413426102"><ele>6.0</ele><time>2026-04-04T12:22:59Z</time></trkpt><trkpt lat="44.69375444420388" lon="11.611224178542527"><ele>6.0</ele><time>2026-04-04T12:23:00Z</time></trkpt><trkpt lat="44.693572050531124" lon="11.611406003474707"><ele>6.0</ele><time>2026-04-04T12:23:01Z</time></trkpt><trkpt lat="44.69339507554697" lon="11.611589781983124"><ele>6.0</ele><time>2026-04-04T12:23:02Z</time></trkpt><trkpt lat="44.693213527519525" lon="11.611774592782785"><ele>6.0</ele><time>2026-04-04T12:23:03Z</time></trkpt><trkpt lat="44.69303081387479" lon="11.611957708356057"><ele>6.333333333333334</ele><time>2026-04-04T12:23:04Z</time></trkpt><trkpt lat="44.692848694975" lon="11.612140293333743"><ele>6.666666666666667</ele><time>2026-04-04T12:23:05Z</time></trkpt><trkpt lat="44.692673218083435" lon="11.61231842956192"><ele>7.0</ele><time>2026-04-04T12:23:06Z</time></trkpt><trkpt lat="44.692494241405505" lon="11.612504671512905"><ele>6.666666666666667</ele><time>2026-04-04T12:23:07Z</time></trkpt><trkpt lat="44.692318908269016" lon="11.612685986844472"><ele>6.333333333333334</ele><time>2026-04-04T12:23:08Z</time></trkpt><trkpt lat="44.692139018289474" lon="11.612867838784606"><ele>6.0</ele><time>2026-04-04T12:23:09Z</time></trkpt><trkpt lat="44.69196221805157" lon="11.61305127506926"><ele>5.666666666666667</ele><time>2026-04-04T12:23:10Z</time></trkpt><trkpt lat="44.69178343327901" lon="11.61323346280545"><ele>5.333333333333334</ele><time>2026-04-04T12:23:11Z</time></trkpt><trkpt lat="44.69160368103695" lon="11.613412085420752"><ele>5.0</ele><time>2026-04-04T12:23:12Z</time></trkpt><trkpt lat="44.69142416357624" lon="11.613594294623674"><ele>5.0</ele><time>2026-04-04T12:23:13Z</time></trkpt><trkpt lat="44.6912431914824" lon="11.613778142723634"><ele>5.0</ele><time>2026-04-04T12:23:14Z</time></trkpt><trkpt lat="44.69106064694814" lon="11.613960987758471"><ele>5.0</ele><time>2026-04-04T12:23:15Z</time></trkpt><trkpt lat="44.69087602369716" lon="11.614141587357137"><ele>5.0</ele><time>2026-04-04T12:23:16Z</time></trkpt><trkpt lat="44.69069077713793" lon="11.614330980273266"><ele>5.0</ele><time>2026-04-04T12:23:17Z</time></trkpt><trkpt lat="44.69050757672435" lon="11.614518517382526"><ele>5.0</ele><time>2026-04-04T12:23:18Z</time></trkpt><trkpt lat="44.690322528002014" lon="11.61470993725349"><ele>5.0</ele><time>2026-04-04T12:23:19Z</time></trkpt><trkpt lat="44.690134750874336" lon="11.614901066390471"><ele>5.5</ele><time>2026-04-04T12:23:20Z</time></trkpt><trkpt lat="44.68994415241507" lon="11.615094894443969"><ele>6.0</ele><time>2026-04-04T12:23:21Z</time></trkpt><trkpt lat="44.689752030596416" lon="11.615284872057966"><ele>5.5</ele><time>2026-04-04T12:23:22Z</time></trkpt><trkpt lat="44.689560595226276" lon="11.615481013873907"><ele>5.0</ele><time>2026-04-04T12:23:23Z</time></trkpt><trkpt lat="44.689369503384825" lon="11.615678551676096"><ele>4.5</ele><time>2026-04-04T12:23:24Z</time></trkpt><trkpt lat="44.68917734506964" lon="11.615874640496164"><ele>4.0</ele><time>2026-04-04T12:23:25Z</time></trkpt><trkpt lat="44.68898431660516" lon="11.616072213186655"><ele>4.0</ele><time>2026-04-04T12:23:26Z</time></trkpt><trkpt lat="44.68879027595198" lon="11.616271735810633"><ele>4.0</ele><time>2026-04-04T12:23:27Z</time></trkpt><trkpt lat="44.68859679702942" lon="11.616469700352111"><ele>5.0</ele><time>2026-04-04T12:23:28Z</time></trkpt><trkpt lat="44.68839931516995" lon="11.616666868121314"><ele>6.0</ele><time>2026-04-04T12:23:29Z</time></trkpt><trkpt lat="44.68820143628908" lon="11.616863564073052"><ele>5.666666666666667</ele><time>2026-04-04T12:23:30Z</time></trkpt><trkpt lat="44.68801269185768" lon="11.61705478780616"><ele>5.333333333333334</ele><time>2026-04-04T12:23:31Z</time></trkpt><trkpt lat="44.68783895954842" lon="11.617231295250724"><ele>5.0</ele><time>2026-04-04T12:23:32Z</time></trkpt><trkpt lat="44.68767678498665" lon="11.617399313758286"><ele>5.0</ele><time>2026-04-04T12:23:33Z</time></trkpt><trkpt lat="44.687525539425245" lon="11.617560077950262"><ele>5.0</ele><time>2026-04-04T12:23:34Z</time></trkpt><trkpt lat="44.687382638568444" lon="11.617709923456234"><ele>5.0</ele><time>2026-04-04T12:23:35Z</time></trkpt><trkpt lat="44.68723614537859" lon="11.617859657645301"><ele>5.333333333333334</ele><time>2026-04-04T12:23:36Z</time></trkpt><trkpt lat="44.68708715786104" lon="11.6180073084753"><ele>5.666666666666667</ele><time>2026-04-04T12:23:37Z</time></trkpt><trkpt lat="44.6869313509323" lon="11.618164054510483"><ele>6.0</ele><time>2026-04-04T12:23:38Z</time></trkpt><trkpt lat="44.686772165281916" lon="11.618322556924422"><ele>6.333333333333334</ele><time>2026-04-04T12:23:39Z</time></trkpt><trkpt lat="44.6866071701758" lon="11.618486682288506"><ele>6.666666666666667</ele><time>2026-04-04T12:23:40Z</time></trkpt><trkpt lat="44.686440369405304" lon="11.618649532311968"><ele>7.0</ele><time>2026-04-04T12:23:41Z</time></trkpt><trkpt lat="44.68627098896195" lon="11.618818990322632"><ele>7.0</ele><time>2026-04-04T12:23:42Z</time></trkpt><trkpt lat="44.686099456992885" lon="11.618993888669445"><ele>7.0</ele><time>2026-04-04T12:23:43Z</time></trkpt><trkpt lat="44.68592603237373" lon="11.619175061137259"><ele>7.0</ele><time>2026-04-04T12:23:44Z</time></trkpt><trkpt lat="44.68575224455238" lon="11.619350687948948"><ele>7.0</ele><time>2026-04-04T12:23:45Z</time></trkpt><trkpt lat="44.685573441670634" lon="11.619536194952751"><ele>7.0</ele><time>2026-04-04T12:23:46Z</time></trkpt><trkpt lat="44.685392175487934" lon="11.61972164128188"><ele>7.0</ele><time>2026-04-04T12:23:47Z</time></trkpt><trkpt lat="44.685203402465255" lon="11.61991934710664"><ele>6.5</ele><time>2026-04-04T12:23:47.999Z</time></trkpt><trkpt lat="44.685002746699986" lon="11.62013082933928"><ele>6.0</ele><time>2026-04-04T12:23:48.999Z</time></trkpt><trkpt lat="44.684787235276254" lon="11.620349142308552"><ele>5.5</ele><time>2026-04-04T12:23:49.999Z</time></trkpt><trkpt lat="44.6845583027986" lon="11.620583267447167"><ele>5.0</ele><time>2026-04-04T12:23:50.999Z</time></trkpt><trkpt lat="44.68431495580094" lon="11.62083138742476"><ele>5.0</ele><time>2026-04-04T12:23:51.999Z</time></trkpt><trkpt lat="44.68405782138079" lon="11.62109184233611"><ele>5.0</ele><time>2026-04-04T12:23:52.999Z</time></trkpt><trkpt lat="44.683790042878236" lon="11.62136221592138"><ele>5.0</ele><time>2026-04-04T12:23:53.999Z</time></trkpt><trkpt lat="44.683511775514276" lon="11.621642515936172"><ele>5.0</ele><time>2026-04-04T12:23:54.999Z</time></trkpt><trkpt lat="44.68324359452123" lon="11.62190996433158"><ele>4.5</ele><time>2026-04-04T12:23:55.999Z</time></trkpt><trkpt lat="44.68298838735768" lon="11.62216893070378"><ele>4.0</ele><time>2026-04-04T12:23:56.999Z</time></trkpt><trkpt lat="44.682754568591946" lon="11.622408376088329"><ele>4.0</ele><time>2026-04-04T12:23:57.999Z</time></trkpt><trkpt lat="44.68253983368225" lon="11.622628125328115"><ele>4.0</ele><time>2026-04-04T12:23:58.999Z</time></trkpt><trkpt lat="44.68234201056816" lon="11.622828647212119"><ele>3.5</ele><time>2026-04-04T12:23:59.999Z</time></trkpt><trkpt lat="44.68214859789764" lon="11.62302455381835"><ele>3.0</ele><time>2026-04-04T12:24:00.999Z</time></trkpt><trkpt lat="44.68194866045618" lon="11.62322330062798"><ele>3.0</ele><time>2026-04-04T12:24:01.999Z</time></trkpt><trkpt lat="44.68174578823352" lon="11.6234290610603"><ele>3.0</ele><time>2026-04-04T12:24:02.999Z</time></trkpt><trkpt lat="44.681544095944396" lon="11.623635660366364"><ele>3.0</ele><time>2026-04-04T12:24:03.999Z</time></trkpt><trkpt lat="44.68133699178091" lon="11.623851506931555"><ele>3.0</ele><time>2026-04-04T12:24:04.999Z</time></trkpt><trkpt lat="44.681127353531664" lon="11.624064900168602"><ele>3.0</ele><time>2026-04-04T12:24:05.999Z</time></trkpt><trkpt lat="44.68092020782667" lon="11.624277551079086"><ele>3.0</ele><time>2026-04-04T12:24:06.999Z</time></trkpt><trkpt lat="44.68070936681182" lon="11.624490975233286"><ele>3.0</ele><time>2026-04-04T12:24:07.999Z</time></trkpt><trkpt lat="44.680498325496835" lon="11.624706624617513"><ele>3.0</ele><time>2026-04-04T12:24:08.999Z</time></trkpt><trkpt lat="44.680288706656" lon="11.624922324068487"><ele>4.0</ele><time>2026-04-04T12:24:09.999Z</time></trkpt><trkpt lat="44.68007661251674" lon="11.625139464866077"><ele>5.0</ele><time>2026-04-04T12:24:10.999Z</time></trkpt><trkpt lat="44.67986498162571" lon="11.625354114477247"><ele>5.0</ele><time>2026-04-04T12:24:11.999Z</time></trkpt><trkpt lat="44.679647929035234" lon="11.625571740014163"><ele>5.0</ele><time>2026-04-04T12:24:12.999Z</time></trkpt><trkpt lat="44.679433112608564" lon="11.625790639605464"><ele>4.5</ele><time>2026-04-04T12:24:13.999Z</time></trkpt><trkpt lat="44.67922060753632" lon="11.62600997675401"><ele>4.0</ele><time>2026-04-04T12:24:14.999Z</time></trkpt><trkpt lat="44.679009000150195" lon="11.626223967621366"><ele>4.0</ele><time>2026-04-04T12:24:15.999Z</time></trkpt><trkpt lat="44.67879246219404" lon="11.626443883095586"><ele>4.0</ele><time>2026-04-04T12:24:16.999Z</time></trkpt><trkpt lat="44.67857350482264" lon="11.62666446529057"><ele>4.5</ele><time>2026-04-04T12:24:17.999Z</time></trkpt><trkpt lat="44.678355381460236" lon="11.62688770014024"><ele>5.0</ele><time>2026-04-04T12:24:18.999Z</time></trkpt><trkpt lat="44.678134838507376" lon="11.627112890412734"><ele>5.0</ele><time>2026-04-04T12:24:19.999Z</time></trkpt><trkpt lat="44.67791143735105" lon="11.627340289334812"><ele>5.0</ele><time>2026-04-04T12:24:20.999Z</time></trkpt><trkpt lat="44.67768733670514" lon="11.627566699976612"><ele>6.0</ele><time>2026-04-04T12:24:21.999Z</time></trkpt><trkpt lat="44.67747112285754" lon="11.62777754559702"><ele>7.0</ele><time>2026-04-04T12:24:22.999Z</time></trkpt><trkpt lat="44.6772783549477" lon="11.627975166092565"><ele>7.0</ele><time>2026-04-04T12:24:23.999Z</time></trkpt><trkpt lat="44.677095705437985" lon="11.628165423208678"><ele>7.0</ele><time>2026-04-04T12:24:24.999Z</time></trkpt><trkpt lat="44.67690836968248" lon="11.628354030001402"><ele>6.5</ele><time>2026-04-04T12:24:25.999Z</time></trkpt><trkpt lat="44.67671945859364" lon="11.628546277658144"><ele>6.0</ele><time>2026-04-04T12:24:26.999Z</time></trkpt><trkpt lat="44.67653181184206" lon="11.628736850433391"><ele>6.0</ele><time>2026-04-04T12:24:27.999Z</time></trkpt><trkpt lat="44.67633910401463" lon="11.628934348881971"><ele>6.0</ele><time>2026-04-04T12:24:28.999Z</time></trkpt><trkpt lat="44.67614580046365" lon="11.62913703391255"><ele>6.0</ele><time>2026-04-04T12:24:29.999Z</time></trkpt><trkpt lat="44.67595020379645" lon="11.629344567137474"><ele>6.0</ele><time>2026-04-04T12:24:30.999Z</time></trkpt><trkpt lat="44.675751291734265" lon="11.629553141925205"><ele>6.0</ele><time>2026-04-04T12:24:31.999Z</time></trkpt><trkpt lat="44.67554984763513" lon="11.62976036442647"><ele>6.0</ele><time>2026-04-04T12:24:32.999Z</time></trkpt><trkpt lat="44.67534779435664" lon="11.629970121740806"><ele>6.5</ele><time>2026-04-04T12:24:33.999Z</time></trkpt><trkpt lat="44.67514554997458" lon="11.630180636006545"><ele>7.0</ele><time>2026-04-04T12:24:34.999Z</time></trkpt><trkpt lat="44.67494050485571" lon="11.63039410603214"><ele>7.0</ele><time>2026-04-04T12:24:35.999Z</time></trkpt><trkpt lat="44.674734588730196" lon="11.630611270809988"><ele>7.0</ele><time>2026-04-04T12:24:36.999Z</time></trkpt><trkpt lat="44.67452569298198" lon="11.630832006515295"><ele>6.5</ele><time>2026-04-04T12:24:37.999Z</time></trkpt><trkpt lat="44.67431703010151" lon="11.63105302215878"><ele>6.0</ele><time>2026-04-04T12:24:38.999Z</time></trkpt><trkpt lat="44.674105545003655" lon="11.631273911203932"><ele>5.5</ele><time>2026-04-04T12:24:39.999Z</time></trkpt><trkpt lat="44.67389110228353" lon="11.631494586879214"><ele>5.0</ele><time>2026-04-04T12:24:40.999Z</time></trkpt><trkpt lat="44.673675397545196" lon="11.631715527286035"><ele>5.0</ele><time>2026-04-04T12:24:41.999Z</time></trkpt><trkpt lat="44.67346017392227" lon="11.631935286853412"><ele>5.0</ele><time>2026-04-04T12:24:42.999Z</time></trkpt><trkpt lat="44.673244523142046" lon="11.632156574157621"><ele>5.0</ele><time>2026-04-04T12:24:43.999Z</time></trkpt><trkpt lat="44.67303023692555" lon="11.632374901841782"><ele>5.0</ele><time>2026-04-04T12:24:44.999Z</time></trkpt><trkpt lat="44.67281995630584" lon="11.632587415228171"><ele>5.0</ele><time>2026-04-04T12:24:45.999Z</time></trkpt><trkpt lat="44.672622909902465" lon="11.632788452600302"><ele>5.0</ele><time>2026-04-04T12:24:46.999Z</time></trkpt><trkpt lat="44.67243845574568" lon="11.632974079825454"><ele>5.0</ele><time>2026-04-04T12:24:47.999Z</time></trkpt><trkpt lat="44.67226492212887" lon="11.63314811275075"><ele>5.0</ele><time>2026-04-04T12:24:48.999Z</time></trkpt><trkpt lat="44.67210102105014" lon="11.633309319190163"><ele>5.0</ele><time>2026-04-04T12:24:49.999Z</time></trkpt><trkpt lat="44.67194309073586" lon="11.633470228285923"><ele>5.0</ele><time>2026-04-04T12:24:51Z</time></trkpt><trkpt lat="44.671780483264584" lon="11.633638078901578"><ele>5.0</ele><time>2026-04-04T12:24:52Z</time></trkpt><trkpt lat="44.67161487861305" lon="11.633801493106802"><ele>5.0</ele><time>2026-04-04T12:24:53Z</time></trkpt><trkpt lat="44.67144570205761" lon="11.633968861032248"><ele>5.0</ele><time>2026-04-04T12:24:54Z</time></trkpt><trkpt lat="44.67127625198085" lon="11.634138471468965"><ele>5.0</ele><time>2026-04-04T12:24:55Z</time></trkpt><trkpt lat="44.67110550699503" lon="11.634310833502855"><ele>5.0</ele><time>2026-04-04T12:24:56Z</time></trkpt><trkpt lat="44.67093510651817" lon="11.634483042638239"><ele>5.0</ele><time>2026-04-04T12:24:57Z</time></trkpt><trkpt lat="44.6707626344638" lon="11.634659528054058"><ele>5.0</ele><time>2026-04-04T12:24:58Z</time></trkpt><trkpt lat="44.670590547830535" lon="11.634835663617302"><ele>5.0</ele><time>2026-04-04T12:24:59Z</time></trkpt><trkpt lat="44.67041834589359" lon="11.63501257144227"><ele>5.333333333333334</ele><time>2026-04-04T12:25:00Z</time></trkpt><trkpt lat="44.67024448942849" lon="11.635192893965408"><ele>5.666666666666667</ele><time>2026-04-04T12:25:01Z</time></trkpt><trkpt lat="44.67006940578509" lon="11.635374868011063"><ele>6.0</ele><time>2026-04-04T12:25:02Z</time></trkpt><trkpt lat="44.669891088042384" lon="11.635555635607359"><ele>6.0</ele><time>2026-04-04T12:25:03Z</time></trkpt><trkpt lat="44.66971105828732" lon="11.635739386335633"><ele>6.0</ele><time>2026-04-04T12:25:04Z</time></trkpt><trkpt lat="44.66952972200602" lon="11.635922297607602"><ele>6.0</ele><time>2026-04-04T12:25:05Z</time></trkpt><trkpt lat="44.66934221160786" lon="11.636110219062013"><ele>6.0</ele><time>2026-04-04T12:25:06Z</time></trkpt><trkpt lat="44.66915737774422" lon="11.636293135243362"><ele>6.0</ele><time>2026-04-04T12:25:07Z</time></trkpt><trkpt lat="44.66898291080271" lon="11.636460778638579"><ele>6.0</ele><time>2026-04-04T12:25:08Z</time></trkpt><trkpt lat="44.66882002179336" lon="11.636621580177708"><ele>6.0</ele><time>2026-04-04T12:25:09Z</time></trkpt><trkpt lat="44.668670497810794" lon="11.636771318329197"><ele>6.0</ele><time>2026-04-04T12:25:10Z</time></trkpt><trkpt lat="44.66852739650739" lon="11.636919111162586"><ele>6.0</ele><time>2026-04-04T12:25:11Z</time></trkpt><trkpt lat="44.668382525356954" lon="11.637074890408453"><ele>6.333333333333334</ele><time>2026-04-04T12:25:12Z</time></trkpt><trkpt lat="44.668236047603756" lon="11.637225520094923"><ele>6.666666666666667</ele><time>2026-04-04T12:25:13Z</time></trkpt><trkpt lat="44.66808997464105" lon="11.637375429172934"><ele>7.0</ele><time>2026-04-04T12:25:14Z</time></trkpt><trkpt lat="44.66794276420515" lon="11.637528678801644"><ele>7.0</ele><time>2026-04-04T12:25:15Z</time></trkpt><trkpt lat="44.667792561934604" lon="11.637683784438329"><ele>7.0</ele><time>2026-04-04T12:25:16Z</time></trkpt><trkpt lat="44.667629681816955" lon="11.637820874575718"><ele>7.0</ele><time>2026-04-04T12:25:17Z</time></trkpt><trkpt lat="44.66747653481474" lon="11.63797622685117"><ele>7.0</ele><time>2026-04-04T12:25:18Z</time></trkpt><trkpt lat="44.66732106489457" lon="11.63813393548239"><ele>7.0</ele><time>2026-04-04T12:25:19Z</time></trkpt><trkpt lat="44.667175384554156" lon="11.638303089666469"><ele>7.0</ele><time>2026-04-04T12:25:20Z</time></trkpt><trkpt lat="44.66703163520356" lon="11.638446608210906"><ele>7.0</ele><time>2026-04-04T12:25:21Z</time></trkpt><trkpt lat="44.666893802464124" lon="11.638583305985977"><ele>7.0</ele><time>2026-04-04T12:25:22Z</time></trkpt><trkpt lat="44.66676545797267" lon="11.638711486741443"><ele>7.0</ele><time>2026-04-04T12:25:23Z</time></trkpt><trkpt lat="44.66664450110325" lon="11.638834303212303"><ele>7.5</ele><time>2026-04-04T12:25:24Z</time></trkpt><trkpt lat="44.66652839149648" lon="11.638951822220204"><ele>8.0</ele><time>2026-04-04T12:25:25Z</time></trkpt><trkpt lat="44.666417954124" lon="11.639064450992858"><ele>8.5</ele><time>2026-04-04T12:25:26Z</time></trkpt><trkpt lat="44.66631192647368" lon="11.63917284915067"><ele>9.0</ele><time>2026-04-04T12:25:27Z</time></trkpt><trkpt lat="44.66620841528623" lon="11.639275963803833"><ele>8.25</ele><time>2026-04-04T12:25:28Z</time></trkpt><trkpt lat="44.66610560156441" lon="11.639377915254617"><ele>7.5</ele><time>2026-04-04T12:25:29Z</time></trkpt><trkpt lat="44.665996469279904" lon="11.6394871570287"><ele>6.75</ele><time>2026-04-04T12:25:30Z</time></trkpt><trkpt lat="44.6658856579624" lon="11.639598605469807"><ele>6.0</ele><time>2026-04-04T12:25:31Z</time></trkpt><trkpt lat="44.6657747877261" lon="11.639716857143625"><ele>6.0</ele><time>2026-04-04T12:25:32Z</time></trkpt><trkpt lat="44.665658434150885" lon="11.639840539250276"><ele>6.0</ele><time>2026-04-04T12:25:33Z</time></trkpt><trkpt lat="44.665541238933855" lon="11.639964264172743"><ele>6.0</ele><time>2026-04-04T12:25:34Z</time></trkpt><trkpt lat="44.665417637468884" lon="11.640090492239802"><ele>6.0</ele><time>2026-04-04T12:25:35Z</time></trkpt><trkpt lat="44.665290525902286" lon="11.64021850386032"><ele>6.666666666666666</ele><time>2026-04-04T12:25:36Z</time></trkpt><trkpt lat="44.665159970385375" lon="11.64035149005069"><ele>7.333333333333333</ele><time>2026-04-04T12:25:37Z</time></trkpt><trkpt lat="44.66502668784183" lon="11.640486625790153"><ele>8.0</ele><time>2026-04-04T12:25:38Z</time></trkpt><trkpt lat="44.66489213256529" lon="11.640622176165062"><ele>8.0</ele><time>2026-04-04T12:25:39Z</time></trkpt><trkpt lat="44.664752305435364" lon="11.640755728217243"><ele>8.0</ele><time>2026-04-04T12:25:40Z</time></trkpt><trkpt lat="44.6646127858871" lon="11.640893038616632"><ele>8.0</ele><time>2026-04-04T12:25:41Z</time></trkpt><trkpt lat="44.66447264345484" lon="11.64103372508073"><ele>8.333333333333332</ele><time>2026-04-04T12:25:42Z</time></trkpt><trkpt lat="44.664333887896824" lon="11.64117639734949"><ele>8.666666666666666</ele><time>2026-04-04T12:25:43Z</time></trkpt><trkpt lat="44.66419526895304" lon="11.641317654196472"><ele>9.0</ele><time>2026-04-04T12:25:44Z</time></trkpt><trkpt lat="44.664054734144976" lon="11.641461081144428"><ele>9.0</ele><time>2026-04-04T12:25:45Z</time></trkpt><trkpt lat="44.6639120841277" lon="11.641606989856092"><ele>9.0</ele><time>2026-04-04T12:25:46Z</time></trkpt><trkpt lat="44.66377035623728" lon="11.641755359180745"><ele>9.0</ele><time>2026-04-04T12:25:47Z</time></trkpt><trkpt lat="44.663624823252476" lon="11.64190386582829"><ele>8.666666666666666</ele><time>2026-04-04T12:25:48Z</time></trkpt><trkpt lat="44.66348010465424" lon="11.642053683919812"><ele>8.333333333333332</ele><time>2026-04-04T12:25:49Z</time></trkpt><trkpt lat="44.66333272038311" lon="11.642207664743433"><ele>8.0</ele><time>2026-04-04T12:25:49.999Z</time></trkpt><trkpt lat="44.663186796793056" lon="11.642357510918215"><ele>8.0</ele><time>2026-04-04T12:25:50.999Z</time></trkpt><trkpt lat="44.6630361829684" lon="11.642511162777364"><ele>8.0</ele><time>2026-04-04T12:25:51.999Z</time></trkpt><trkpt lat="44.66288926896495" lon="11.642659986207025"><ele>8.0</ele><time>2026-04-04T12:25:52.999Z</time></trkpt><trkpt lat="44.66274382542923" lon="11.642808375389711"><ele>8.0</ele><time>2026-04-04T12:25:53.999Z</time></trkpt><trkpt lat="44.662611400865536" lon="11.642946229588022"><ele>8.0</ele><time>2026-04-04T12:25:54.999Z</time></trkpt><trkpt lat="44.66248854729606" lon="11.643072683808876"><ele>8.0</ele><time>2026-04-04T12:25:55.999Z</time></trkpt><trkpt lat="44.6623698682289" lon="11.643196275540328"><ele>8.0</ele><time>2026-04-04T12:25:56.999Z</time></trkpt><trkpt lat="44.6622564269386" lon="11.643312369244965"><ele>8.0</ele><time>2026-04-04T12:25:57.999Z</time></trkpt><trkpt lat="44.66214079254652" lon="11.64343029325508"><ele>8.0</ele><time>2026-04-04T12:25:58.999Z</time></trkpt><trkpt lat="44.66202489895065" lon="11.64354697267297"><ele>8.0</ele><time>2026-04-04T12:25:59.999Z</time></trkpt><trkpt lat="44.66190224172228" lon="11.64363604438477"><ele>8.200000000000001</ele><time>2026-04-04T12:26:00.999Z</time></trkpt><trkpt lat="44.661804388692076" lon="11.643735471591942"><ele>8.4</ele><time>2026-04-04T12:26:01.999Z</time></trkpt><trkpt lat="44.661709119376155" lon="11.643832273522117"><ele>8.600000000000001</ele><time>2026-04-04T12:26:02.999Z</time></trkpt><trkpt lat="44.661622224146505" lon="11.643920562932758"><ele>8.8</ele><time>2026-04-04T12:26:03.999Z</time></trkpt><trkpt lat="44.66153932482095" lon="11.64400565460286"><ele>9.0</ele><time>2026-04-04T12:26:04.999Z</time></trkpt><trkpt lat="44.66146185390921" lon="11.644084838716426"><ele>9.0</ele><time>2026-04-04T12:26:05.999Z</time></trkpt><trkpt lat="44.66139541705211" lon="11.644180131896263"><ele>9.0</ele><time>2026-04-04T12:26:06.999Z</time></trkpt><trkpt lat="44.66131766445345" lon="11.644260005604368"><ele>9.0</ele><time>2026-04-04T12:26:07.999Z</time></trkpt><trkpt lat="44.66122756134604" lon="11.644321584007429"><ele>9.0</ele><time>2026-04-04T12:26:08.999Z</time></trkpt><trkpt lat="44.661157698589825" lon="11.644388403998704"><ele>9.0</ele><time>2026-04-04T12:26:09.999Z</time></trkpt><trkpt lat="44.66110018470985" lon="11.644442312168028"><ele>9.0</ele><time>2026-04-04T12:26:10.999Z</time></trkpt><trkpt lat="44.66102105902146" lon="11.644515663074523"><ele>9.0</ele><time>2026-04-04T12:26:12.999Z</time></trkpt><trkpt lat="44.661163316347576" lon="11.644835695583415"><ele>9.0</ele><time>2026-04-04T12:26:15.999Z</time></trkpt><trkpt lat="44.6612350569203" lon="11.644890887752263"><ele>9.0</ele><time>2026-04-04T12:26:16.999Z</time></trkpt><trkpt lat="44.661321383895455" lon="11.644940284056748"><ele>9.0</ele><time>2026-04-04T12:26:17.999Z</time></trkpt><trkpt lat="44.661418199058296" lon="11.645002487498932"><ele>9.0</ele><time>2026-04-04T12:26:18.999Z</time></trkpt><trkpt lat="44.661518074428464" lon="11.64507265038032"><ele>9.0</ele><time>2026-04-04T12:26:19.999Z</time></trkpt><trkpt lat="44.6616285123592" lon="11.645145425179475"><ele>9.0</ele><time>2026-04-04T12:26:20.999Z</time></trkpt><trkpt lat="44.66174222371423" lon="11.645221280802193"><ele>9.0</ele><time>2026-04-04T12:26:21.999Z</time></trkpt><trkpt lat="44.661850460344134" lon="11.64528383838744"><ele>9.0</ele><time>2026-04-04T12:26:22.999Z</time></trkpt><trkpt lat="44.66196313866272" lon="11.64535463792626"><ele>9.0</ele><time>2026-04-04T12:26:23.999Z</time></trkpt><trkpt lat="44.66207418394609" lon="11.64542702587818"><ele>9.0</ele><time>2026-04-04T12:26:24.999Z</time></trkpt><trkpt lat="44.66218641649338" lon="11.645503041920842"><ele>9.0</ele><time>2026-04-04T12:26:25.999Z</time></trkpt><trkpt lat="44.6622995960175" lon="11.645578529095218"><ele>9.0</ele><time>2026-04-04T12:26:26.999Z</time></trkpt><trkpt lat="44.6624089570593" lon="11.645647633245702"><ele>9.0</ele><time>2026-04-04T12:26:27.999Z</time></trkpt><trkpt lat="44.6625062536706" lon="11.645712320488695"><ele>9.0</ele><time>2026-04-04T12:26:28.999Z</time></trkpt><trkpt lat="44.662596017920116" lon="11.645774415335348"><ele>9.0</ele><time>2026-04-04T12:26:29.999Z</time></trkpt><trkpt lat="44.662673810377676" lon="11.645828216423107"><ele>9.0</ele><time>2026-04-04T12:26:30.999Z</time></trkpt><trkpt lat="44.662742139059475" lon="11.645878029988125"><ele>9.166666666666666</ele><time>2026-04-04T12:26:31.999Z</time></trkpt><trkpt lat="44.66281223752044" lon="11.645920413196324"><ele>9.333333333333334</ele><time>2026-04-04T12:26:32.999Z</time></trkpt><trkpt lat="44.662876618666516" lon="11.64596132049454"><ele>9.5</ele><time>2026-04-04T12:26:33.999Z</time></trkpt><trkpt lat="44.662935609314694" lon="11.645997431331"><ele>9.666666666666668</ele><time>2026-04-04T12:26:34.999Z</time></trkpt><trkpt lat="44.66303742870022" lon="11.646076357691499"><ele>9.833333333333334</ele><time>2026-04-04T12:26:36.999Z</time></trkpt><trkpt lat="44.66308942770582" lon="11.646181775612737"><ele>10.0</ele><time>2026-04-04T12:26:38.999Z</time></trkpt><trkpt lat="44.663056710584854" lon="11.646295426886915"><ele>10.0</ele><time>2026-04-04T12:26:39.999Z</time></trkpt><trkpt lat="44.663018271419205" lon="11.64637395577125"><ele>10.0</ele><time>2026-04-04T12:26:40.999Z</time></trkpt><trkpt lat="44.662979999177615" lon="11.646471721767963"><ele>10.0</ele><time>2026-04-04T12:26:41.999Z</time></trkpt><trkpt lat="44.66294312433513" lon="11.646586539354303"><ele>10.0</ele><time>2026-04-04T12:26:42.999Z</time></trkpt><trkpt lat="44.66290031579334" lon="11.646706438438338"><ele>10.0</ele><time>2026-04-04T12:26:43.999Z</time></trkpt><trkpt lat="44.66285735403191" lon="11.646830850529824"><ele>10.0</ele><time>2026-04-04T12:26:44.999Z</time></trkpt><trkpt lat="44.66281716180474" lon="11.6469534058929"><ele>9.6</ele><time>2026-04-04T12:26:45.999Z</time></trkpt><trkpt lat="44.66277963872852" lon="11.647070036483937"><ele>9.2</ele><time>2026-04-04T12:26:46.999Z</time></trkpt><trkpt lat="44.66273884715003" lon="11.647191079887818"><ele>8.8</ele><time>2026-04-04T12:26:47.999Z</time></trkpt><trkpt lat="44.662700540457436" lon="11.647314383549807"><ele>8.4</ele><time>2026-04-04T12:26:48.999Z</time></trkpt><trkpt lat="44.66265893713894" lon="11.647437156526662"><ele>8.0</ele><time>2026-04-04T12:26:49.999Z</time></trkpt><trkpt lat="44.662621988451534" lon="11.647547710843133"><ele>7.999999999999999</ele><time>2026-04-04T12:26:50.999Z</time></trkpt><trkpt lat="44.66258466275478" lon="11.647654801220847"><ele>8.0</ele><time>2026-04-04T12:26:51.999Z</time></trkpt><trkpt lat="44.662552805555826" lon="11.647752368815652"><ele>8.0</ele><time>2026-04-04T12:26:52.999Z</time></trkpt><trkpt lat="44.66252806848992" lon="11.647835313519497"><ele>8.0</ele><time>2026-04-04T12:26:53.999Z</time></trkpt><trkpt lat="44.66248709968537" lon="11.647963653814774"><ele>7.999999999999999</ele><time>2026-04-04T12:26:55.999Z</time></trkpt><trkpt lat="44.66245603926871" lon="11.64807085579249"><ele>8.0</ele><time>2026-04-04T12:26:58Z</time></trkpt><trkpt lat="44.66244019063912" lon="11.648174167414657"><ele>7.800000000000001</ele><time>2026-04-04T12:27:02Z</time></trkpt><trkpt lat="44.66254198760581" lon="11.64829535864339"><ele>7.6000000000000005</ele><time>2026-04-04T12:27:05Z</time></trkpt><trkpt lat="44.66264183551708" lon="11.648343458334457"><ele>7.3999999999999995</ele><time>2026-04-04T12:27:07Z</time></trkpt><trkpt lat="44.662725733485374" lon="11.648396791821682"><ele>7.199999999999999</ele><time>2026-04-04T12:27:09Z</time></trkpt><trkpt lat="44.66280889245598" lon="11.648448242096991"><ele>7.0</ele><time>2026-04-04T12:27:11Z</time></trkpt><trkpt lat="44.66287993311746" lon="11.648493603735457"><ele>7.0</ele><time>2026-04-04T12:27:13Z</time></trkpt><trkpt lat="44.662918571418636" lon="11.648570824457996"><ele>7.0</ele><time>2026-04-04T12:27:16Z</time></trkpt><trkpt lat="44.662880981754924" lon="11.648656277756801"><ele>8.0</ele><time>2026-04-04T12:27:18Z</time></trkpt><trkpt lat="44.66283770728876" lon="11.648733439526309"><ele>8.0</ele><time>2026-04-04T12:27:28Z</time></trkpt><trkpt lat="44.662819129770575" lon="11.648824192779106"><ele>8.0</ele><time>2026-04-04T12:27:36Z</time></trkpt><trkpt lat="44.662793810055305" lon="11.648907470330464"><ele>8.0</ele><time>2026-04-04T12:27:41Z</time></trkpt><trkpt lat="44.66275592274101" lon="11.648991378486519"><ele>5.0</ele><time>2026-04-04T12:27:46Z</time></trkpt></trkseg></trk></gpx>